ftp/pub/palmer/observations_modified/2019/August/original_files/AR190803_BASE.txt

Download

Sample DateTime	Unit Id	WS Avg 2min	WD Avg 2min	WGS 10min	WGD 10min	Air Temp	Rel Humidity	Dew Point	Pyranometer	Quantum	Air Pressure	Snow Level	Rainfall	PW Current	Visibility	CBase 1	CBase 2	CBase 3	Vert Vis
2019/08/03 00:00:00	BASE	5.31	123	7.20	126	-3.7	97	-4.1	0	0	990.8	NA	0.0000		9999	4530	0	0	0
2019/08/03 00:01:00	BASE	5.11	124	7.20	126	-3.7	98	-3.9	0	0	990.8	NA	0.0000		9999	4400	0	0	0
2019/08/03 00:02:00	BASE	4.64	124	7.20	126	-3.7	98	-3.9	0	0	990.8	NA	0.0000		9999	4460	0	0	0
2019/08/03 00:03:00	BASE	4.24	124	7.20	126	-3.7	99	-3.8	0	0	990.8	NA	0.0000		9999	4430	0	0	0
2019/08/03 00:04:00	BASE	3.60	120	7.20	126	-3.7	99	-3.8	0	0	990.9	NA	0.0000		9999	4330	4950	0	0
2019/08/03 00:05:00	BASE	3.25	123	7.20	126	-3.7	99	-3.8	0	0	990.8	NA	0.0000		9999	4200	0	0	0
2019/08/03 00:06:00	BASE	3.17	125	6.84	119	-3.7	99	-3.8	0	0	990.8	NA	0.0000		9999	4230	4990	0	0
2019/08/03 00:07:00	BASE	3.37	126	6.84	119	-3.7	99	-3.8	0	0	990.8	NA	0.0000		9999	4300	5020	0	0
2019/08/03 00:08:00	BASE	3.48	131	6.17	123	-3.7	99	-3.8	0	0	990.8	NA	0.0000		9999	4170	5020	0	0
2019/08/03 00:09:00	BASE	3.57	133	6.17	123	-3.7	99	-3.8	0	0	990.7	NA	0.0000		9999	4130	4950	0	0
2019/08/03 00:10:00	BASE	4.43	133	5.86	136	-3.8	99	-3.9	0	0	990.7	NA	0.0000		9999	4130	5020	0	0
2019/08/03 00:11:00	BASE	5.26	132	6.02	134	-3.8	99	-3.9	0	0	990.7	NA	0.0000		9999	4100	4950	0	0
2019/08/03 00:12:00	BASE	5.42	133	6.02	134	-3.9	99	-4.0	0	0	990.8	NA	0.0000		9999	4070	4890	0	0
2019/08/03 00:13:00	BASE	5.11	133	6.02	134	-3.9	99	-4.0	0	0	990.8	NA	0.0000		9999	4040	4860	0	0
2019/08/03 00:14:00	BASE	4.67	132	6.02	134	-3.9	99	-4.0	0	0	990.8	NA	0.0000		9999	4000	4720	0	0
2019/08/03 00:15:00	BASE	4.03	132	6.02	134	-3.9	99	-4.0	0	0	990.7	NA	0.0000		9999	3940	4630	0	0
2019/08/03 00:16:00	BASE	3.76	128	6.02	134	-3.9	99	-4.1	0	0	990.7	NA	0.0000		9999	3840	4590	4990	0
2019/08/03 00:17:00	BASE	4.27	125	6.02	134	-4.0	99	-4.0	0	0	990.7	NA	0.0000		9999	3810	4560	4950	0
2019/08/03 00:18:00	BASE	4.87	123	6.02	134	-3.9	100	-4.0	0	0	990.7	NA	0.0000		9999	3670	4590	0	0
2019/08/03 00:19:00	BASE	4.92	122	6.02	134	-3.9	100	-3.9	0	0	990.6	NA	0.0000		9999	0	0	0	0
2019/08/03 00:20:00	BASE	4.96	121	6.02	134	-3.8	100	-3.8	0	0	990.7	NA	0.0000		9999	0	0	0	0
2019/08/03 00:21:00	BASE	5.26	121	5.81	133	-3.7	100	-3.8	0	0	990.7	NA	0.0000		9999	0	0	0	0
2019/08/03 00:22:00	BASE	5.26	122	5.71	120	-3.6	99	-3.7	0	0	990.6	NA	0.0000		9999	0	0	0	0
2019/08/03 00:23:00	BASE	5.09	126	5.71	120	-3.6	99	-3.8	0	0	990.6	NA	0.0000		9999	0	0	0	0
2019/08/03 00:24:00	BASE	5.01	125	5.71	120	-3.6	98	-3.8	0	0	990.5	NA	0.0000		9999	0	0	0	0
2019/08/03 00:25:00	BASE	5.25	120	6.17	115	-3.5	97	-3.9	0	0	990.6	NA	0.0000		9999	0	0	0	0
2019/08/03 00:26:00	BASE	5.68	118	6.53	116	-3.5	97	-4.0	0	0	990.5	NA	0.0000		9999	0	0	0	0
2019/08/03 00:27:00	BASE	5.75	119	6.53	116	-3.5	96	-4.1	0	0	990.5	NA	0.0000		9999	0	0	0	0
2019/08/03 00:28:00	BASE	5.52	121	6.53	116	-3.5	95	-4.2	0	0	990.5	NA	0.0000		9999	0	0	0	0
2019/08/03 00:29:00	BASE	5.19	122	6.53	116	-3.5	94	-4.3	0	0	990.5	NA	0.0000		9999	0	0	0	0
2019/08/03 00:30:00	BASE	4.91	119	6.53	116	-3.6	94	-4.4	0	0	990.5	NA	0.0000		9999	0	0	0	0
2019/08/03 00:31:00	BASE	5.29	117	6.79	123	-3.6	93	-4.5	0	0	990.5	NA	0.0000		9999	0	0	0	0
2019/08/03 00:32:00	BASE	6.08	117	6.79	123	-3.6	93	-4.6	0	0	990.5	NA	0.0000		9999	0	0	0	0
2019/08/03 00:33:00	BASE	6.39	115	6.79	119	-3.8	92	-4.8	0	0	990.5	NA	0.0000		9999	0	0	0	0
2019/08/03 00:34:00	BASE	6.21	114	6.79	119	-3.9	92	-5.0	0	0	990.5	NA	0.0000		9999	0	0	0	0
2019/08/03 00:35:01	BASE	5.94	114	6.79	119	-4.1	92	-5.2	0	0	990.5	NA	0.0000		9999	0	0	0	0
2019/08/03 00:36:01	BASE	5.84	116	6.79	119	-4.2	92	-5.4	0	0	990.5	NA	0.0000		9999	0	0	0	0
2019/08/03 00:37:01	BASE	5.73	116	6.79	119	-4.4	92	-5.5	0	0	990.5	NA	0.0000		9999	0	0	0	0
2019/08/03 00:38:01	BASE	5.17	111	6.79	119	-4.3	92	-5.4	0	0	990.5	NA	0.0000		9999	0	0	0	0
2019/08/03 00:39:01	BASE	4.78	106	6.79	119	-4.2	92	-5.3	0	0	990.5	NA	0.0000		9999	0	0	0	0
2019/08/03 00:40:01	BASE	4.14	102	6.79	119	-4.2	92	-5.2	0	0	990.5	NA	0.0000		9999	0	0	0	0
2019/08/03 00:41:01	BASE	3.13	93	6.79	119	-4.0	92	-5.1	0	0	990.5	NA	0.0000		9999	0	0	0	0
2019/08/03 00:42:01	BASE	3.38	81	7.05	87	-3.9	92	-5.0	0	0	990.5	NA	0.0000		9999	0	0	0	0
2019/08/03 00:43:01	BASE	3.68	81	7.05	87	-3.8	92	-4.9	0	0	990.5	NA	0.0000		9999	0	0	0	0
2019/08/03 00:44:01	BASE	3.31	86	7.05	87	-3.7	92	-4.9	0	0	990.5	NA	0.0000		9999	4170	0	0	0
2019/08/03 00:45:01	BASE	3.07	81	7.05	87	-3.6	91	-4.8	0	0	990.6	NA	0.0000		9999	4070	0	0	0
2019/08/03 00:46:01	BASE	2.55	84	7.05	87	-3.5	91	-4.7	0	0	990.7	NA	0.0000		9999	3970	0	0	0
2019/08/03 00:47:01	BASE	1.91	107	7.05	87	-3.4	90	-4.8	0	0	990.6	NA	0.0000		9999	3900	0	0	0
2019/08/03 00:48:01	BASE	0.82	100	7.05	87	-3.3	90	-4.7	0	0	990.5	NA	0.0000		9999	3740	0	0	0
2019/08/03 00:49:01	BASE	0.34	89	7.05	87	-3.2	89	-4.7	0	0	990.5	NA	0.0000		9999	3640	0	0	0
2019/08/03 00:50:01	BASE	1.01	105	7.05	87	-3.1	89	-4.7	0	0	990.5	NA	0.0000		9999	3580	0	0	0
2019/08/03 00:51:01	BASE	0.71	90	7.05	87	-3.0	88	-4.7	0	0	990.5	NA	0.0000		9999	3450	0	0	0
2019/08/03 00:52:01	BASE	0.25	50	6.17	103	-2.9	87	-4.8	0	0	990.5	NA	0.0000		9999	3310	0	0	0
2019/08/03 00:53:01	BASE	1.12	37	4.48	74	-2.9	86	-4.9	0	0	990.5	NA	0.0000		9999	3180	0	0	0
2019/08/03 00:54:01	BASE	1.81	54	4.48	74	-3.0	85	-5.1	0	0	990.5	NA	0.0000		9999	3350	0	0	0
2019/08/03 00:55:01	BASE	1.09	71	2.52	78	-3.0	85	-5.2	0	0	990.5	NA	0.0000		9999	2990	0	0	0
2019/08/03 00:56:01	BASE	1.33	93	2.68	130	-3.1	84	-5.4	0	0	990.5	NA	0.0000		9999	3020	0	0	0
2019/08/03 00:57:01	BASE	1.71	112	2.68	130	-3.2	84	-5.5	0	0	990.5	NA	0.0000		9999	2890	0	0	0
2019/08/03 00:58:01	BASE	0.58	114	2.68	130	-3.1	84	-5.4	0	0	990.5	NA	0.0000		9999	2590	0	0	0
2019/08/03 00:59:01	BASE	0.56	115	2.68	130	-3.0	84	-5.4	0	0	990.5	NA	0.0000		9999	2590	0	0	0
2019/08/03 01:00:01	BASE	2.03	117	3.45	119	-3.0	83	-5.4	0	0	990.5	NA	0.0000		9999	2760	0	0	0
2019/08/03 01:01:01	BASE	2.61	128	3.45	119	-3.0	83	-5.5	0	0	990.5	NA	0.0000		9999	2850	0	0	0
2019/08/03 01:02:01	BASE	2.37	132	3.45	119	-3.1	82	-5.7	0	0	990.5	NA	0.0000		9999	2790	0	0	0
2019/08/03 01:03:01	BASE	2.38	128	3.45	119	-3.3	82	-6.0	0	0	990.5	NA	0.0000		9999	2790	0	0	0
2019/08/03 01:04:01	BASE	2.45	129	3.45	119	-3.5	81	-6.2	0	0	990.5	NA	0.0000		9999	2760	0	0	0
2019/08/03 01:05:01	BASE	2.49	128	3.45	119	-3.5	81	-6.3	0	0	990.5	NA	0.0000		9999	2760	0	0	0
2019/08/03 01:06:01	BASE	2.78	122	3.81	122	-3.6	82	-6.3	0	0	990.5	NA	0.0000		9999	2720	0	0	0
2019/08/03 01:07:01	BASE	3.22	119	3.81	122	-3.6	82	-6.2	0	0	990.5	NA	0.0000		9999	2660	0	0	0
2019/08/03 01:08:01	BASE	3.26	121	3.81	122	-3.5	82	-6.1	0	0	990.5	NA	0.0000		9999	2790	0	0	0
2019/08/03 01:09:01	BASE	3.10	127	3.81	122	-3.4	82	-6.1	0	0	990.5	NA	0.0000		9999	2690	0	0	0
2019/08/03 01:10:01	BASE	2.86	124	3.81	122	-3.3	82	-6.0	0	0	990.6	NA	0.0000		9999	2690	0	0	0
2019/08/03 01:11:01	BASE	3.10	118	3.81	122	-3.3	81	-6.0	0	0	990.6	NA	0.0000		9999	2460	0	0	0
2019/08/03 01:12:01	BASE	3.43	123	3.81	127	-3.2	81	-6.0	0	0	990.5	NA	0.0000		9999	2400	0	0	0
2019/08/03 01:13:01	BASE	3.47	123	3.81	127	-3.1	80	-6.0	0	0	990.5	NA	0.0000		9999	2490	0	0	0
2019/08/03 01:14:01	BASE	3.43	120	3.81	127	-3.0	80	-6.1	0	0	990.6	NA	0.0000		9999	2490	0	0	0
2019/08/03 01:15:01	BASE	3.16	124	3.81	127	-3.0	79	-6.1	0	0	990.6	NA	0.0000		9999	2530	0	0	0
2019/08/03 01:16:01	BASE	2.82	129	3.81	127	-2.9	78	-6.1	0	0	990.6	NA	0.0000		9999	2620	0	0	0
2019/08/03 01:17:01	BASE	2.75	133	3.81	127	-2.7	78	-6.1	0	0	990.6	NA	0.0000		9999	2530	0	0	0
2019/08/03 01:18:01	BASE	2.67	135	3.81	127	-2.6	78	-6.0	0	0	990.7	NA	0.0000		9999	2300	0	0	0
2019/08/03 01:19:01	BASE	2.33	122	3.81	127	-2.5	78	-5.9	0	0	990.7	NA	0.0000		9999	2230	0	0	0
2019/08/03 01:20:01	BASE	1.61	94	3.81	127	-2.5	78	-5.7	0	0	990.7	NA	0.0000		9999	2070	0	0	0
2019/08/03 01:21:01	BASE	1.53	70	3.81	127	-2.4	79	-5.6	0	0	990.7	NA	0.0000		9999	2360	0	0	0
2019/08/03 01:22:01	BASE	1.83	55	3.76	119	-2.4	80	-5.4	0	0	990.7	NA	0.0000		9999	2560	0	0	0
2019/08/03 01:23:01	BASE	1.54	51	3.65	119	-2.4	81	-5.3	0	0	990.7	NA	0.0000		9999	2000	0	0	0
2019/08/03 01:24:01	BASE	1.21	60	3.45	125	-2.4	81	-5.1	0	0	990.7	NA	0.0000		9999	2300	0	0	0
2019/08/03 01:25:01	BASE	0.52	61	3.24	135	-2.3	82	-5.0	0	0	990.7	NA	0.0000		9999	2130	0	0	0
2019/08/03 01:26:01	BASE	0.00	40	3.09	134	-2.2	82	-4.9	0	0	990.7	NA	0.0000		9999	2070	0	0	0
2019/08/03 01:27:01	BASE	0.00	16	2.78	125	-2.1	82	-4.7	0	0	990.7	NA	0.0000		9999	2400	0	0	0
2019/08/03 01:28:01	BASE	0.00	338	2.78	125	-2.0	82	-4.6	0	0	990.8	NA	0.0000		9999	2360	0	0	0
2019/08/03 01:29:01	BASE	0.00	316	2.31	57	-2.0	82	-4.7	0	0	990.8	NA	0.0000		9999	1940	0	0	0
2019/08/03 01:30:01	BASE	0.18	352	2.31	57	-2.0	81	-4.8	0	0	990.8	NA	0.0000		9999	1480	0	0	0
2019/08/03 01:31:01	BASE	0.44	19	2.31	57	-2.0	81	-4.9	0	0	990.8	NA	0.0000		9999	1770	0	0	0
2019/08/03 01:32:01	BASE	0.75	24	2.47	27	-2.1	81	-4.9	0	0	990.8	NA	0.0000		9999	1640	0	0	0
2019/08/03 01:33:01	BASE	1.19	35	2.47	27	-2.1	81	-4.9	0	0	990.8	NA	0.0000		9999	1770	0	0	0
2019/08/03 01:34:01	BASE	1.01	42	2.47	27	-2.0	81	-4.9	0	0	990.8	NA	0.0000		9999	1870	0	0	0
2019/08/03 01:35:01	BASE	0.77	29	2.47	27	-2.0	81	-4.8	0	0	990.8	NA	0.0000		9999	1250	0	0	0
2019/08/03 01:36:01	BASE	1.01	8	2.47	27	-2.0	81	-4.8	0	0	990.8	NA	0.0000		9999	1840	0	0	0
2019/08/03 01:37:01	BASE	1.64	4	2.47	27	-2.0	81	-4.8	0	0	990.9	NA	0.0000		9999	1610	0	0	0
2019/08/03 01:38:01	BASE	1.95	4	2.47	27	-2.0	81	-4.9	0	0	990.9	NA	0.0000		9999	1120	2070	0	0
2019/08/03 01:39:01	BASE	1.68	9	2.47	27	-2.1	81	-4.9	0	0	990.9	NA	0.0000		9999	1250	0	0	0
2019/08/03 01:40:01	BASE	1.76	17	2.47	27	-2.2	82	-4.9	0	0	990.8	NA	0.0000		9999	1940	0	0	0
2019/08/03 01:41:00	BASE	1.84	20	2.47	27	-2.3	82	-4.9	0	0	990.8	NA	0.0000		9999	1900	0	0	0
2019/08/03 01:42:00	BASE	1.70	5	2.42	32	-2.3	83	-4.9	0	0	990.8	NA	0.0000		9999	1870	0	0	0
2019/08/03 01:43:00	BASE	1.51	347	2.37	360	-2.3	83	-4.8	0	0	990.8	NA	0.0000		9999	2300	0	0	0
2019/08/03 01:44:00	BASE	1.54	339	2.37	360	-2.3	83	-4.7	0	0	990.8	NA	0.0000		9999	2230	0	0	0
2019/08/03 01:45:00	BASE	1.45	343	2.37	360	-2.2	83	-4.7	0	0	990.8	NA	0.0000		9999	1900	0	0	0
2019/08/03 01:46:00	BASE	1.28	357	2.37	360	-2.2	83	-4.7	0	0	990.8	NA	0.0000		9999	2260	0	0	0
2019/08/03 01:47:00	BASE	0.66	0	2.31	6	-2.2	83	-4.7	0	0	990.9	NA	0.0000		9999	1940	0	0	0
2019/08/03 01:48:00	BASE	0.00	1	2.31	6	-2.2	83	-4.7	0	0	990.8	NA	0.0000		9999	1310	0	0	0
2019/08/03 01:49:00	BASE	0.00	355	2.31	6	-2.2	83	-4.6	0	0	990.9	NA	0.0000		9999	1770	0	0	0
2019/08/03 01:50:00	BASE	0.00	342	2.31	6	-2.2	84	-4.6	0	0	990.9	NA	0.0000		9999	2360	0	0	0
2019/08/03 01:51:00	BASE	0.30	338	2.06	335	-2.2	84	-4.6	0	0	990.9	NA	0.0000		9999	2260	0	0	0
2019/08/03 01:52:00	BASE	0.35	334	2.06	335	-2.2	84	-4.6	0	0	990.9	NA	0.0000		9999	1510	2360	0	0
2019/08/03 01:53:00	BASE	0.05	328	2.06	335	-2.3	84	-4.6	0	0	990.9	NA	0.0000		9999	1610	2260	0	0
2019/08/03 01:54:00	BASE	0.00	328	1.95	346	-2.3	84	-4.6	0	0	990.9	NA	0.0000		9999	1740	0	0	0
2019/08/03 01:55:00	BASE	0.13	327	1.54	2	-2.3	84	-4.6	0	0	990.9	NA	0.0000		9999	2330	0	0	0
2019/08/03 01:56:00	BASE	0.87	312	1.80	301	-2.3	85	-4.6	0	0	990.9	NA	0.0000		9999	2430	0	0	0
2019/08/03 01:57:00	BASE	1.58	283	2.16	266	-2.4	85	-4.5	0	0	990.9	NA	0.0000		9999	1080	2490	0	0
2019/08/03 01:58:00	BASE	1.68	260	2.16	266	-2.4	85	-4.5	0	0	990.9	NA	0.0000		9999	430	0	0	0
2019/08/03 01:59:00	BASE	1.62	285	2.16	266	-2.4	85	-4.5	0	0	991.0	NA	0.0000		9999	1840	0	0	0
2019/08/03 02:00:00	BASE	1.43	334	2.16	266	-2.4	86	-4.5	0	0	991.0	NA	0.0000		9999	1870	0	0	0
2019/08/03 02:01:00	BASE	1.49	353	2.16	266	-2.4	86	-4.5	0	0	991.0	NA	0.0000		9999	1350	2560	0	0
2019/08/03 02:02:00	BASE	1.21	339	2.16	266	-2.4	86	-4.5	0	0	991.0	NA	0.0000		9999	1120	1900	0	0
2019/08/03 02:03:00	BASE	0.37	329	2.16	266	-2.5	86	-4.5	0	0	991.0	NA	0.0000		9999	2030	0	0	0
2019/08/03 02:04:00	BASE	0.00	343	2.16	266	-2.5	86	-4.5	0	0	991.0	NA	0.0000		9999	2230	0	0	0
2019/08/03 02:05:00	BASE	0.00	0	2.16	266	-2.4	86	-4.5	0	0	990.9	NA	0.0000		9999	2200	0	0	0
2019/08/03 02:06:01	BASE	0.00	36	2.16	266	-2.4	86	-4.4	0	0	990.9	NA	0.0000		9999	2560	0	0	0
2019/08/03 02:07:01	BASE	0.04	60	2.11	262	-2.4	86	-4.4	0	0	990.9	NA	0.0000		9999	2330	0	0	0
2019/08/03 02:08:00	BASE	0.27	27	2.06	1	-2.4	87	-4.3	0	0	990.9	NA	0.0000		9999	2360	0	0	0
2019/08/03 02:09:00	BASE	0.87	335	2.06	1	-2.4	87	-4.3	0	0	990.9	NA	0.0000		9999	2070	0	0	0
2019/08/03 02:10:00	BASE	0.75	299	2.06	1	-2.4	87	-4.2	0	0	990.9	NA	0.0000		9999	1940	0	0	0
2019/08/03 02:11:01	BASE	0.86	280	2.78	268	-2.3	87	-4.2	0	0	990.9	NA	0.0000		9999	1610	0	0	0
2019/08/03 02:12:01	BASE	2.32	287	5.66	326	-2.3	87	-4.2	0	0	990.9	NA	0.0000		9999	1710	0	0	0
2019/08/03 02:13:01	BASE	4.16	316	7.61	310	-2.2	87	-4.0	0	0	990.8	NA	0.0000		9999	1710	0	0	0
2019/08/03 02:14:01	BASE	4.37	339	7.61	310	-2.0	87	-3.8	0	0	990.8	NA	0.0000		9999	1870	0	0	0
2019/08/03 02:15:01	BASE	2.96	360	7.61	310	-1.9	87	-3.7	0	0	990.8	NA	0.0000		9999	2200	0	0	0
2019/08/03 02:16:01	BASE	2.40	61	7.61	310	-1.9	87	-3.8	0	0	990.8	NA	0.0000		9999	1380	0	0	0
2019/08/03 02:17:01	BASE	2.68	89	7.61	310	-1.9	86	-3.9	0	0	990.8	NA	0.0000		9999	2260	0	0	0
2019/08/03 02:18:01	BASE	2.68	95	7.61	310	-2.1	86	-4.1	0	0	990.8	NA	0.0000		9999	2490	0	0	0
2019/08/03 02:19:01	BASE	2.06	97	7.61	310	-2.2	86	-4.3	0	0	990.8	NA	0.0000		9999	2560	0	0	0
2019/08/03 02:20:01	BASE	1.40	74	7.61	310	-2.3	86	-4.4	0	0	990.8	NA	0.0000		9999	2760	0	0	0
2019/08/03 02:21:01	BASE	1.04	35	7.61	310	-2.3	86	-4.3	0	0	990.8	NA	0.0000		9999	2720	0	0	0
2019/08/03 02:22:01	BASE	0.49	21	7.61	310	-2.1	86	-4.2	0	0	990.8	NA	0.0000		9999	2330	0	0	0
2019/08/03 02:23:01	BASE	0.00	46	4.73	343	-2.0	86	-4.1	0	0	990.8	NA	0.0000		9999	1940	0	0	0
2019/08/03 02:24:01	BASE	0.26	68	4.12	67	-2.0	86	-4.1	0	0	990.8	NA	0.0000		9999	2660	0	0	0
2019/08/03 02:25:01	BASE	0.31	44	4.12	67	-1.9	85	-4.1	0	0	990.8	NA	0.0000		9999	2660	0	0	0
2019/08/03 02:26:01	BASE	0.19	326	4.12	67	-1.9	85	-4.0	0	0	990.8	NA	0.0000		9999	2460	0	0	0
2019/08/03 02:27:01	BASE	0.58	292	3.14	98	-1.9	85	-4.1	0	0	990.8	NA	0.0000		9999	2590	0	0	0
2019/08/03 02:28:01	BASE	0.53	278	2.01	92	-1.9	85	-4.1	0	0	990.8	NA	0.0000		9999	2530	0	0	0
2019/08/03 02:29:01	BASE	0.09	274	1.54	39	-1.9	85	-4.1	0	0	990.8	NA	0.0000		9999	2400	0	0	0
2019/08/03 02:30:01	BASE	0.35	311	2.57	304	-1.9	84	-4.2	0	0	990.9	NA	0.0000		9999	2330	0	0	0
2019/08/03 02:31:01	BASE	1.47	331	3.19	316	-1.9	84	-4.2	0	0	990.8	NA	0.0000		9999	2330	0	0	0
2019/08/03 02:32:01	BASE	2.02	349	3.19	337	-2.0	84	-4.3	0	0	990.9	NA	0.0000		9999	2490	0	0	0
2019/08/03 02:33:01	BASE	1.12	4	3.19	337	-2.0	85	-4.3	0	0	990.8	NA	0.0000		9999	2720	0	0	0
2019/08/03 02:34:01	BASE	1.95	6	4.73	5	-2.0	85	-4.2	0	0	990.8	NA	0.0000		9999	2490	0	0	0
2019/08/03 02:35:01	BASE	5.03	19	9.00	46	-2.0	85	-4.1	0	0	990.8	NA	0.0000		9999	2690	0	0	0
2019/08/03 02:36:01	BASE	5.79	51	9.00	46	-1.9	86	-4.0	0	0	990.8	NA	0.0000		9999	2690	0	0	0
2019/08/03 02:37:01	BASE	5.61	44	9.00	46	-1.9	86	-4.0	0	0	990.8	NA	0.0000		9999	2620	0	0	0
2019/08/03 02:38:01	BASE	6.71	25	9.00	16	-1.8	86	-3.8	0	0	990.8	NA	0.0000		9999	2130	0	0	0
2019/08/03 02:39:01	BASE	6.45	23	9.00	16	-1.7	86	-3.7	0	0	990.8	NA	0.0000		9999	2330	0	0	0
2019/08/03 02:40:01	BASE	6.16	26	9.57	37	-1.7	87	-3.7	0	0	990.7	NA	0.0000		9999	2490	0	0	0
2019/08/03 02:41:01	BASE	8.78	23	13.38	25	-1.7	87	-3.6	0	0	990.6	NA	0.0000		9999	2490	0	0	0
2019/08/03 02:42:01	BASE	12.80	21	17.39	24	-1.6	87	-3.5	0	0	990.6	NA	0.0000		9999	2690	0	0	0
2019/08/03 02:43:01	BASE	13.84	15	17.39	24	-1.6	87	-3.4	0	0	990.6	NA	0.0000		9999	3150	0	0	0
2019/08/03 02:44:01	BASE	13.54	15	17.39	24	-1.5	88	-3.3	0	0	990.6	NA	0.0000		9999	2920	0	0	0
2019/08/03 02:45:01	BASE	13.21	21	17.39	24	-1.5	88	-3.3	0	0	990.6	NA	0.0000		9999	2950	0	0	0
2019/08/03 02:46:01	BASE	13.98	21	17.39	24	-1.5	88	-3.2	0	0	990.5	NA	0.0000		9999	2920	0	0	0
2019/08/03 02:47:01	BASE	16.31	20	18.88	18	-1.5	88	-3.2	0	0	990.4	NA	0.0000		9999	2920	0	0	0
2019/08/03 02:48:01	BASE	17.78	21	20.11	20	-1.4	88	-3.1	0	0	990.3	NA	0.0000		9999	3050	0	0	0
2019/08/03 02:49:01	BASE	19.18	22	20.94	20	-1.5	88	-3.1	0	0	990.3	NA	0.0000		9999	2950	0	0	0
2019/08/03 02:50:01	BASE	20.00	22	21.04	22	-1.5	89	-3.1	0	0	990.3	NA	0.0000		9999	2920	0	0	0
2019/08/03 02:51:01	BASE	19.78	23	21.20	21	-1.4	89	-3.0	0	0	990.3	NA	0.0000		9999	3080	0	0	0
2019/08/03 02:52:01	BASE	19.97	23	21.86	20	-1.4	89	-3.0	0	0	990.3	NA	0.0000		9999	2990	0	0	0
2019/08/03 02:53:01	BASE	20.46	22	21.86	20	-1.4	89	-3.0	0	0	990.3	NA	0.0000		9999	2950	0	0	0
2019/08/03 02:54:01	BASE	20.43	22	22.48	22	-1.4	89	-2.9	0	0	990.2	NA	0.0000		9999	2920	0	0	0
2019/08/03 02:55:01	BASE	20.14	21	22.48	22	-1.4	90	-2.9	0	0	990.3	NA	0.0000		9999	2890	0	0	0
2019/08/03 02:56:01	BASE	19.67	20	22.48	22	-1.4	90	-2.9	0	0	990.2	NA	0.0000		9999	3050	0	0	0
2019/08/03 02:57:01	BASE	20.00	20	22.48	22	-1.4	90	-2.8	0	0	990.2	NA	0.0000		9999	2920	0	0	0
2019/08/03 02:58:01	BASE	20.13	21	22.48	22	-1.4	90	-2.8	0	0	990.3	NA	0.0000		9999	2820	0	0	0
2019/08/03 02:59:01	BASE	19.65	22	22.48	22	-1.4	90	-2.8	0	0	990.2	NA	0.0000		9999	2890	0	0	0
2019/08/03 03:00:01	BASE	19.09	23	22.48	22	-1.4	90	-2.8	0	0	990.3	NA	0.0000		9999	3050	0	0	0
2019/08/03 03:01:01	BASE	19.02	22	22.48	22	-1.4	90	-2.8	0	0	990.3	NA	0.0000		9999	3050	0	0	0
2019/08/03 03:02:01	BASE	19.61	20	22.48	22	-1.4	90	-2.8	0	0	990.2	NA	0.0000		9999	3150	0	0	0
2019/08/03 03:03:01	BASE	19.29	20	22.48	22	-1.4	90	-2.8	0	0	990.3	NA	0.0000		9999	3150	0	0	0
2019/08/03 03:04:01	BASE	18.42	20	21.86	21	-1.4	90	-2.8	0	0	990.3	NA	0.0000		9999	3020	0	0	0
2019/08/03 03:05:01	BASE	18.90	20	21.86	21	-1.4	90	-2.8	0	0	990.3	NA	0.0000		9999	3080	0	0	0
2019/08/03 03:06:01	BASE	18.94	21	21.86	21	-1.4	90	-2.7	0	0	990.4	NA	0.0000		9999	3220	0	0	0
2019/08/03 03:07:01	BASE	18.32	22	21.14	23	-1.3	91	-2.7	0	0	990.4	NA	0.0000		9999	3080	3770	0	0
2019/08/03 03:08:01	BASE	18.68	22	21.14	23	-1.3	91	-2.6	0	0	990.4	NA	0.0000		9999	3410	0	0	0
2019/08/03 03:09:01	BASE	18.85	23	21.14	23	-1.3	91	-2.6	0	0	990.4	NA	0.0000		9999	3350	0	0	0
2019/08/03 03:10:01	BASE	18.10	23	21.14	23	-1.3	91	-2.6	0	0	990.5	NA	0.0000		9999	3250	0	0	0
2019/08/03 03:11:01	BASE	17.67	24	21.14	23	-1.3	90	-2.7	0	0	990.5	NA	0.0000		9999	3540	0	0	0
2019/08/03 03:12:01	BASE	17.93	25	20.83	19	-1.3	90	-2.7	0	0	990.5	NA	0.0000		9999	3610	0	0	0
2019/08/03 03:13:01	BASE	17.71	25	20.83	19	-1.3	90	-2.8	0	0	990.5	NA	0.0000		9999	3020	3580	0	0
2019/08/03 03:14:01	BASE	17.36	24	20.83	19	-1.3	90	-2.8	0	0	990.5	NA	0.0000		9999	3640	0	0	0
2019/08/03 03:15:01	BASE	16.93	24	20.17	24	-1.4	89	-2.9	0	0	990.5	NA	0.0000		9999	3120	0	0	0
2019/08/03 03:16:01	BASE	16.60	26	20.17	24	-1.4	89	-2.9	0	0	990.5	NA	0.0000		9999	3580	0	0	0
2019/08/03 03:17:01	BASE	17.42	26	20.17	24	-1.4	89	-3.0	0	0	990.4	NA	0.0000		9999	3670	0	0	0
2019/08/03 03:18:01	BASE	18.25	26	19.55	29	-1.5	89	-3.0	0	0	990.4	NA	0.0000		9999	3610	0	0	0
2019/08/03 03:19:01	BASE	17.46	25	19.55	29	-1.5	89	-3.1	0	0	990.5	NA	0.0000		9999	3610	0	0	0
2019/08/03 03:20:01	BASE	16.88	23	19.55	29	-1.5	89	-3.1	0	0	990.4	NA	0.0000		9999	3510	0	0	0
2019/08/03 03:21:01	BASE	16.55	20	19.55	29	-1.6	89	-3.1	0	0	990.5	NA	0.0000		9999	3510	0	0	0
2019/08/03 03:22:01	BASE	15.46	18	19.55	29	-1.6	89	-3.2	0	0	990.5	NA	0.0000		9999	3610	0	0	0
2019/08/03 03:23:00	BASE	15.80	16	19.55	29	-1.7	89	-3.2	0	0	990.5	NA	0.0000		9999	3770	0	0	0
2019/08/03 03:24:01	BASE	16.42	13	19.55	29	-1.7	89	-3.2	0	0	990.5	NA	0.0000		9999	2760	3900	0	0
2019/08/03 03:25:00	BASE	17.01	14	19.55	29	-1.7	89	-3.2	0	0	990.4	NA	0.0000		9999	2820	0	0	0
2019/08/03 03:26:00	BASE	17.61	17	19.55	29	-1.6	90	-3.1	0	0	990.4	NA	0.0000		9999	2690	0	0	0
2019/08/03 03:27:00	BASE	17.08	19	19.55	29	-1.5	90	-3.0	0	0	990.4	NA	0.0000		9999	2620	3940	0	0
2019/08/03 03:28:01	BASE	16.72	20	18.62	18	-1.4	90	-2.8	0	0	990.4	NA	0.0000		9999	2720	4130	0	0
2019/08/03 03:29:00	BASE	16.91	21	18.62	18	-1.3	90	-2.7	0	0	990.4	NA	0.0000		9999	2850	0	0	0
2019/08/03 03:30:00	BASE	17.25	23	18.88	22	-1.2	90	-2.6	0	0	990.4	NA	0.0000		9999	2720	0	0	0
2019/08/03 03:31:00	BASE	17.33	24	18.88	22	-1.1	90	-2.6	0	0	990.4	NA	0.0000		9999	2790	0	0	0
2019/08/03 03:32:00	BASE	16.38	22	18.88	22	-1.1	90	-2.6	0	0	990.5	NA	0.0000		9999	2790	0	0	0
2019/08/03 03:33:00	BASE	14.98	22	18.88	22	-1.0	90	-2.5	0	0	990.5	NA	0.0000		9999	2760	0	0	0
2019/08/03 03:34:00	BASE	14.21	21	18.88	22	-1.0	89	-2.5	0	0	990.6	NA	0.0000		9999	2850	0	0	0
2019/08/03 03:35:00	BASE	13.99	18	18.88	22	-0.9	89	-2.5	0	0	990.5	NA	0.0000		9999	2850	0	0	0
2019/08/03 03:36:01	BASE	13.99	18	18.88	22	-0.9	89	-2.6	0	0	990.6	NA	0.0000		9999	2920	0	0	0
2019/08/03 03:37:00	BASE	13.74	21	18.88	22	-0.9	88	-2.6	0	0	990.6	NA	0.0000		9999	2920	0	0	0
2019/08/03 03:38:00	BASE	14.00	22	18.88	22	-0.9	88	-2.6	0	0	990.6	NA	0.0000		9999	2920	0	0	0
2019/08/03 03:39:00	BASE	13.98	21	18.88	22	-0.8	88	-2.6	0	0	990.6	NA	0.0000		9999	2890	0	0	0
2019/08/03 03:40:00	BASE	13.19	20	18.57	24	-0.8	87	-2.6	0	0	990.6	NA	0.0000		9999	2890	0	0	0
2019/08/03 03:41:01	BASE	12.82	20	16.62	17	-0.8	87	-2.6	0	0	990.6	NA	0.0000		9999	2990	0	0	0
2019/08/03 03:42:01	BASE	12.26	21	15.38	15	-0.7	87	-2.6	0	0	990.6	NA	0.0000		9999	2950	0	0	0
2019/08/03 03:43:00	BASE	11.73	22	15.18	23	-0.7	86	-2.7	0	0	990.6	NA	0.0000		9999	2950	0	0	0
2019/08/03 03:44:00	BASE	11.19	23	15.18	23	-0.7	86	-2.7	0	0	990.6	NA	0.0000		9999	2990	0	0	0
2019/08/03 03:45:00	BASE	10.57	24	15.18	23	-0.7	86	-2.8	0	0	990.6	NA	0.0000		9999	3020	0	0	0
2019/08/03 03:46:01	BASE	10.19	25	15.18	23	-0.7	85	-2.8	0	0	990.6	NA	0.0000		9999	3120	0	0	0
2019/08/03 03:47:00	BASE	10.42	24	15.18	23	-0.7	85	-2.9	0	0	990.6	NA	0.0000		9999	3180	0	0	0
2019/08/03 03:48:00	BASE	10.85	23	14.30	20	-0.7	85	-2.9	0	0	990.6	NA	0.0000		9999	3180	0	0	0
2019/08/03 03:49:00	BASE	11.03	24	13.58	20	-0.7	85	-3.0	0	0	990.6	NA	0.0000		9999	3180	0	0	0
2019/08/03 03:50:00	BASE	10.81	26	13.58	20	-0.7	85	-3.0	0	0	990.6	NA	0.0000		9999	3120	0	0	0
2019/08/03 03:51:00	BASE	10.37	27	12.71	24	-0.7	84	-3.0	0	0	990.5	NA	0.0000		9999	3220	0	0	0
2019/08/03 03:52:01	BASE	10.42	30	12.35	27	-0.7	84	-3.0	0	0	990.6	NA	0.0000		9999	3050	0	0	0
2019/08/03 03:53:01	BASE	10.42	31	12.35	27	-0.7	84	-3.0	0	0	990.5	NA	0.0000		9999	3150	0	0	0
2019/08/03 03:54:01	BASE	10.08	31	12.35	27	-0.7	84	-3.1	0	0	990.6	NA	0.0000		9999	3050	0	0	0
2019/08/03 03:55:01	BASE	9.84	32	12.35	27	-0.7	84	-3.2	0	0	990.5	NA	0.0000		9999	3020	0	0	0
2019/08/03 03:56:01	BASE	9.12	32	12.35	27	-0.8	84	-3.2	0	0	990.6	NA	0.0000		9999	3220	0	0	0
2019/08/03 03:57:01	BASE	9.17	33	12.35	27	-0.8	84	-3.3	0	0	990.5	NA	0.0000		9999	3540	0	0	0
2019/08/03 03:58:01	BASE	10.60	35	12.35	27	-0.9	84	-3.3	0	0	990.5	NA	0.0000		9999	3510	0	0	0
2019/08/03 03:59:01	BASE	11.05	33	11.99	26	-0.9	84	-3.3	0	0	990.5	NA	0.0000		9999	3450	0	0	0
2019/08/03 04:00:01	BASE	11.32	31	12.66	26	-0.9	84	-3.3	0	0	990.5	NA	0.0000		9999	3480	0	0	0
2019/08/03 04:01:01	BASE	11.87	30	13.32	26	-0.9	84	-3.3	0	0	990.5	NA	0.0000		9999	3410	0	0	0
2019/08/03 04:03:00	BASE	11.72	31	13.32	26	-0.9	84	-3.2	0	0	990.5	NA	0.0000		9999	3580	0	0	0
2019/08/03 04:04:00	BASE	10.96	32	13.32	26	-0.8	84	-3.2	0	0	990.4	NA	0.0000		9999	3510	0	0	0
2019/08/03 04:05:00	BASE	10.53	33	13.32	26	-0.8	84	-3.3	0	0	990.5	NA	0.0000		9999	3450	0	0	0
2019/08/03 04:06:00	BASE	10.18	33	13.32	26	-0.8	83	-3.3	0	0	990.5	NA	0.0000		9999	3380	0	0	0
2019/08/03 04:07:00	BASE	10.20	32	13.32	26	-0.8	83	-3.3	0	0	990.5	NA	0.0000		9999	3450	0	0	0
2019/08/03 04:08:00	BASE	10.53	31	13.32	26	-0.8	83	-3.3	0	0	990.4	NA	0.0000		9999	3310	0	0	0
2019/08/03 04:09:00	BASE	10.52	31	13.32	26	-0.8	83	-3.4	0	0	990.4	NA	0.0000		9999	3310	0	0	0
2019/08/03 04:10:00	BASE	10.44	31	13.32	26	-0.8	83	-3.4	0	0	990.4	NA	0.0000		9999	3310	0	0	0
2019/08/03 04:11:00	BASE	11.03	31	13.32	26	-0.8	82	-3.4	0	0	990.4	NA	0.0000		9999	3310	0	0	0
2019/08/03 04:12:00	BASE	11.73	31	13.17	27	-0.8	82	-3.5	0	0	990.4	NA	0.0000		9999	3480	0	0	0
2019/08/03 04:13:00	BASE	12.35	31	13.74	27	-0.8	82	-3.5	0	0	990.4	NA	0.0000		9999	3510	0	0	0
2019/08/03 04:14:00	BASE	13.18	32	14.40	27	-0.8	82	-3.5	0	0	990.4	NA	0.0000		9999	3510	0	0	0
2019/08/03 04:15:00	BASE	13.48	33	14.82	31	-0.8	82	-3.5	0	0	990.3	NA	0.0000		9999	3450	0	0	0
2019/08/03 04:16:00	BASE	13.30	33	14.82	31	-0.8	82	-3.5	0	0	990.3	NA	0.0000		9999	3410	0	0	0
2019/08/03 04:17:00	BASE	13.07	34	14.82	31	-0.8	82	-3.6	0	0	990.3	NA	0.0000		9999	3540	0	0	0
2019/08/03 04:18:00	BASE	13.61	34	16.15	36	-0.8	81	-3.6	0	0	990.3	NA	0.0000		9999	3540	0	0	0
2019/08/03 04:19:00	BASE	14.20	32	16.62	31	-0.8	81	-3.6	0	0	990.3	NA	0.0000		9999	3450	0	0	0
2019/08/03 04:20:00	BASE	14.21	31	16.62	31	-0.8	81	-3.6	0	0	990.3	NA	0.0000		9999	3670	0	0	0
2019/08/03 04:21:00	BASE	14.35	33	16.62	31	-0.8	81	-3.5	0	0	990.3	NA	0.0000		9999	3610	0	0	0
2019/08/03 04:22:00	BASE	13.74	36	16.62	31	-0.7	82	-3.5	0	0	990.3	NA	0.0000		9999	3670	0	0	0
2019/08/03 04:23:00	BASE	13.02	36	16.62	31	-0.7	82	-3.4	0	0	990.3	NA	0.0000		9999	3710	0	0	0
2019/08/03 04:24:00	BASE	13.30	36	16.62	31	-0.7	82	-3.4	0	0	990.3	NA	0.0000		9999	3740	0	0	0
2019/08/03 04:25:00	BASE	14.22	36	16.77	36	-0.7	82	-3.4	0	0	990.3	NA	0.0000		9999	3770	0	0	0
2019/08/03 04:26:00	BASE	14.46	35	16.77	36	-0.7	82	-3.4	0	0	990.3	NA	0.0000		9999	3640	0	0	0
2019/08/03 04:27:00	BASE	14.53	34	17.34	34	-0.7	82	-3.4	0	0	990.3	NA	0.0000		9999	3710	0	0	0
2019/08/03 04:28:00	BASE	15.14	32	17.39	26	-0.7	82	-3.5	0	0	990.3	NA	0.0000		9999	3710	0	0	0
2019/08/03 04:29:00	BASE	14.57	30	17.39	26	-0.7	81	-3.5	0	0	990.4	NA	0.0000		9999	3610	0	0	0
2019/08/03 04:30:00	BASE	13.36	31	17.39	26	-0.7	81	-3.5	0	0	990.4	NA	0.0000		9999	3050	3710	0	0
2019/08/03 04:31:00	BASE	13.77	34	17.39	26	-0.7	81	-3.5	0	0	990.3	NA	0.0000		9999	2620	0	0	0
2019/08/03 04:32:00	BASE	14.78	33	17.39	26	-0.7	81	-3.6	0	0	990.3	NA	0.0000		9999	3610	0	0	0
2019/08/03 04:33:00	BASE	14.11	32	17.39	26	-0.7	81	-3.6	0	0	990.4	NA	0.0000		9999	3670	0	0	0
2019/08/03 04:34:00	BASE	13.54	33	17.39	26	-0.8	81	-3.6	0	0	990.4	NA	0.0000		9999	3740	0	0	0
2019/08/03 04:35:00	BASE	13.66	35	17.39	26	-0.8	81	-3.6	0	0	990.4	NA	0.0000		9999	3840	0	0	0
2019/08/03 04:36:00	BASE	13.56	35	17.39	26	-0.8	81	-3.6	0	0	990.4	NA	0.0000		9999	3770	0	0	0
2019/08/03 04:37:00	BASE	13.55	33	17.39	26	-0.9	82	-3.6	0	0	990.4	NA	0.0000		9999	3640	0	0	0
2019/08/03 04:38:00	BASE	13.58	34	16.46	31	-0.9	82	-3.5	0	0	990.4	NA	0.0000		9999	3670	0	0	0
2019/08/03 04:39:00	BASE	13.22	36	16.46	31	-0.9	83	-3.5	0	0	990.4	NA	0.0000		9999	3740	0	0	0
2019/08/03 04:40:00	BASE	13.29	35	17.18	32	-0.9	83	-3.5	0	0	990.4	NA	0.0000		9999	3710	0	0	0
2019/08/03 04:41:00	BASE	13.46	37	17.18	32	-0.9	83	-3.4	0	0	990.4	NA	0.0000		9999	3710	0	0	0
2019/08/03 04:42:00	BASE	13.38	37	17.18	32	-0.9	83	-3.4	0	0	990.4	NA	0.0000		9999	3710	0	0	0
2019/08/03 04:43:00	BASE	14.19	34	17.18	32	-0.9	83	-3.4	0	0	990.4	NA	0.0000		9999	3810	0	0	0
2019/08/03 04:44:00	BASE	14.08	36	17.18	32	-0.9	83	-3.4	0	0	990.4	NA	0.0000		9999	3810	0	0	0
2019/08/03 04:45:00	BASE	13.05	38	17.18	32	-0.9	83	-3.4	0	0	990.4	NA	0.0000		9999	3610	0	0	0
2019/08/03 04:46:00	BASE	13.06	40	17.18	32	-1.0	83	-3.4	0	0	990.4	NA	0.0000		9999	3940	0	0	0
2019/08/03 04:47:00	BASE	13.42	40	17.18	32	-1.0	84	-3.4	0	0	990.4	NA	0.0000		9999	3670	0	0	0
2019/08/03 04:48:00	BASE	13.38	38	17.18	32	-1.0	84	-3.4	0	0	990.4	NA	0.0000		9999	3770	0	0	0
2019/08/03 04:49:00	BASE	13.04	39	17.18	32	-1.0	83	-3.4	0	0	990.4	NA	0.0000		9999	3710	0	0	0
2019/08/03 04:50:00	BASE	13.09	40	16.82	39	-1.0	83	-3.4	0	0	990.4	NA	0.0000		9999	3610	0	0	0
2019/08/03 04:51:00	BASE	13.59	39	16.82	39	-1.0	83	-3.4	0	0	990.4	NA	0.0000		9999	3770	0	0	0
2019/08/03 04:52:00	BASE	14.35	34	16.82	39	-0.9	83	-3.4	0	0	990.3	NA	0.0000		9999	3870	0	0	0
2019/08/03 04:53:00	BASE	14.72	32	16.67	33	-0.9	83	-3.4	0	0	990.3	NA	0.0000		9999	3840	0	0	0
2019/08/03 04:54:00	BASE	14.34	34	16.67	33	-0.9	83	-3.3	0	0	990.4	NA	0.0000		9999	3840	0	0	0
2019/08/03 04:55:00	BASE	14.45	35	16.67	33	-0.8	83	-3.3	0	0	990.3	NA	0.0000		9999	3810	0	0	0
2019/08/03 04:56:00	BASE	14.61	36	16.67	33	-0.8	83	-3.3	0	0	990.4	NA	0.0000		9999	3940	0	0	0
2019/08/03 04:57:00	BASE	14.76	35	16.67	33	-0.7	83	-3.2	0	0	990.3	NA	0.0000		9999	3870	0	0	0
2019/08/03 04:58:00	BASE	15.59	33	17.54	37	-0.7	83	-3.2	0	0	990.3	NA	0.0000		9999	4040	0	0	0
2019/08/03 04:59:00	BASE	15.56	34	17.54	37	-0.6	83	-3.2	0	0	990.3	NA	0.0000		9999	3940	0	0	0
2019/08/03 05:00:00	BASE	14.69	33	17.54	37	-0.6	82	-3.2	0	0	990.4	NA	0.0000		9999	3970	0	0	0
2019/08/03 05:01:00	BASE	14.55	33	17.54	37	-0.6	82	-3.2	0	0	990.3	NA	0.0000		9999	3870	0	0	0
2019/08/03 05:02:00	BASE	14.29	34	17.54	37	-0.5	82	-3.2	0	0	990.4	NA	0.0000		9999	3840	0	0	0
2019/08/03 05:03:00	BASE	14.15	35	17.54	37	-0.5	82	-3.2	0	0	990.3	NA	0.0000		9999	3900	0	0	0
2019/08/03 05:04:00	BASE	14.68	36	17.54	37	-0.5	82	-3.2	0	0	990.3	NA	0.0000		9999	3970	0	0	0
2019/08/03 05:05:00	BASE	14.14	36	17.54	37	-0.5	82	-3.2	0	0	990.3	NA	0.0000		9999	3870	0	0	0
2019/08/03 05:06:00	BASE	14.15	35	17.54	37	-0.5	82	-3.2	0	0	990.3	NA	0.0000		9999	4000	0	0	0
2019/08/03 05:07:00	BASE	14.52	35	17.54	37	-0.5	81	-3.3	0	0	990.3	NA	0.0000		9999	3870	0	0	0
2019/08/03 05:08:00	BASE	14.69	35	17.49	36	-0.5	81	-3.3	0	0	990.2	NA	0.0000		9999	3940	0	0	0
2019/08/03 05:09:00	BASE	15.45	34	17.49	36	-0.6	81	-3.4	0	0	990.2	NA	0.0000		9999	4200	0	0	0
2019/08/03 05:10:00	BASE	15.98	32	17.49	36	-0.6	81	-3.4	0	0	990.2	NA	0.0000		9999	4130	0	0	0
2019/08/03 05:11:00	BASE	16.41	33	17.59	36	-0.6	81	-3.4	0	0	990.2	NA	0.0000		9999	4040	0	0	0
2019/08/03 05:12:00	BASE	16.50	34	18.31	34	-0.6	81	-3.4	0	0	990.2	NA	0.0000		9999	4040	0	0	0
2019/08/03 05:13:00	BASE	15.55	34	18.31	34	-0.5	81	-3.4	0	0	990.2	NA	0.0000		9999	3970	0	0	0
2019/08/03 05:14:00	BASE	15.40	34	18.31	34	-0.5	81	-3.4	0	0	990.1	NA	0.0000		9999	4070	0	0	0
2019/08/03 05:15:00	BASE	16.30	33	19.39	32	-0.5	81	-3.4	0	0	990.1	NA	0.0000		9999	4070	0	0	0
2019/08/03 05:16:00	BASE	15.76	32	19.39	32	-0.5	81	-3.4	0	0	990.1	NA	0.0000		9999	4070	0	0	0
2019/08/03 05:17:00	BASE	15.64	31	19.39	32	-0.5	81	-3.4	0	0	990.1	NA	0.0000		9999	4070	0	0	0
2019/08/03 05:18:00	BASE	16.52	33	19.39	32	-0.4	80	-3.4	0	0	990.1	NA	0.0000		9999	3970	0	0	0
2019/08/03 05:19:00	BASE	16.58	32	19.39	32	-0.4	80	-3.4	0	0	990.1	NA	0.0000		9999	4130	0	0	0
2019/08/03 05:20:00	BASE	16.52	30	19.39	32	-0.3	80	-3.4	0	0	990.1	NA	0.0000		9999	4560	0	0	0
2019/08/03 05:21:00	BASE	16.75	29	19.39	32	-0.3	79	-3.5	0	0	990.0	NA	0.0000		9999	4000	0	0	0
2019/08/03 05:22:00	BASE	16.78	30	19.39	32	-0.3	79	-3.5	0	0	990.0	NA	0.0000		9999	4070	4630	0	0
2019/08/03 05:23:00	BASE	16.99	31	19.39	32	-0.3	78	-3.6	0	0	990.1	NA	0.0000		9999	3940	0	0	0
2019/08/03 05:24:00	BASE	17.73	30	21.25	29	-0.2	78	-3.6	0	0	990.0	NA	0.0000		9999	4070	0	0	0
2019/08/03 05:25:00	BASE	18.04	30	21.25	29	-0.2	78	-3.7	0	0	990.0	NA	0.0000		9999	4130	0	0	0
2019/08/03 05:26:00	BASE	17.91	30	21.25	29	-0.2	77	-3.7	0	0	990.0	NA	0.0000		9999	4100	0	0	0
2019/08/03 05:27:00	BASE	18.71	30	21.25	29	-0.2	77	-3.8	0	0	990.0	NA	0.0000		9999	3870	0	0	0
2019/08/03 05:28:00	BASE	18.50	30	21.25	29	-0.2	77	-3.8	0	0	990.0	NA	0.0000		9999	3810	0	0	0
2019/08/03 05:29:00	BASE	17.70	30	21.25	29	-0.2	77	-3.8	0	0	990.0	NA	0.0000		9999	3870	0	0	0
2019/08/03 05:30:00	BASE	17.51	31	21.25	29	-0.2	77	-3.8	0	0	990.0	NA	0.0000		9999	3970	0	0	0
2019/08/03 05:31:00	BASE	17.09	33	21.25	29	-0.2	77	-3.8	0	0	990.0	NA	0.0000		9999	4170	0	0	0
2019/08/03 05:32:00	BASE	16.70	33	21.25	29	-0.2	77	-3.8	0	0	990.1	NA	0.0000		9999	4100	0	0	0
2019/08/03 05:33:00	BASE	16.55	34	21.25	29	-0.3	77	-3.8	0	0	990.0	NA	0.0000		9999	4070	0	0	0
2019/08/03 05:34:00	BASE	16.42	35	20.58	31	-0.3	77	-3.8	0	0	990.1	NA	0.0000		9999	4070	0	0	0
2019/08/03 05:35:00	BASE	15.83	34	20.58	31	-0.3	77	-3.8	0	0	990.1	NA	0.0000		9999	4200	0	0	0
2019/08/03 05:36:00	BASE	15.35	34	20.58	31	-0.3	77	-3.9	0	0	990.1	NA	0.0000		9999	0	0	0	0
2019/08/03 05:37:00	BASE	15.35	32	19.81	30	-0.3	77	-3.9	0	0	990.1	NA	0.0000		9999	4460	0	0	0
2019/08/03 05:38:00	BASE	15.56	31	19.81	30	-0.4	77	-3.9	0	0	990.1	NA	0.0000		9999	3740	0	0	0
2019/08/03 05:39:00	BASE	15.65	31	18.47	29	-0.4	77	-4.0	0	0	990.1	NA	0.0000		9999	3840	0	0	0
2019/08/03 05:40:00	BASE	15.61	32	18.21	40	-0.4	77	-4.0	0	0	990.1	NA	0.0000		9999	3810	0	0	0
2019/08/03 05:41:00	BASE	15.88	32	18.06	31	-0.4	77	-4.0	0	0	990.1	NA	0.0000		9999	3840	0	0	0
2019/08/03 05:42:00	BASE	15.83	31	17.90	38	-0.4	77	-4.0	0	0	990.1	NA	0.0000		9999	3740	0	0	0
2019/08/03 05:43:00	BASE	15.26	31	17.75	29	-0.4	77	-4.1	0	0	990.1	NA	0.0000		9999	3670	0	0	0
2019/08/03 05:44:00	BASE	15.41	32	17.75	29	-0.5	77	-4.1	0	0	990.1	NA	0.0000		9999	3770	0	0	0
2019/08/03 05:45:00	BASE	16.19	32	18.62	28	-0.5	77	-4.1	0	0	990.1	NA	0.0000		9999	3870	0	0	0
2019/08/03 05:46:01	BASE	16.11	30	18.62	28	-0.5	77	-4.1	0	0	990.1	NA	0.0000		9999	4360	0	0	0
2019/08/03 05:47:01	BASE	15.19	29	18.62	28	-0.5	77	-4.1	0	0	990.2	NA	0.0000		9999	4690	0	0	0
2019/08/03 05:48:01	BASE	14.69	31	18.62	28	-0.5	77	-4.0	0	0	990.1	NA	0.0000		9999	3710	0	0	0
2019/08/03 05:49:01	BASE	15.17	35	18.62	28	-0.4	77	-4.0	0	0	990.1	NA	0.0000		9999	3810	0	0	0
2019/08/03 05:50:01	BASE	15.16	37	18.62	28	-0.4	77	-4.0	0	0	990.2	NA	0.0000		9999	3870	0	0	0
2019/08/03 05:51:01	BASE	14.73	34	18.62	28	-0.4	77	-4.0	0	0	990.1	NA	0.0000		9999	4270	0	0	0
2019/08/03 05:52:01	BASE	14.38	34	18.62	28	-0.4	76	-4.0	0	0	990.1	NA	0.0000		9999	0	0	0	0
2019/08/03 05:53:01	BASE	13.74	35	18.62	28	-0.4	76	-4.1	0	0	990.1	NA	0.0000		9999	0	0	0	0
2019/08/03 05:54:01	BASE	13.35	34	18.62	28	-0.4	76	-4.1	0	0	990.2	NA	0.0000		9999	0	0	0	0
2019/08/03 05:55:01	BASE	13.86	33	18.37	31	-0.5	76	-4.2	0	0	990.1	NA	0.0000		9999	0	0	0	0
2019/08/03 05:56:01	BASE	14.58	32	16.93	37	-0.5	76	-4.2	0	0	990.1	NA	0.0000		9999	3810	0	0	0
2019/08/03 05:57:01	BASE	14.70	33	16.93	37	-0.5	76	-4.2	0	0	990.1	NA	0.0000		9999	3970	0	0	0
2019/08/03 05:58:01	BASE	14.87	32	16.93	37	-0.5	76	-4.2	0	0	990.1	NA	0.0000		9999	0	0	0	0
2019/08/03 05:59:01	BASE	14.89	32	16.62	28	-0.6	76	-4.3	0	0	990.1	NA	0.0000		9999	3670	0	0	0
2019/08/03 06:00:01	BASE	14.46	32	16.62	28	-0.6	76	-4.3	0	0	990.1	NA	0.0000		9999	3900	0	0	0
2019/08/03 06:01:01	BASE	14.10	32	16.62	28	-0.6	76	-4.3	0	0	990.1	NA	0.0000		9999	3900	0	0	0
2019/08/03 06:02:01	BASE	14.56	30	16.93	28	-0.7	76	-4.4	0	0	990.1	NA	0.0000		9999	3770	0	0	0
2019/08/03 06:03:01	BASE	14.85	28	16.93	28	-0.7	76	-4.4	0	0	990.1	NA	0.0000		9999	3510	0	0	0
2019/08/03 06:04:01	BASE	14.38	31	16.93	28	-0.8	76	-4.5	0	0	990.1	NA	0.0000		9999	3640	0	0	0
2019/08/03 06:05:01	BASE	14.30	31	16.93	28	-0.8	76	-4.5	0	0	990.1	NA	0.0000		9999	3280	3940	0	0
2019/08/03 06:06:01	BASE	14.38	28	16.93	28	-0.8	76	-4.5	0	0	990.1	NA	0.0000		9999	0	0	0	0
2019/08/03 06:07:01	BASE	14.14	27	16.93	28	-0.8	76	-4.5	0	0	990.1	NA	0.0000		9999	0	0	0	0
2019/08/03 06:08:01	BASE	13.89	27	16.93	28	-0.8	76	-4.5	0	0	990.1	NA	0.0000		9999	0	0	0	0
2019/08/03 06:09:01	BASE	13.41	28	16.93	28	-0.7	76	-4.4	0	0	990.1	NA	0.0000		9999	0	0	0	0
2019/08/03 06:10:01	BASE	13.30	31	16.93	28	-0.6	76	-4.4	0	0	990.1	NA	0.0000		9999	0	0	0	0
2019/08/03 06:11:01	BASE	13.25	35	16.93	28	-0.6	76	-4.4	0	0	990.1	NA	0.0000		9999	0	0	0	0
2019/08/03 06:12:01	BASE	13.27	37	16.41	28	-0.6	75	-4.4	0	0	990.1	NA	0.0000		9999	0	0	0	0
2019/08/03 06:13:01	BASE	14.22	38	16.31	38	-0.6	75	-4.5	0	0	990.1	NA	0.0000		9999	0	0	0	0
2019/08/03 06:14:01	BASE	14.99	40	16.98	46	-0.7	75	-4.5	0	0	990.1	NA	0.0000		9999	0	0	0	0
2019/08/03 06:15:01	BASE	15.20	41	16.98	46	-0.7	75	-4.6	0	0	990.1	NA	0.0000		9999	0	0	0	0
2019/08/03 06:16:01	BASE	15.34	42	17.85	43	-0.7	75	-4.5	0	0	990.1	NA	0.0000		9999	4460	8860	0	0
2019/08/03 06:17:01	BASE	15.24	42	17.85	43	-0.7	75	-4.5	0	0	990.1	NA	0.0000		9999	4170	0	0	0
2019/08/03 06:18:01	BASE	15.34	43	17.85	43	-0.7	76	-4.4	0	0	990.1	NA	0.0000		9999	4170	0	0	0
2019/08/03 06:19:01	BASE	15.90	43	17.85	43	-0.6	76	-4.3	0	0	990.1	NA	0.0000		9999	4200	0	0	0
2019/08/03 06:20:01	BASE	15.99	43	17.85	43	-0.6	76	-4.2	0	0	990.1	NA	0.0000		9999	4040	0	0	0
2019/08/03 06:21:01	BASE	15.68	41	18.93	35	-0.6	77	-4.2	0	0	990.1	NA	0.0000		9999	4530	8760	0	0
2019/08/03 06:22:01	BASE	15.52	42	18.93	35	-0.5	77	-4.1	0	0	990.2	NA	0.0000		9999	4100	0	0	0
2019/08/03 06:23:01	BASE	15.67	42	18.93	35	-0.5	77	-4.0	0	0	990.2	NA	0.0000		9999	3940	4720	0	0
2019/08/03 06:24:01	BASE	15.66	42	18.93	35	-0.5	77	-4.0	0	0	990.2	NA	0.0000		9999	4170	0	0	0
2019/08/03 06:25:01	BASE	15.45	45	18.93	35	-0.5	77	-4.1	0	0	990.3	NA	0.0000		9999	4530	0	0	0
2019/08/03 06:26:01	BASE	15.26	46	18.93	35	-0.5	76	-4.1	0	0	990.3	NA	0.0000		9999	4270	9020	0	0
2019/08/03 06:27:01	BASE	14.94	45	18.93	35	-0.4	76	-4.1	0	0	990.3	NA	0.0000		9999	4660	9190	0	0
2019/08/03 06:28:01	BASE	14.65	45	18.93	35	-0.5	76	-4.2	0	0	990.4	NA	0.0000		9999	4690	0	0	0
2019/08/03 06:29:01	BASE	14.00	46	18.93	35	-0.5	76	-4.2	0	0	990.4	NA	0.0000		9999	4630	0	0	0
2019/08/03 06:30:01	BASE	13.65	47	18.93	35	-0.5	76	-4.2	0	0	990.4	NA	0.0000		9999	4630	9120	0	0
2019/08/03 06:31:01	BASE	13.92	50	18.42	47	-0.6	76	-4.2	0	0	990.4	NA	0.0000		9999	4590	9060	0	0
2019/08/03 06:32:01	BASE	13.92	52	18.42	47	-0.6	76	-4.2	0	0	990.4	NA	0.0000		9999	4720	0	0	0
2019/08/03 06:33:01	BASE	13.89	52	18.42	47	-0.6	76	-4.2	0	0	990.4	NA	0.0000		9999	4890	8070	9090	0
2019/08/03 06:34:01	BASE	13.76	52	18.42	47	-0.6	77	-4.2	0	0	990.4	NA	0.0000		9999	4430	8010	0	0
2019/08/03 06:35:01	BASE	13.59	53	16.67	47	-0.6	77	-4.2	0	0	990.3	NA	0.0000		9999	4630	5090	7810	0
2019/08/03 06:36:01	BASE	13.73	52	16.67	47	-0.6	77	-4.2	0	0	990.4	NA	0.0000		9999	4230	7640	0	0
2019/08/03 06:37:01	BASE	13.78	49	16.05	41	-0.6	77	-4.1	0	0	990.3	NA	0.0000		9999	4300	7420	0	0
2019/08/03 06:38:01	BASE	13.24	45	16.05	41	-0.6	77	-4.1	0	0	990.4	NA	0.0000		9999	4630	7320	0	0
2019/08/03 06:39:01	BASE	12.14	40	16.05	41	-0.6	77	-4.1	0	0	990.4	NA	0.0000		9999	4720	7250	0	0
2019/08/03 06:40:01	BASE	11.54	35	16.05	41	-0.7	78	-4.1	0	0	990.4	NA	0.0000		9999	3540	7320	0	0
2019/08/03 06:41:00	BASE	11.82	33	16.05	41	-0.7	78	-4.0	0	0	990.4	NA	0.0000		9999	3220	0	0	0
2019/08/03 06:42:00	BASE	12.04	33	16.05	41	-0.7	79	-3.9	0	0	990.4	NA	0.0000		9999	3180	0	0	0
2019/08/03 06:43:00	BASE	11.77	33	15.69	49	-0.7	79	-3.9	0	0	990.4	NA	0.0000		9999	3280	0	0	0
2019/08/03 06:44:00	BASE	11.69	35	15.69	49	-0.6	79	-3.8	0	0	990.4	NA	0.0000		9999	3080	0	0	0
2019/08/03 06:45:00	BASE	11.61	38	15.69	49	-0.6	80	-3.7	0	0	990.4	NA	0.0000		9999	3150	0	0	0
2019/08/03 06:46:00	BASE	11.75	40	15.69	49	-0.5	80	-3.6	0	0	990.4	NA	0.0000		9999	3740	0	0	0
2019/08/03 06:47:00	BASE	11.10	43	14.92	42	-0.5	80	-3.5	0	0	990.4	NA	0.0000		9999	4130	6920	0	0
2019/08/03 06:48:00	BASE	10.47	46	13.68	19	-0.4	80	-3.5	0	0	990.3	NA	0.0000		9999	4300	7090	0	0
2019/08/03 06:49:00	BASE	10.37	49	13.68	19	-0.3	80	-3.4	0	0	990.4	NA	0.0000		9999	4360	6400	7320	0
2019/08/03 06:50:00	BASE	10.22	48	13.68	19	-0.3	79	-3.4	0	0	990.3	NA	0.0000		9999	4490	5180	6300	0
2019/08/03 06:51:00	BASE	9.90	49	13.68	19	-0.2	79	-3.4	0	0	990.4	NA	0.0000		9999	4590	0	0	0
2019/08/03 06:52:00	BASE	9.75	54	12.91	40	-0.2	79	-3.4	0	0	990.4	NA	0.0000		9999	4660	0	0	0
2019/08/03 06:53:00	BASE	10.21	55	12.91	40	-0.1	78	-3.4	0	0	990.3	NA	0.0000		9999	4100	4890	5410	0
2019/08/03 06:54:00	BASE	10.25	55	12.91	40	-0.1	78	-3.5	0	0	990.3	NA	0.0000		9999	4400	6230	6920	0
2019/08/03 06:55:00	BASE	10.16	54	12.91	40	-0.1	78	-3.5	0	0	990.3	NA	0.0000		9999	6140	0	0	0
2019/08/03 06:56:00	BASE	9.41	54	12.66	36	-0.1	78	-3.5	0	0	990.3	NA	0.0000		9999	4490	5380	6040	0
2019/08/03 06:57:00	BASE	8.09	63	12.66	36	-0.2	78	-3.5	0	0	990.3	NA	0.0000		9999	4230	5410	0	0
2019/08/03 06:58:00	BASE	7.31	85	12.55	53	-0.2	78	-3.6	0	0	990.3	NA	0.0000		9999	4460	0	0	0
2019/08/03 06:59:00	BASE	7.91	102	12.55	53	-0.4	78	-3.7	0	0	990.2	NA	0.0000		9999	4430	5180	0	0
2019/08/03 07:00:00	BASE	7.63	98	12.55	53	-0.5	78	-3.9	0	0	990.2	NA	0.0000		9999	5280	5940	0	0
2019/08/03 07:01:00	BASE	6.65	85	12.55	53	-0.6	78	-4.0	0	0	990.2	NA	0.0000		9999	5150	5940	0	0
2019/08/03 07:02:01	BASE	8.20	66	12.55	53	-0.7	78	-4.1	0	0	990.2	NA	0.0000		9999	5380	5810	0	0
2019/08/03 07:03:01	BASE	9.87	72	12.55	53	-0.8	78	-4.2	0	0	990.1	NA	0.0000		9999	6100	0	0	0
2019/08/03 07:04:00	BASE	10.37	97	11.78	65	-0.9	78	-4.3	0	0	990.0	NA	0.0000		9999	6400	0	0	0
2019/08/03 07:05:00	BASE	9.61	102	11.57	106	-1.0	77	-4.5	0	0	990.1	NA	0.0000		9999	5180	6300	0	0
2019/08/03 07:06:00	BASE	9.16	93	11.57	106	-1.1	77	-4.7	0	0	990.1	NA	0.0000		9999	6230	0	0	0
2019/08/03 07:07:00	BASE	9.93	92	12.50	100	-1.2	76	-4.8	0	0	990.1	NA	0.0000		9999	6230	7050	0	0
2019/08/03 07:08:00	BASE	11.27	98	13.48	107	-1.3	76	-4.9	0	0	990.0	NA	0.0000		9999	6270	0	0	0
2019/08/03 07:09:00	BASE	12.37	104	13.48	107	-1.3	76	-5.1	0	0	990.0	NA	0.0000		9999	6270	0	0	0
2019/08/03 07:10:00	BASE	11.80	105	13.74	100	-1.4	76	-5.1	0	0	990.0	NA	0.0000		9999	6300	6860	0	0
2019/08/03 07:11:00	BASE	11.07	102	13.74	100	-1.4	76	-5.2	0	0	990.1	NA	0.0000		9999	4100	0	0	0
2019/08/03 07:12:00	BASE	10.70	96	13.74	100	-1.4	76	-5.2	0	0	990.1	NA	0.0000		9999	4270	5050	6330	0
2019/08/03 07:13:00	BASE	10.77	88	13.74	100	-1.4	76	-5.1	0	0	990.1	NA	0.0000		9999	6330	0	0	0
2019/08/03 07:14:00	BASE	11.29	93	14.04	103	-1.4	76	-5.0	0	0	990.0	NA	0.0000		9999	5090	6370	0	0
2019/08/03 07:15:00	BASE	11.12	96	14.04	103	-1.3	76	-5.0	0	0	990.1	NA	0.0000		9999	5410	6370	0	0
2019/08/03 07:16:00	BASE	10.42	94	14.04	103	-1.3	76	-5.0	0	0	990.1	NA	0.0000		9999	6370	0	0	0
2019/08/03 07:17:00	BASE	12.07	109	15.38	119	-1.3	76	-5.0	0	0	989.9	NA	0.0000		9999	4100	6430	0	0
2019/08/03 07:18:00	BASE	14.47	121	21.61	133	-1.3	76	-5.1	0	0	989.8	NA	0.0000		9999	3970	6560	0	0
2019/08/03 07:19:00	BASE	14.58	117	23.56	108	-1.3	75	-5.0	0	0	989.9	NA	0.0000		9999	3970	0	0	0
2019/08/03 07:20:00	BASE	13.14	117	23.56	108	-1.2	75	-5.1	0	0	989.9	NA	0.0000		9999	3970	6560	0	0
2019/08/03 07:21:00	BASE	13.05	111	23.56	108	-1.1	74	-5.1	0	0	989.9	NA	0.0000		9999	4040	6500	0	0
2019/08/03 07:22:00	BASE	13.10	107	23.56	108	-1.1	73	-5.3	0	0	989.9	NA	0.0000		9999	5350	6560	0	0
2019/08/03 07:23:00	BASE	13.06	110	23.56	108	-1.1	73	-5.4	0	0	989.8	NA	0.0000		9999	6530	0	0	0
2019/08/03 07:24:00	BASE	14.34	113	23.56	108	-1.1	72	-5.5	0	0	989.8	NA	0.0000		9999	6460	0	0	0
2019/08/03 07:25:00	BASE	15.37	113	23.56	108	-1.1	72	-5.5	0	0	989.7	NA	0.0000		9999	4300	6430	0	0
2019/08/03 07:26:00	BASE	16.07	112	23.56	108	-1.1	72	-5.5	0	0	989.7	NA	0.0000		9999	4330	6500	0	0
2019/08/03 07:27:00	BASE	16.96	121	23.56	108	-1.1	72	-5.4	0	0	989.6	NA	0.0000		9999	4230	6630	0	0
2019/08/03 07:28:00	BASE	16.48	129	23.56	108	-1.0	72	-5.4	0	0	989.7	NA	0.0000		9999	4200	6590	0	0
2019/08/03 07:29:00	BASE	15.51	132	19.09	124	-1.0	71	-5.6	0	0	989.7	NA	0.0000		9999	6500	0	0	0
2019/08/03 07:30:00	BASE	15.28	132	19.09	124	-1.0	70	-5.7	0	0	989.7	NA	0.0000		9999	6560	0	0	0
2019/08/03 07:31:00	BASE	13.98	130	19.09	124	-1.1	70	-5.9	0	0	989.7	NA	0.0000		9999	4230	6690	0	0
2019/08/03 07:32:00	BASE	13.20	128	19.09	124	-1.1	70	-5.8	0	0	989.8	NA	0.0000		9999	6590	0	0	0
2019/08/03 07:33:00	BASE	12.09	132	19.09	124	-1.1	71	-5.8	0	0	989.9	NA	0.0000		9999	6630	0	0	0
2019/08/03 07:34:00	BASE	12.36	132	19.09	124	-1.2	71	-5.7	0	0	989.7	NA	0.0000		9999	6630	0	0	0
2019/08/03 07:35:00	BASE	14.44	133	19.09	124	-1.2	72	-5.7	0	0	989.6	NA	0.0000		9999	6730	0	0	0
2019/08/03 07:36:01	BASE	15.01	139	19.09	124	-1.2	72	-5.6	0	0	989.7	NA	0.0000		9999	6690	0	0	0
2019/08/03 07:37:01	BASE	14.44	141	17.08	128	-1.2	72	-5.6	0	0	989.7	NA	0.0000		9999	6760	0	0	0
2019/08/03 07:38:01	BASE	13.14	141	17.39	132	-1.0	72	-5.5	0	0	989.7	NA	0.0000		9999	4430	6860	0	0
2019/08/03 07:39:01	BASE	11.27	136	17.39	132	-0.8	71	-5.3	0	0	989.9	NA	0.0000		9999	4560	6560	0	0
2019/08/03 07:40:01	BASE	10.50	132	17.39	132	-0.7	71	-5.3	0	0	989.9	NA	0.0000		9999	6460	0	0	0
2019/08/03 07:41:01	BASE	11.44	139	17.39	132	-0.5	70	-5.3	0	0	989.8	NA	0.0000		9999	6890	0	0	0
2019/08/03 07:42:01	BASE	11.99	148	17.39	132	-0.4	69	-5.4	0	0	989.7	NA	0.0000		9999	6630	0	0	0
2019/08/03 07:43:01	BASE	13.54	156	18.16	158	-0.5	69	-5.5	0	0	989.4	NA	0.0000		9999	6790	0	0	0
2019/08/03 07:44:01	BASE	15.25	163	18.16	158	-0.5	69	-5.6	0	0	989.3	NA	0.0000		9999	6790	0	0	0
2019/08/03 07:45:00	BASE	14.88	167	18.16	158	-0.5	69	-5.5	0	0	989.3	NA	0.0000		9999	6860	0	0	0
2019/08/03 07:46:00	BASE	14.24	184	18.16	158	-0.4	69	-5.4	0	0	989.2	NA	0.0000		9999	3710	6890	0	0
2019/08/03 07:47:00	BASE	10.31	198	18.16	158	-0.3	70	-5.1	0	0	989.4	NA	0.0000		9999	3670	7020	0	0
2019/08/03 07:48:00	BASE	8.68	152	18.16	158	-0.2	70	-5.0	0	0	989.6	NA	0.0000		9999	3610	0	0	0
2019/08/03 07:49:00	BASE	13.58	127	18.16	158	-0.2	70	-5.1	0	0	989.4	NA	0.0000		9999	3450	0	0	0
2019/08/03 07:50:00	BASE	16.86	148	18.93	152	-0.3	69	-5.3	0	0	989.2	NA	0.0000	SQ	9999	3080	0	0	0
2019/08/03 07:51:01	BASE	16.11	159	18.93	152	-0.5	68	-5.6	0	0	989.2	NA	0.0000		9999	3050	0	0	0
2019/08/03 07:52:00	BASE	13.41	159	18.93	152	-0.6	68	-5.9	0	0	989.4	NA	0.0000		9999	3080	0	0	0
2019/08/03 07:53:00	BASE	12.04	161	18.93	152	-0.7	68	-5.9	0	0	989.4	NA	0.0000		9999	3050	0	0	0
2019/08/03 07:54:00	BASE	9.46	159	18.93	152	-0.6	68	-5.7	0	0	989.5	NA	0.0000		9999	3020	0	0	0
2019/08/03 07:55:00	BASE	7.71	151	18.93	152	-0.4	69	-5.5	0	0	989.3	NA	0.0000		9999	3120	7050	0	0
2019/08/03 07:56:00	BASE	12.29	150	18.93	152	-0.3	69	-5.3	0	0	989.1	NA	0.0000		9999	3080	7050	0	0
2019/08/03 07:57:00	BASE	14.88	150	18.93	152	-0.4	69	-5.4	0	0	989.2	NA	0.0000		9999	3250	7050	0	0
2019/08/03 07:58:00	BASE	11.17	148	18.93	152	-0.5	69	-5.5	0	0	989.4	NA	0.0000		9999	2990	7120	0	0
2019/08/03 07:59:00	BASE	9.89	135	18.93	152	-0.6	69	-5.6	0	0	989.3	NA	0.0000		9999	3120	7120	0	0
2019/08/03 08:00:00	BASE	12.30	130	17.65	150	-0.6	69	-5.7	0	0	989.2	NA	0.0000		9999	2890	0	0	0
2019/08/03 08:01:00	BASE	13.81	136	17.65	150	-0.6	69	-5.7	0	0	989.1	NA	0.0000		9999	3220	0	0	0
2019/08/03 08:02:00	BASE	14.79	130	18.01	117	-0.5	69	-5.5	0	0	989.1	NA	0.0000		9999	3120	0	0	0
2019/08/03 08:03:00	BASE	11.88	133	18.01	117	-0.3	69	-5.3	0	0	989.2	NA	0.0000		9999	2950	0	0	0
2019/08/03 08:04:00	BASE	5.78	122	18.01	117	-0.1	69	-5.2	0	0	989.1	NA	0.0000		9999	3050	0	0	0
2019/08/03 08:05:01	BASE	4.55	195	18.01	117	-0.0	69	-5.0	0	0	989.1	NA	0.0000		9999	3280	0	0	0
2019/08/03 08:06:00	BASE	8.38	189	18.01	117	0.1	70	-4.8	0	0	989.0	NA	0.0000		9999	3310	5540	0	0
2019/08/03 08:07:00	BASE	8.09	188	18.01	117	0.2	70	-4.6	0	0	989.2	NA	0.0000		9999	3510	5580	0	0
2019/08/03 08:08:00	BASE	5.22	196	18.01	117	0.3	70	-4.6	0	0	989.2	NA	0.0000		9999	3250	0	0	0
2019/08/03 08:09:00	BASE	5.95	190	18.01	117	0.4	69	-4.6	0	0	989.1	NA	0.0000		9999	4040	5350	0	0
2019/08/03 08:10:00	BASE	7.16	160	18.01	117	0.5	68	-4.7	0	0	989.1	NA	0.0000		9999	3640	5280	0	0
2019/08/03 08:11:00	BASE	8.44	139	18.01	117	0.5	68	-4.8	0	0	989.1	NA	0.0000		9999	3020	5450	0	0
2019/08/03 08:12:00	BASE	9.85	137	16.67	178	0.5	67	-4.9	0	0	989.0	NA	0.0000		9999	2850	5640	7380	0
2019/08/03 08:13:00	BASE	10.74	133	16.67	178	0.4	67	-4.9	0	0	989.0	NA	0.0000		9999	5220	5870	7380	0
2019/08/03 08:14:00	BASE	10.54	139	16.67	178	0.4	67	-5.0	0	0	989.0	NA	0.0000		9999	3480	5940	7450	0
2019/08/03 08:15:00	BASE	8.87	149	16.67	178	0.4	67	-5.0	0	0	989.0	NA	0.0000		9999	3510	4300	0	0
2019/08/03 08:16:00	BASE	6.97	143	14.25	138	0.5	67	-5.0	0	0	989.0	NA	0.0000		9999	3710	4300	0	0
2019/08/03 08:17:00	BASE	6.00	111	14.25	138	0.4	67	-5.1	0	0	989.1	NA	0.0000		9999	3280	4330	0	0
2019/08/03 08:18:00	BASE	7.13	84	14.25	138	0.3	67	-5.2	0	0	989.1	NA	0.0000		9999	3350	0	0	0
2019/08/03 08:19:00	BASE	8.00	94	14.25	138	0.1	67	-5.3	0	0	989.1	NA	0.0000		9999	3640	4270	0	0
2019/08/03 08:20:00	BASE	7.95	110	14.25	138	-0.0	67	-5.3	0	0	989.0	NA	0.0000		9999	4130	0	0	0
2019/08/03 08:21:00	BASE	7.88	104	14.25	138	-0.2	68	-5.4	0	0	989.0	NA	0.0000		9999	4070	0	0	0
2019/08/03 08:22:00	BASE	8.44	94	13.12	140	-0.2	68	-5.4	0	0	989.0	NA	0.0000		9999	3480	0	0	0
2019/08/03 08:23:00	BASE	8.21	111	11.01	90	-0.2	69	-5.3	0	0	988.9	NA	0.0000		9999	3540	0	0	0
2019/08/03 08:24:00	BASE	9.09	128	13.02	124	-0.2	69	-5.3	0	0	988.8	NA	0.0000		9999	3610	4070	0	0
2019/08/03 08:25:00	BASE	13.52	121	19.45	112	-0.1	69	-5.2	0	0	988.6	NA	0.0000		9999	3310	0	0	0
2019/08/03 08:26:00	BASE	15.77	118	19.45	112	-0.0	68	-5.2	0	0	988.7	NA	0.0000		9999	3350	4230	0	0
2019/08/03 08:27:00	BASE	15.05	115	19.45	112	0.1	68	-5.1	0	0	988.7	NA	0.0000		9999	4070	0	0	0
2019/08/03 08:28:00	BASE	12.00	103	19.45	112	0.2	68	-5.0	0	0	988.8	NA	0.0000		9999	4000	0	0	0
2019/08/03 08:29:00	BASE	10.57	96	19.45	112	0.3	67	-5.1	0	0	988.8	NA	0.0000		9999	3940	0	0	0
2019/08/03 08:30:00	BASE	11.98	105	19.45	112	0.2	67	-5.2	0	0	988.7	NA	0.0000		9999	3940	0	0	0
2019/08/03 08:31:00	BASE	11.88	128	19.45	112	0.2	66	-5.4	0	0	988.7	NA	0.0000		9999	4040	0	0	0
2019/08/03 08:32:00	BASE	11.94	120	19.45	112	0.1	66	-5.5	0	0	988.7	NA	0.0000		9999	3970	0	0	0
2019/08/03 08:33:00	BASE	10.54	98	19.45	112	-0.0	65	-5.7	0	0	988.8	NA	0.0000		9999	4100	0	0	0
2019/08/03 08:34:00	BASE	8.86	96	19.45	112	-0.2	65	-5.9	0	0	988.9	NA	0.0000		9999	4070	0	0	0
2019/08/03 08:35:00	BASE	9.85	97	18.16	122	-0.4	66	-6.0	0	0	988.8	NA	0.0000		9999	4070	0	0	0
2019/08/03 08:36:00	BASE	11.22	105	16.82	118	-0.6	66	-6.1	0	0	988.7	NA	0.0000		9999	4040	0	0	0
2019/08/03 08:37:00	BASE	11.85	114	15.74	96	-0.7	67	-6.2	0	0	988.5	NA	0.0000		9999	4000	0	0	0
2019/08/03 08:38:00	BASE	12.65	124	15.07	110	-0.8	67	-6.1	0	0	988.5	NA	0.0000		9999	3970	5580	7280	0
2019/08/03 08:39:00	BASE	13.40	136	16.51	143	-0.7	67	-6.1	0	0	988.4	NA	0.0000		9999	4040	5480	7250	0
2019/08/03 08:40:00	BASE	14.43	137	16.51	143	-0.6	66	-6.1	0	0	988.3	NA	0.0000		9999	3870	5580	7250	0
2019/08/03 08:41:00	BASE	14.65	134	16.51	143	-0.4	66	-6.0	0	0	988.4	NA	0.0000		9999	3840	0	0	0
2019/08/03 08:42:00	BASE	12.01	127	16.51	143	-0.3	65	-6.1	0	0	988.6	NA	0.0000		9999	3870	0	0	0
2019/08/03 08:43:00	BASE	10.41	113	16.51	143	-0.4	65	-6.1	0	0	988.7	NA	0.0000		9999	3870	0	0	0
2019/08/03 08:44:00	BASE	10.91	103	16.51	143	-0.4	65	-6.1	0	0	988.7	NA	0.0000		9999	3940	0	0	0
2019/08/03 08:45:00	BASE	10.98	102	16.51	143	-0.5	66	-6.2	0	0	988.7	NA	0.0000		9999	3580	0	0	0
2019/08/03 08:46:00	BASE	10.44	110	16.51	143	-0.6	66	-6.2	0	0	988.6	NA	0.0000		9999	4000	0	0	0
2019/08/03 08:47:00	BASE	12.15	118	16.67	121	-0.6	66	-6.1	0	0	988.5	NA	0.0000		9999	4100	0	0	0
2019/08/03 08:48:01	BASE	13.43	118	16.67	121	-0.6	67	-6.0	0	0	988.5	NA	0.0000		9999	4040	0	0	0
2019/08/03 08:49:00	BASE	13.10	110	16.67	121	-0.5	66	-6.0	0	0	988.6	NA	0.0000		9999	4100	0	0	0
2019/08/03 08:50:00	BASE	12.49	104	16.67	121	-0.5	66	-6.0	0	0	988.7	NA	0.0000		9999	4130	0	0	0
2019/08/03 08:51:00	BASE	11.42	104	16.67	121	-0.5	67	-6.0	0	0	988.7	NA	0.0000		9999	4100	0	0	0
2019/08/03 08:52:00	BASE	12.03	111	16.67	121	-0.7	67	-6.0	0	0	988.6	NA	0.0000		9999	4070	0	0	0
2019/08/03 08:53:00	BASE	12.81	118	16.67	121	-0.8	68	-6.0	0	0	988.5	NA	0.0000		9999	4230	6100	7250	0
2019/08/03 08:54:00	BASE	12.56	121	16.67	121	-0.9	69	-5.9	0	0	988.5	NA	0.0000		9999	4040	6200	7190	0
2019/08/03 08:55:00	BASE	11.82	126	16.67	121	-1.0	69	-5.9	0	0	988.5	NA	0.0000		9999	4130	7220	0	0
2019/08/03 08:56:00	BASE	12.56	133	16.67	121	-1.0	70	-5.8	0	0	988.5	NA	0.0000		9999	4130	0	0	0
2019/08/03 08:57:00	BASE	13.05	131	14.87	133	-1.0	70	-5.8	0	0	988.6	NA	0.0000		9999	4100	7350	0	0
2019/08/03 08:58:00	BASE	11.71	127	14.87	133	-1.1	70	-5.9	0	0	988.6	NA	0.0000		9999	4130	7320	0	0
2019/08/03 08:59:00	BASE	10.18	130	14.87	133	-1.2	71	-5.8	0	0	988.5	NA	0.0000		9999	4070	0	0	0
2019/08/03 09:00:00	BASE	9.30	132	14.87	133	-1.3	72	-5.7	0	0	988.5	NA	0.0000		9999	4130	0	0	0
2019/08/03 09:01:00	BASE	8.92	132	14.87	133	-1.3	73	-5.6	0	0	988.5	NA	0.0000		9999	4070	0	0	0
2019/08/03 09:02:00	BASE	8.76	129	14.87	133	-1.3	73	-5.5	0	0	988.5	NA	0.0000		9999	3480	4300	0	0
2019/08/03 09:03:00	BASE	8.63	120	14.87	133	-1.3	73	-5.5	0	0	988.5	NA	0.0000		9999	3710	0	0	0
2019/08/03 09:04:00	BASE	8.33	119	14.87	133	-1.3	73	-5.5	0	0	988.5	NA	0.0000		9999	4200	0	0	0
2019/08/03 09:05:00	BASE	8.60	122	14.87	133	-1.2	72	-5.6	0	0	988.5	NA	0.0000		9999	4300	0	0	0
2019/08/03 09:06:00	BASE	9.33	115	13.48	126	-1.2	71	-5.7	0	0	988.5	NA	0.0000		9999	4270	0	0	0
2019/08/03 09:07:00	BASE	9.89	102	12.55	123	-1.1	70	-5.8	0	0	988.5	NA	0.0000		9999	4300	0	0	0
2019/08/03 09:08:00	BASE	10.55	95	11.99	95	-1.1	70	-5.9	0	0	988.5	NA	0.0000		9999	4300	0	0	0
2019/08/03 09:09:00	BASE	10.79	101	11.99	95	-1.1	70	-6.0	0	0	988.4	NA	0.0000		9999	4300	0	0	0
2019/08/03 09:10:00	BASE	11.28	115	13.22	120	-1.1	70	-6.0	0	0	988.3	NA	0.0000		9999	4300	0	0	0
2019/08/03 09:11:00	BASE	11.90	119	13.22	120	-1.1	70	-5.9	0	0	988.3	NA	0.0000		9999	4300	5870	7090	0
2019/08/03 09:12:00	BASE	12.40	116	14.20	113	-1.1	70	-5.8	0	0	988.3	NA	0.0000		9999	5680	7020	8530	0
2019/08/03 09:13:00	BASE	13.35	113	14.82	110	-1.0	70	-5.7	0	0	988.3	NA	0.0000		9999	4300	5710	7020	0
2019/08/03 09:14:00	BASE	12.85	116	14.82	110	-1.0	70	-5.7	0	0	988.2	NA	0.0000		9999	5770	7050	7870	0
2019/08/03 09:15:00	BASE	12.37	116	14.82	110	-0.9	70	-5.7	0	0	988.2	NA	0.0000		9999	7050	7970	8600	0
2019/08/03 09:16:00	BASE	13.24	112	15.02	109	-0.9	70	-5.7	0	0	988.2	NA	0.0000		9999	8170	0	0	0
2019/08/03 09:17:00	BASE	12.81	110	15.02	109	-0.9	70	-5.7	0	0	988.2	NA	0.0000		9999	8500	10070	0	0
2019/08/03 09:18:00	BASE	12.44	113	15.02	109	-1.0	71	-5.6	0	0	988.1	NA	0.0000		9999	7150	8500	0	0
2019/08/03 09:19:00	BASE	13.36	115	15.48	115	-1.0	71	-5.6	0	0	988.1	NA	0.0000		9999	7250	8630	0	0
2019/08/03 09:20:00	BASE	14.38	115	16.51	112	-1.0	72	-5.5	0	0	988.0	NA	0.0000		9999	7350	8600	0	0
2019/08/03 09:21:00	BASE	15.09	114	16.51	112	-0.9	72	-5.4	0	0	988.0	NA	0.0000		9999	7380	8600	0	0
2019/08/03 09:22:00	BASE	15.03	113	16.51	112	-0.9	72	-5.3	0	0	987.9	NA	0.0000		9999	7420	8630	0	0
2019/08/03 09:23:00	BASE	15.81	115	17.85	113	-0.8	72	-5.3	0	0	987.9	NA	0.0000		9999	7480	8630	0	0
2019/08/03 09:24:00	BASE	15.77	117	17.85	113	-0.8	72	-5.3	0	0	987.9	NA	0.0000		9999	7450	8460	0	0
2019/08/03 09:25:00	BASE	14.77	115	17.85	113	-0.8	71	-5.4	0	0	987.9	NA	0.0000		9999	7420	8240	0	0
2019/08/03 09:26:00	BASE	14.73	112	17.85	113	-0.7	71	-5.4	0	0	987.9	NA	0.0000		9999	7970	0	0	0
2019/08/03 09:27:00	BASE	14.47	106	17.85	113	-0.7	70	-5.5	0	0	988.0	NA	0.0000		9999	7710	0	0	0
2019/08/03 09:28:00	BASE	13.47	98	17.85	113	-0.7	70	-5.5	0	0	988.0	NA	0.0000		9999	7420	8430	0	0
2019/08/03 09:29:00	BASE	12.24	98	17.85	113	-0.6	70	-5.4	0	0	988.0	NA	0.0000		9999	7120	0	0	0
2019/08/03 09:30:00	BASE	11.57	100	17.85	113	-0.7	71	-5.3	0	0	988.0	NA	0.0000		9999	7250	0	0	0
2019/08/03 09:31:00	BASE	11.48	94	17.85	113	-0.7	71	-5.2	0	0	988.0	NA	0.0000		9999	7050	0	0	0
2019/08/03 09:32:00	BASE	11.44	93	17.85	113	-0.7	72	-5.1	0	0	988.0	NA	0.0000		9999	7050	0	0	0
2019/08/03 09:33:00	BASE	11.11	94	16.77	105	-0.7	74	-4.9	0	0	988.0	NA	0.0000		9999	6990	0	0	0
2019/08/03 09:34:00	BASE	12.76	84	18.21	75	-0.7	75	-4.6	0	0	987.9	NA	0.0000		9999	7050	0	0	0
2019/08/03 09:35:00	BASE	15.79	76	19.50	70	-0.5	75	-4.3	0	0	987.9	NA	0.0000		9999	7450	0	0	0
2019/08/03 09:36:00	BASE	16.99	76	20.11	88	-0.4	76	-4.2	0	0	987.9	NA	0.0000		9999	7550	0	0	0
2019/08/03 09:37:00	BASE	15.70	80	20.11	88	-0.2	75	-4.1	0	0	987.9	NA	0.0000		9999	7580	0	0	0
2019/08/03 09:38:00	BASE	13.33	88	20.11	88	-0.1	75	-4.0	0	0	987.9	NA	0.0000		9999	7580	0	0	0
2019/08/03 09:39:00	BASE	11.50	91	20.11	88	-0.1	75	-4.1	0	0	987.9	NA	0.0000		9999	7610	0	0	0
2019/08/03 09:40:00	BASE	11.42	92	20.11	88	-0.2	75	-4.1	0	0	987.9	NA	0.0000		9999	7710	0	0	0
2019/08/03 09:41:00	BASE	12.14	96	20.11	88	-0.3	75	-4.2	0	0	987.8	NA	0.0000		9999	7840	0	0	0
2019/08/03 09:42:00	BASE	11.45	99	20.11	88	-0.3	75	-4.2	0	0	987.8	NA	0.0000		9999	7840	0	0	0
2019/08/03 09:43:00	BASE	11.01	101	20.11	88	-0.4	76	-4.2	0	0	987.8	NA	0.0000		9999	7870	0	0	0
2019/08/03 09:44:00	BASE	10.64	102	20.11	88	-0.5	76	-4.2	0	0	987.8	NA	0.0000		9999	7680	0	0	0
2019/08/03 09:45:00	BASE	9.64	104	20.11	88	-0.5	76	-4.2	0	0	987.8	NA	0.0000		9999	7550	0	0	0
2019/08/03 09:46:00	BASE	10.38	104	16.67	73	-0.5	75	-4.4	0	0	987.7	NA	0.0000		9999	7810	0	0	0
2019/08/03 09:47:00	BASE	11.27	104	14.40	88	-0.5	75	-4.4	0	0	987.8	NA	0.0000		9999	7910	0	0	0
2019/08/03 09:48:00	BASE	10.56	108	13.94	104	-0.5	74	-4.6	0	0	987.8	NA	0.0000		9999	7910	0	0	0
2019/08/03 09:49:00	BASE	9.32	111	13.94	104	-0.5	73	-4.8	0	0	987.8	NA	0.0000		9999	8140	0	0	0
2019/08/03 09:50:00	BASE	8.72	119	13.94	104	-0.6	72	-5.0	0	0	987.7	NA	0.0000		9999	7510	8270	0	0
2019/08/03 09:51:00	BASE	10.06	124	13.94	104	-0.6	71	-5.2	0	0	987.6	NA	0.0000		9999	7640	8170	0	0
2019/08/03 09:52:00	BASE	11.39	122	13.94	104	-0.7	71	-5.4	0	0	987.6	NA	0.0000		9999	7870	0	0	0
2019/08/03 09:53:00	BASE	11.08	118	12.71	104	-0.7	70	-5.5	0	0	987.6	NA	0.0000		9999	7380	0	0	0
2019/08/03 09:54:00	BASE	11.25	118	12.71	104	-0.8	71	-5.5	0	0	987.6	NA	0.0000		9999	7190	0	0	0
2019/08/03 09:55:00	BASE	11.55	117	12.71	104	-0.8	71	-5.4	0	0	987.6	NA	0.0000		9999	7320	0	0	0
2019/08/03 09:56:00	BASE	11.90	118	14.56	129	-0.8	71	-5.4	0	0	987.5	NA	0.0000		9999	7940	0	0	0
2019/08/03 09:57:00	BASE	12.97	124	14.61	125	-0.8	71	-5.5	0	0	987.4	NA	0.0000		9999	7780	0	0	0
2019/08/03 09:58:00	BASE	13.39	123	14.61	125	-0.8	70	-5.5	0	0	987.4	NA	0.0000		9999	7680	0	0	0
2019/08/03 09:59:00	BASE	13.03	120	14.61	125	-0.8	70	-5.6	0	0	987.4	NA	0.0000		9999	6760	0	0	0
2019/08/03 10:00:00	BASE	12.96	116	14.61	125	-0.8	70	-5.6	0	0	987.4	NA	0.0000		9999	6790	0	0	0
2019/08/03 10:01:00	BASE	13.29	111	15.12	108	-0.9	70	-5.6	0	0	987.4	NA	0.0000		9999	7320	0	0	0
2019/08/03 10:02:00	BASE	13.03	113	15.12	108	-0.9	70	-5.6	0	0	987.4	NA	0.0000		9999	6730	0	0	0
2019/08/03 10:03:00	BASE	12.95	113	15.12	108	-0.9	71	-5.6	0	0	987.3	NA	0.0000		9999	7510	0	0	0
2019/08/03 10:04:00	BASE	13.23	114	15.12	108	-0.9	71	-5.6	0	0	987.3	NA	0.0000		9999	6200	0	0	0
2019/08/03 10:05:00	BASE	13.46	115	15.12	108	-0.8	70	-5.6	0	0	987.3	NA	0.0000		9999	7250	0	0	0
2019/08/03 10:06:00	BASE	14.34	115	15.79	109	-0.8	70	-5.6	0	0	987.2	NA	0.0000		9999	7280	0	0	0
2019/08/03 10:07:00	BASE	15.04	117	16.15	124	-0.7	69	-5.6	0	0	987.1	NA	0.0000		9999	7450	8010	0	0
2019/08/03 10:08:00	BASE	14.81	120	16.15	124	-0.6	69	-5.7	0	0	987.1	NA	0.0000		9999	6730	0	0	0
2019/08/03 10:09:00	BASE	13.76	118	16.15	124	-0.6	68	-5.8	0	0	987.1	NA	0.0000		9999	7380	0	0	0
2019/08/03 10:10:00	BASE	13.41	118	16.15	124	-0.5	67	-5.9	0	0	987.0	NA	0.0000		9999	7250	0	0	0
2019/08/03 10:11:00	BASE	13.84	118	16.15	124	-0.5	66	-6.0	0	0	987.1	NA	0.0000		9999	7120	0	0	0
2019/08/03 10:12:00	BASE	13.37	119	16.15	124	-0.5	66	-6.1	0	0	987.0	NA	0.0000		9999	6990	0	0	0
2019/08/03 10:13:00	BASE	13.06	122	16.15	124	-0.4	65	-6.2	0	0	987.0	NA	0.0000		9999	6890	0	0	0
2019/08/03 10:14:00	BASE	12.52	118	16.15	124	-0.3	64	-6.3	0	0	987.0	NA	0.0000		9999	7020	0	0	0
2019/08/03 10:15:00	BASE	11.49	117	16.15	124	-0.3	64	-6.3	0	0	987.0	NA	0.0000		9999	6590	0	0	0
2019/08/03 10:16:00	BASE	10.71	122	16.15	124	-0.3	64	-6.4	0	0	987.0	NA	0.0000		9999	6430	0	0	0
2019/08/03 10:17:00	BASE	10.16	122	15.64	123	-0.4	64	-6.4	0	0	987.0	NA	0.0000		9999	6460	0	0	0
2019/08/03 10:18:00	BASE	10.40	117	15.48	121	-0.5	65	-6.3	0	0	987.0	NA	0.0000		9999	7380	0	0	0
2019/08/03 10:19:00	BASE	11.67	119	15.48	121	-0.6	65	-6.3	0	0	987.0	NA	0.0000		9999	6370	7970	0	0
2019/08/03 10:20:00	BASE	11.87	123	15.07	123	-0.6	66	-6.2	0	0	986.9	NA	0.0000		9999	7090	8010	0	0
2019/08/03 10:21:00	BASE	11.75	121	15.07	123	-0.7	67	-6.1	0	0	986.9	NA	0.0000		9999	7380	0	0	0
2019/08/03 10:22:00	BASE	13.47	119	17.44	113	-0.7	67	-6.0	0	0	986.8	NA	0.0000		9999	7680	0	0	0
2019/08/03 10:23:00	BASE	14.96	120	17.44	113	-0.7	67	-6.0	0	0	986.8	NA	0.0000		9999	7380	7940	0	0
2019/08/03 10:24:00	BASE	15.82	122	17.44	113	-0.7	68	-5.9	0	0	986.7	NA	0.0000		9999	7610	0	0	0
2019/08/03 10:25:00	BASE	16.69	123	18.47	120	-0.6	68	-5.9	0	0	986.6	NA	0.0000		9999	7810	0	0	0
2019/08/03 10:26:00	BASE	15.98	128	18.47	120	-0.6	68	-5.8	0	0	986.6	NA	0.0000		9999	7910	0	0	0
2019/08/03 10:27:00	BASE	15.17	131	18.47	120	-0.6	68	-5.8	0	0	986.6	NA	0.0000		9999	8040	0	0	0
2019/08/03 10:28:00	BASE	14.65	127	18.47	120	-0.6	68	-5.9	0	0	986.7	NA	0.0000		9999	7780	0	0	0
2019/08/03 10:29:00	BASE	15.34	121	21.20	110	-0.7	68	-5.9	0	0	986.6	NA	0.0000		9999	7740	0	0	0
2019/08/03 10:30:00	BASE	17.34	122	21.20	110	-0.8	68	-5.9	0	0	986.5	NA	0.0000		9999	7680	0	0	0
2019/08/03 10:31:00	BASE	17.22	122	21.20	110	-0.9	69	-5.9	0	0	986.6	NA	0.0000		9999	7510	0	0	0
2019/08/03 10:32:00	BASE	16.06	119	21.20	110	-0.9	69	-5.9	0	0	986.6	NA	0.0000		9999	7450	0	0	0
2019/08/03 10:33:00	BASE	15.07	121	21.20	110	-0.9	69	-5.9	0	0	986.6	NA	0.0000		9999	7450	0	0	0
2019/08/03 10:34:00	BASE	15.01	127	21.20	110	-0.9	69	-5.9	0	0	986.5	NA	0.0000		9999	7250	0	0	0
2019/08/03 10:35:00	BASE	15.32	129	21.20	110	-1.0	69	-5.9	0	0	986.4	NA	0.0000		9999	7480	0	0	0
2019/08/03 10:36:00	BASE	14.77	126	21.20	110	-1.0	70	-5.9	0	0	986.4	NA	0.0000		9999	7550	0	0	0
2019/08/03 10:37:00	BASE	14.30	125	21.20	110	-1.1	70	-5.9	0	0	986.4	NA	0.0000		9999	7610	0	0	0
2019/08/03 10:38:00	BASE	14.88	127	21.20	110	-1.2	70	-5.9	0	0	986.4	NA	0.0000		9999	7610	0	0	0
2019/08/03 10:39:00	BASE	15.28	121	18.78	130	-1.2	71	-5.8	0	0	986.5	NA	0.0000		9999	7580	0	0	0
2019/08/03 10:40:00	BASE	14.90	120	18.01	115	-1.2	71	-5.8	0	0	986.4	NA	0.0000		9999	7550	0	0	0
2019/08/03 10:41:00	BASE	15.26	130	17.18	134	-1.2	71	-5.8	0	0	986.3	NA	0.0000		9999	7680	0	0	0
2019/08/03 10:42:00	BASE	15.88	133	17.18	134	-1.2	71	-5.8	0	0	986.3	NA	0.0000		9999	7450	0	0	0
2019/08/03 10:43:00	BASE	17.79	134	25.10	122	-1.2	71	-5.8	0	0	986.0	NA	0.0000		9999	7740	0	0	0
2019/08/03 10:44:00	BASE	18.92	132	25.10	122	-1.1	71	-5.8	0	0	986.0	NA	0.0000		9999	7810	0	0	0
2019/08/03 10:45:00	BASE	17.76	129	25.10	122	-1.1	71	-5.7	0	0	986.0	NA	0.0000		9999	7780	0	0	0
2019/08/03 10:46:00	BASE	17.72	131	25.10	122	-1.0	70	-5.7	0	0	986.0	NA	0.0000		9999	7680	0	0	0
2019/08/03 10:47:00	BASE	17.52	135	25.10	122	-0.9	70	-5.7	0	0	986.0	NA	0.0000		9999	7710	0	0	0
2019/08/03 10:48:00	BASE	18.13	133	25.10	122	-0.9	70	-5.8	0	0	986.0	NA	0.0000		9999	7840	0	0	0
2019/08/03 10:49:00	BASE	18.15	128	25.10	122	-0.9	69	-5.8	0	0	986.1	NA	0.0000		9999	8010	0	0	0
2019/08/03 10:50:00	BASE	17.14	128	25.10	122	-0.9	69	-5.8	0	0	986.1	NA	0.0000		9999	7870	0	0	0
2019/08/03 10:51:00	BASE	16.68	129	25.10	122	-1.0	70	-5.8	0	0	986.2	NA	0.0000		9999	8010	0	0	0
2019/08/03 10:52:00	BASE	15.57	130	25.10	122	-1.0	70	-5.8	0	0	986.2	NA	0.0000		9999	8040	0	0	0
2019/08/03 10:53:00	BASE	15.31	131	22.69	128	-1.1	71	-5.7	0	0	986.2	NA	0.0000		9999	8040	0	0	0
2019/08/03 10:54:00	BASE	15.92	130	22.69	128	-1.1	71	-5.7	0	0	986.1	NA	0.0000		9999	8170	0	0	0
2019/08/03 10:55:00	BASE	15.89	139	22.69	128	-1.1	72	-5.6	0	0	986.0	NA	0.0000		9999	8170	0	0	0
2019/08/03 10:56:00	BASE	15.95	141	22.69	128	-1.0	71	-5.6	0	0	986.1	NA	0.0000		9999	8140	0	0	0
2019/08/03 10:57:00	BASE	16.65	134	22.69	128	-0.9	70	-5.6	0	0	986.1	NA	0.0000		9999	8040	0	0	0
2019/08/03 10:58:00	BASE	15.02	139	19.60	128	-0.6	69	-5.6	0	0	986.1	NA	0.0000		9999	8070	0	0	0
2019/08/03 10:59:00	BASE	12.22	142	19.60	128	-0.3	67	-5.7	0	0	986.3	NA	0.0000		9999	8200	0	0	0
2019/08/03 11:00:00	BASE	12.23	135	19.60	128	-0.2	65	-6.0	0	0	986.2	NA	0.0000		9999	8170	0	0	0
2019/08/03 11:01:00	BASE	14.81	133	19.60	128	-0.2	64	-6.2	0	0	986.1	NA	0.0000		9999	8100	0	0	0
2019/08/03 11:02:00	BASE	15.21	134	19.60	128	-0.2	64	-6.2	0	0	986.2	NA	0.0000		9999	8100	0	0	0
2019/08/03 11:03:00	BASE	14.06	134	19.60	128	-0.3	64	-6.4	0	0	986.2	NA	0.0000		9999	8200	0	0	0
2019/08/03 11:04:00	BASE	14.34	137	19.60	128	-0.6	64	-6.5	0	0	986.1	NA	0.0000		9999	8140	0	0	0
2019/08/03 11:05:00	BASE	14.55	143	19.60	128	-0.7	65	-6.4	0	0	986.0	NA	0.0000		9999	8070	0	0	0
2019/08/03 11:06:00	BASE	13.93	146	19.60	128	-0.8	66	-6.3	0	0	986.1	NA	0.0000		9999	8040	0	0	0
2019/08/03 11:07:00	BASE	11.89	142	18.57	144	-0.9	67	-6.2	0	0	986.2	NA	0.0000		9999	8040	0	0	0
2019/08/03 11:08:00	BASE	10.09	131	17.75	132	-1.0	68	-6.1	0	0	986.4	NA	0.0000		9999	8070	0	0	0
2019/08/03 11:09:00	BASE	9.52	124	17.75	132	-1.1	69	-6.0	0	0	986.4	NA	0.0000		9999	8040	0	0	0
2019/08/03 11:10:00	BASE	8.33	124	17.75	132	-1.2	70	-5.9	0	0	986.3	NA	0.0000		9999	5250	8010	0	0
2019/08/03 11:11:00	BASE	7.90	131	16.00	134	-1.2	71	-5.8	0	0	986.2	NA	0.0000		9999	5250	8040	0	0
2019/08/03 11:12:00	BASE	9.04	141	16.00	134	-1.3	72	-5.7	0	0	986.2	NA	0.0000		9999	5180	7810	0	0
2019/08/03 11:13:00	BASE	9.20	133	15.59	137	-1.3	73	-5.5	0	0	986.2	NA	0.0000		9999	7970	0	0	0
2019/08/03 11:14:00	BASE	7.71	123	15.18	146	-1.2	73	-5.4	0	0	986.2	NA	0.0000		9999	7780	0	0	0
2019/08/03 11:15:00	BASE	6.37	126	14.40	145	-1.2	73	-5.4	0	0	986.2	NA	0.0000		9999	5120	7910	0	0
2019/08/03 11:16:00	BASE	7.34	133	12.35	141	-1.1	72	-5.5	0	0	986.0	NA	0.0000		9999	8140	0	0	0
2019/08/03 11:17:00	BASE	8.77	136	11.68	129	-1.1	72	-5.5	0	0	986.0	NA	0.0000		9999	8170	0	0	0
2019/08/03 11:18:00	BASE	8.91	136	11.68	129	-1.0	71	-5.7	0	0	986.0	NA	0.0000		9999	8070	0	0	0
2019/08/03 11:19:00	BASE	9.73	145	11.52	157	-1.1	71	-5.7	0	0	985.9	NA	0.0000		9999	5090	8100	0	0
2019/08/03 11:20:00	BASE	10.74	154	11.78	154	-1.1	71	-5.7	0	0	985.9	NA	0.0000		9999	5020	8040	0	0
2019/08/03 11:21:00	BASE	10.45	153	11.78	154	-1.1	71	-5.7	0	0	985.9	NA	0.0000		9999	4890	8240	0	0
2019/08/03 11:22:00	BASE	10.12	150	11.78	154	-1.2	72	-5.6	0	0	985.8	NA	0.0000		9999	4860	8170	0	0
2019/08/03 11:23:00	BASE	9.84	151	11.78	154	-1.3	73	-5.5	0	0	985.8	NA	0.0000		9999	8240	0	0	0
2019/08/03 11:24:00	BASE	9.55	157	11.78	154	-1.3	74	-5.3	0	0	985.8	NA	0.0000		9999	8070	0	0	0
2019/08/03 11:25:00	BASE	8.31	158	11.78	154	-1.3	75	-5.2	0	0	985.9	NA	0.0000		9999	8140	0	0	0
2019/08/03 11:26:00	BASE	6.47	153	11.78	154	-1.3	75	-5.1	0	0	985.9	NA	0.0000		9999	5090	8170	0	0
2019/08/03 11:27:00	BASE	5.57	145	11.78	154	-1.3	76	-5.0	0	0	985.9	NA	0.0000		9999	4890	8200	0	0
2019/08/03 11:28:01	BASE	5.67	131	11.78	154	-1.2	76	-4.9	0	0	985.8	NA	0.0000		9999	4920	8240	0	0
2019/08/03 11:29:00	BASE	6.97	124	12.04	117	-1.1	76	-4.8	0	0	985.8	NA	0.0000		9999	4990	8070	0	0
2019/08/03 11:30:00	BASE	9.27	126	12.04	121	-1.1	76	-4.8	0	0	985.8	NA	0.0000		9999	4920	8140	0	0
2019/08/03 11:31:00	BASE	10.50	129	12.71	123	-1.0	75	-4.9	0	0	985.8	NA	0.0000		9999	4920	0	0	0
2019/08/03 11:32:00	BASE	9.81	129	12.71	123	-0.9	74	-4.9	0	0	985.7	NA	0.0000		9999	4950	0	0	0
2019/08/03 11:33:00	BASE	9.49	131	12.71	123	-0.9	74	-5.0	0	0	985.7	NA	0.0000		9999	4950	7710	0	0
2019/08/03 11:34:00	BASE	9.66	132	12.71	123	-0.9	73	-5.1	0	0	985.7	NA	0.0000		9999	5020	8010	0	0
2019/08/03 11:35:00	BASE	9.86	126	12.71	123	-0.9	73	-5.1	0	0	985.8	NA	0.0000		9999	5020	0	0	0
2019/08/03 11:36:00	BASE	10.42	125	12.71	123	-1.0	74	-5.0	0	0	985.7	NA	0.0000		9999	5020	0	0	0
2019/08/03 11:37:00	BASE	10.43	132	12.71	123	-0.9	74	-5.0	0	0	985.7	NA	0.0000		9999	5020	0	0	0
2019/08/03 11:38:00	BASE	10.01	133	12.71	123	-0.9	74	-5.0	0	0	985.6	NA	0.0000		9999	5120	7320	7970	0
2019/08/03 11:39:00	BASE	10.22	130	13.48	132	-0.9	74	-4.9	0	0	985.5	NA	0.0000		9999	7220	7970	0	0
2019/08/03 11:40:00	BASE	12.42	130	15.38	131	-0.9	74	-4.9	0	0	985.4	NA	0.0000		9999	7280	7740	0	0
2019/08/03 11:41:00	BASE	14.59	133	15.54	139	-0.9	74	-5.0	0	0	985.4	NA	0.0000		9999	7190	7680	8070	0
2019/08/03 11:42:00	BASE	14.39	137	15.79	141	-0.9	73	-5.0	0	0	985.4	NA	0.0000		9999	7190	7610	0	0
2019/08/03 11:43:00	BASE	13.19	140	15.79	141	-0.8	73	-5.1	0	0	985.4	NA	0.0000		9999	7050	7610	0	0
2019/08/03 11:44:00	BASE	12.27	140	15.79	141	-0.7	72	-5.2	0	0	985.4	NA	0.0000		9999	5510	7050	0	0
2019/08/03 11:45:00	BASE	13.38	142	15.79	141	-0.7	71	-5.3	0	0	985.4	NA	0.0000		9999	5480	6990	8010	0
2019/08/03 11:46:00	BASE	14.21	151	15.79	141	-0.6	70	-5.4	0	0	985.3	NA	0.0000		9999	7190	7970	0	0
2019/08/03 11:47:00	BASE	12.96	147	15.79	141	-0.6	70	-5.4	0	0	985.4	NA	0.0000		9999	7450	0	0	0
2019/08/03 11:48:00	BASE	11.89	138	15.79	141	-0.6	70	-5.4	0	0	985.4	NA	0.0000		9999	7910	0	0	0
2019/08/03 11:49:00	BASE	10.42	134	15.79	141	-0.7	70	-5.4	0	0	985.5	NA	0.0000		9999	9220	0	0	0
2019/08/03 11:50:00	BASE	9.22	124	15.79	141	-0.7	71	-5.4	0	0	985.5	NA	0.0000		9999	9120	0	0	0
2019/08/03 11:51:00	BASE	10.98	116	18.78	131	-0.7	71	-5.3	0	0	985.5	NA	0.0000		9999	3770	7710	0	0
2019/08/03 11:52:00	BASE	14.03	125	18.78	131	-0.6	71	-5.3	0	0	985.3	NA	0.0000		9999	4000	5480	0	0
2019/08/03 11:53:00	BASE	15.62	133	18.78	131	-0.6	70	-5.3	0	0	985.3	NA	0.0000		9999	9250	0	0	0
2019/08/03 11:54:00	BASE	15.48	133	18.78	131	-0.6	70	-5.3	0	0	985.3	NA	0.0000		9999	9350	0	0	0
2019/08/03 11:55:00	BASE	14.51	136	18.78	131	-0.6	70	-5.4	0	0	985.3	NA	0.0000		9999	9320	0	0	0
2019/08/03 11:56:00	BASE	13.54	140	18.78	131	-0.7	70	-5.4	0	0	985.3	NA	0.0000		9999	9350	0	0	0
2019/08/03 11:57:00	BASE	13.08	143	18.78	131	-0.8	71	-5.4	0	0	985.3	NA	0.0000		9999	9510	0	0	0
2019/08/03 11:58:00	BASE	12.81	146	18.78	131	-1.0	72	-5.4	0	0	985.3	NA	0.0000		9999	9250	0	0	0
2019/08/03 11:59:00	BASE	12.25	145	18.78	131	-1.0	73	-5.3	0	0	985.3	NA	0.0000		9999	5580	0	0	0
2019/08/03 12:00:00	BASE	11.56	143	18.78	131	-1.1	74	-5.2	0	0	985.3	NA	0.0000		9999	5250	0	0	0
2019/08/03 12:01:00	BASE	11.14	148	18.31	132	-1.1	74	-5.1	0	0	985.3	NA	0.0000		9999	5120	0	0	0
2019/08/03 12:02:00	BASE	11.13	157	17.03	132	-1.1	75	-5.1	0	0	985.2	NA	0.0000		9999	4760	0	0	0
2019/08/03 12:03:00	BASE	11.34	161	15.84	133	-1.2	75	-5.0	0	0	985.2	NA	0.0000		9999	4660	0	0	0
2019/08/03 12:04:00	BASE	12.85	158	15.64	145	-1.2	76	-4.9	0	0	985.1	NA	0.0000		9999	4660	5610	0	0
2019/08/03 12:05:00	BASE	12.91	154	15.07	157	-1.2	76	-4.9	0	0	985.1	NA	0.0000		9999	4690	0	0	0
2019/08/03 12:06:00	BASE	11.89	149	15.07	157	-1.2	76	-4.8	0	0	985.2	NA	0.0000		9999	4660	0	0	0
2019/08/03 12:07:00	BASE	11.43	151	15.07	157	-1.2	77	-4.8	0	0	985.2	NA	0.0000		9999	4690	0	0	0
2019/08/03 12:08:00	BASE	9.58	157	15.07	157	-1.2	77	-4.7	0	0	985.2	NA	0.0000		9999	4660	0	0	0
2019/08/03 12:09:00	BASE	7.82	149	15.07	157	-1.1	76	-4.8	0	0	985.2	NA	0.0000		9999	4720	0	0	0
2019/08/03 12:10:00	BASE	6.97	146	15.07	157	-1.1	76	-4.8	0	0	985.1	NA	0.0000		9999	5410	0	0	0
2019/08/03 12:11:00	BASE	6.59	159	15.07	157	-1.0	75	-4.8	0	0	985.1	NA	0.0000		9999	5640	0	0	0
2019/08/03 12:12:00	BASE	7.43	160	15.07	157	-1.0	75	-4.9	0	0	985.0	NA	0.0000		9999	4200	4790	0	0
2019/08/03 12:13:00	BASE	8.13	122	15.07	157	-0.9	74	-5.0	0	0	985.2	NA	0.0000		9999	4590	0	0	0
2019/08/03 12:14:00	BASE	7.29	68	14.15	146	-0.9	74	-5.0	0	0	985.1	NA	0.0000		9999	4200	4720	0	0
2019/08/03 12:15:00	BASE	7.13	60	14.15	146	-0.9	74	-5.0	0	0	985.1	NA	0.0000		9999	4490	0	0	0
2019/08/03 12:16:00	BASE	8.34	86	12.60	146	-0.9	73	-5.1	0	0	985.0	NA	0.0000		9999	4790	5740	0	0
2019/08/03 12:17:00	BASE	10.03	113	12.81	116	-0.8	73	-5.1	0	0	984.9	NA	0.0000		9999	4530	5840	0	0
2019/08/03 12:18:00	BASE	11.27	119	12.81	116	-0.6	71	-5.2	0	0	984.9	NA	0.0000		9999	3940	0	0	0
2019/08/03 12:19:00	BASE	11.08	120	12.81	116	-0.6	70	-5.4	0	0	984.9	NA	0.0000		9999	4630	0	0	0
2019/08/03 12:20:00	BASE	9.82	117	12.81	116	-0.5	69	-5.5	0	0	984.9	NA	0.0000		9999	4690	0	0	0
2019/08/03 12:21:00	BASE	8.19	113	12.81	116	-0.5	68	-5.6	0	0	985.0	NA	0.0000		9999	4660	0	0	0
2019/08/03 12:22:00	BASE	6.87	105	12.81	116	-0.5	68	-5.7	0	0	984.9	NA	0.0000		9999	4660	0	0	0
2019/08/03 12:23:00	BASE	6.81	106	12.81	116	-0.6	68	-5.7	0	0	984.9	NA	0.0000		9999	4720	0	0	0
2019/08/03 12:24:00	BASE	7.14	125	12.81	116	-0.7	69	-5.7	0	0	984.8	NA	0.0000		9999	5740	0	0	0
2019/08/03 12:25:00	BASE	6.51	137	12.81	116	-0.7	69	-5.6	0	0	984.8	NA	0.0000		9999	4100	6430	0	0
2019/08/03 12:26:00	BASE	6.49	126	12.81	116	-0.8	70	-5.6	0	0	984.8	NA	0.0000		9999	4170	0	0	0
2019/08/03 12:27:00	BASE	8.07	115	12.66	129	-0.8	70	-5.5	0	0	984.8	NA	0.0000		9999	4100	0	0	0
2019/08/03 12:28:00	BASE	9.08	104	11.52	118	-0.7	70	-5.5	0	0	984.8	NA	0.0000		9999	4460	0	0	0
2019/08/03 12:29:00	BASE	8.92	99	10.70	117	-0.7	70	-5.5	0	0	984.8	NA	0.0000		9999	4760	5710	0	0
2019/08/03 12:30:00	BASE	7.96	102	10.65	110	-0.6	69	-5.6	0	0	984.7	NA	0.0000		9999	5610	0	0	0
2019/08/03 12:31:00	BASE	7.91	109	10.65	110	-0.6	69	-5.7	0	0	984.6	NA	0.0000		9999	5580	6960	0	0
2019/08/03 12:32:00	BASE	9.68	115	11.99	120	-0.7	68	-5.9	0	0	984.6	NA	0.0000		9999	6400	0	0	0
2019/08/03 12:33:00	BASE	11.44	120	12.76	121	-0.8	68	-6.0	0	0	984.5	NA	0.0000		9999	5220	0	0	0
2019/08/03 12:34:00	BASE	11.66	123	12.76	121	-0.9	68	-6.1	0	0	984.6	NA	0.0000		9999	5410	0	0	0
2019/08/03 12:35:00	BASE	10.36	123	12.76	121	-0.9	68	-6.1	0	0	984.6	NA	0.0000		9999	5410	6430	0	0
2019/08/03 12:36:00	BASE	8.78	124	12.76	121	-1.0	68	-6.1	0	0	984.6	NA	0.0000		9999	4860	6560	0	0
2019/08/03 12:37:00	BASE	7.76	125	12.76	121	-1.0	68	-6.1	0	0	984.6	NA	0.0000		9999	5280	0	0	0
2019/08/03 12:38:00	BASE	9.11	121	12.76	121	-1.0	68	-6.1	1	0	984.5	NA	0.0000		9999	5320	0	0	0
2019/08/03 12:39:00	BASE	11.14	120	12.76	121	-1.0	69	-6.1	1	0	984.5	NA	0.0000		9999	5320	0	0	0
2019/08/03 12:40:00	BASE	10.57	123	12.76	121	-1.0	69	-6.0	1	0	984.5	NA	0.0000		9999	5380	0	0	0
2019/08/03 12:41:00	BASE	10.36	125	12.91	120	-1.1	69	-6.0	1	0	984.4	NA	0.0000		9999	5410	6170	0	0
2019/08/03 12:42:00	BASE	11.42	125	12.91	120	-1.1	70	-6.0	1	0	984.4	NA	0.0000		9999	6500	0	0	0
2019/08/03 12:43:00	BASE	11.15	129	12.91	120	-1.1	70	-5.9	1	0	984.3	NA	0.0000		9999	5450	6730	0	0
2019/08/03 12:44:00	BASE	11.25	132	12.91	120	-1.2	70	-5.9	1	0	984.3	NA	0.0000		9999	5510	6990	0	0
2019/08/03 12:45:00	BASE	12.12	131	13.58	129	-1.2	71	-5.8	1	0	984.3	NA	0.0000		9999	5380	6400	7550	0
2019/08/03 12:46:00	BASE	11.57	129	13.58	129	-1.3	71	-5.8	1	0	984.3	NA	0.0000		9999	5220	0	0	0
2019/08/03 12:47:00	BASE	10.85	125	13.58	129	-1.3	71	-5.8	1	0	984.3	NA	0.0000		9999	5350	0	0	0
2019/08/03 12:48:00	BASE	10.25	124	13.58	129	-1.2	71	-5.8	1	0	984.3	NA	0.0000		9999	5350	0	0	0
2019/08/03 12:49:00	BASE	9.57	128	13.58	129	-1.2	71	-5.8	1	0	984.3	NA	0.0000		9999	5320	0	0	0
2019/08/03 12:50:00	BASE	10.03	132	13.58	129	-1.2	71	-5.9	1	0	984.3	NA	0.0000		9999	6920	0	0	0
2019/08/03 12:51:00	BASE	11.13	134	13.58	129	-1.2	70	-5.9	1	0	984.2	NA	0.0000		9999	5480	0	0	0
2019/08/03 12:52:00	BASE	12.94	133	15.74	131	-1.2	70	-5.9	1	0	984.1	NA	0.0000		9999	5450	0	0	0
2019/08/03 12:53:00	BASE	14.09	133	15.74	131	-1.2	70	-5.9	2	0	984.1	NA	0.0000		9999	5580	6860	7420	0
2019/08/03 12:54:00	BASE	13.06	138	15.74	131	-1.2	70	-5.9	2	0	984.0	NA	0.0000		9999	6660	0	0	0
2019/08/03 12:55:00	BASE	12.26	140	15.74	131	-1.1	71	-5.8	2	0	984.0	NA	0.0000		9999	6820	0	0	0
2019/08/03 12:56:00	BASE	12.71	135	15.74	131	-1.0	70	-5.8	2	0	984.0	NA	0.0000		9999	6820	0	0	0
2019/08/03 12:57:00	BASE	13.58	129	15.74	122	-1.0	70	-5.8	2	0	984.0	NA	0.0000		9999	7220	0	0	0
2019/08/03 12:58:00	BASE	14.79	123	17.13	118	-1.0	70	-5.9	2	0	983.9	NA	0.0000		9999	7610	0	0	0
2019/08/03 12:59:00	BASE	15.58	118	17.13	118	-1.1	70	-5.9	2	0	983.9	NA	0.0000		9999	7580	0	0	0
2019/08/03 13:00:00	BASE	15.55	119	17.13	118	-1.1	70	-5.9	2	0	984.0	NA	0.0000		9999	7680	0	0	0
2019/08/03 13:01:00	BASE	15.43	124	17.13	118	-1.2	70	-5.9	2	0	984.0	NA	0.0000		9999	7640	0	0	0
2019/08/03 13:02:00	BASE	15.07	122	17.13	118	-1.2	71	-5.8	2	0	984.0	NA	0.0000		9999	5740	7150	7910	0
2019/08/03 13:03:00	BASE	14.69	120	17.13	118	-1.2	71	-5.8	3	0	984.0	NA	0.0000		9999	6200	7610	0	0
2019/08/03 13:04:00	BASE	15.07	125	17.13	118	-1.2	71	-5.7	3	0	983.9	NA	0.0000		9999	6330	0	0	0
2019/08/03 13:05:00	BASE	14.54	126	17.13	118	-1.2	71	-5.7	3	0	983.8	NA	0.0000		9999	6400	7120	0	0
2019/08/03 13:06:00	BASE	13.83	120	17.13	118	-1.2	71	-5.7	3	0	983.8	NA	0.0000		9999	6460	7350	8370	0
2019/08/03 13:07:00	BASE	13.23	119	17.13	118	-1.1	71	-5.7	3	0	983.9	NA	0.0000		9999	8200	0	0	0
2019/08/03 13:08:00	BASE	11.86	121	17.03	116	-1.1	71	-5.7	4	0	983.8	NA	0.0000		9999	7940	0	0	0
2019/08/03 13:09:00	BASE	12.47	122	16.98	132	-1.1	70	-5.8	4	0	983.8	NA	0.0000		9999	8070	0	0	0
2019/08/03 13:10:00	BASE	13.39	121	16.98	132	-1.0	70	-5.8	4	0	983.8	NA	0.0000		9999	8140	0	0	0
2019/08/03 13:11:00	BASE	12.90	121	16.98	132	-1.0	70	-5.8	4	0	983.8	NA	0.0000		9999	8240	0	0	0
2019/08/03 13:12:00	BASE	12.48	123	16.98	132	-1.0	70	-5.8	5	0	983.7	NA	0.0000		9999	8240	0	0	0
2019/08/03 13:13:00	BASE	12.19	120	16.98	132	-1.0	70	-5.8	5	0	983.7	NA	0.0000		9999	8270	0	0	0
2019/08/03 13:14:00	BASE	12.16	122	15.74	122	-0.9	70	-5.7	5	0	983.6	NA	0.0000		9999	8270	8920	0	0
2019/08/03 13:15:00	BASE	11.79	128	15.74	122	-0.8	69	-5.7	5	0	983.6	NA	0.0000		9999	8300	0	0	0
2019/08/03 13:16:00	BASE	12.55	128	15.74	122	-0.6	68	-5.8	6	0	983.5	NA	0.0000		9999	8240	0	0	0
2019/08/03 13:17:00	BASE	13.62	130	15.74	122	-0.5	67	-6.0	6	0	983.5	NA	0.0000		9999	8170	11520	0	0
2019/08/03 13:18:00	BASE	12.97	131	15.74	122	-0.5	66	-6.1	6	0	983.5	NA	0.0000		9999	8240	11550	0	0
2019/08/03 13:19:00	BASE	13.45	126	16.10	125	-0.5	65	-6.2	6	0	983.4	NA	0.0000		9999	8370	11610	0	0
2019/08/03 13:20:00	BASE	14.44	122	16.10	125	-0.6	66	-6.3	7	0	983.4	NA	0.0000		9999	8300	11680	0	0
2019/08/03 13:21:00	BASE	13.90	124	16.10	125	-0.7	66	-6.3	7	0	983.4	NA	0.0000		9999	8370	11750	0	0
2019/08/03 13:22:00	BASE	13.13	129	16.10	125	-0.8	67	-6.3	7	0	983.4	NA	0.0000		9999	8370	11780	0	0
2019/08/03 13:23:00	BASE	12.05	123	16.10	125	-0.9	67	-6.2	7	0	983.5	NA	0.0000		9999	8370	11780	0	0
2019/08/03 13:24:00	BASE	12.15	118	16.10	125	-0.9	67	-6.2	8	0	983.5	NA	0.0000		9999	8330	0	0	0
2019/08/03 13:25:00	BASE	13.74	120	16.20	127	-0.9	67	-6.2	8	0	983.5	NA	0.0000		9999	8400	0	0	0
2019/08/03 13:26:00	BASE	13.70	118	16.20	127	-1.0	68	-6.2	8	0	983.5	NA	0.0000		9999	8370	0	0	0
2019/08/03 13:27:00	BASE	14.94	115	20.11	111	-1.0	68	-6.2	9	0	983.4	NA	0.0000		9999	8530	12040	0	0
2019/08/03 13:28:00	BASE	16.51	113	20.11	111	-1.0	68	-6.2	9	0	983.5	NA	0.0000		9999	8600	11980	0	0
2019/08/03 13:29:00	BASE	15.29	111	20.11	111	-1.0	68	-6.1	9	0	983.5	NA	0.0000		9999	8560	0	0	0
2019/08/03 13:30:00	BASE	15.06	114	20.11	111	-1.0	68	-6.1	10	0	983.4	NA	0.0000		9999	8560	0	0	0
2019/08/03 13:31:00	BASE	16.75	120	20.11	111	-1.0	69	-6.1	10	0	983.3	NA	0.0000		9999	9150	12110	0	0
2019/08/03 13:32:00	BASE	17.09	121	20.11	111	-1.0	69	-6.0	10	0	983.4	NA	0.0000		9999	7640	12140	0	0
2019/08/03 13:33:00	BASE	16.40	118	20.11	111	-1.0	69	-5.9	11	0	983.4	NA	0.0000		9999	7610	0	0	0
2019/08/03 13:34:00	BASE	16.57	115	20.11	111	-1.0	70	-5.9	11	0	983.4	NA	0.0000		9999	7640	12140	0	0
2019/08/03 13:35:00	BASE	16.89	113	20.11	111	-1.1	70	-5.9	11	0	983.4	NA	0.0000		9999	7680	12040	0	0
2019/08/03 13:36:00	BASE	15.84	109	20.11	111	-1.1	70	-5.9	12	0	983.5	NA	0.0000		9999	7710	12010	0	0
2019/08/03 13:37:00	BASE	14.66	109	19.55	111	-1.2	70	-5.9	12	0	983.5	NA	0.0000		9999	11980	0	0	0
2019/08/03 13:38:00	BASE	13.89	115	19.14	125	-1.2	70	-5.9	12	0	983.5	NA	0.0000		9999	12070	0	0	0
2019/08/03 13:39:00	BASE	13.06	116	19.14	125	-1.2	71	-5.9	12	0	983.5	NA	0.0000		9999	12070	0	0	0
2019/08/03 13:40:00	BASE	11.87	112	19.14	125	-1.3	71	-5.9	13	0	983.5	NA	0.0000		9999	12110	0	0	0
2019/08/03 13:41:00	BASE	11.01	115	18.42	117	-1.3	71	-5.9	13	0	983.5	NA	0.0000		9999	12070	0	0	0
2019/08/03 13:42:00	BASE	11.63	121	18.42	117	-1.3	70	-6.0	13	0	983.4	NA	0.0000		9999	12110	0	0	0
2019/08/03 13:43:00	BASE	12.60	118	18.42	117	-1.3	70	-6.0	14	0	983.4	NA	0.0000		9999	12070	0	0	0
2019/08/03 13:44:00	BASE	13.44	112	18.42	117	-1.3	70	-6.1	14	0	983.4	NA	0.0000		9999	12070	0	0	0
2019/08/03 13:45:00	BASE	13.28	106	16.05	118	-1.3	70	-6.1	14	0	983.4	NA	0.0000		9999	12110	0	0	0
2019/08/03 13:46:00	BASE	12.88	108	16.05	118	-1.3	70	-6.1	15	0	983.3	NA	0.0000		9999	12070	0	0	0
2019/08/03 13:47:00	BASE	12.74	114	16.05	118	-1.3	70	-6.0	15	0	983.2	NA	0.0000		9999	12010	0	0	0
2019/08/03 13:48:00	BASE	13.69	119	15.64	122	-1.4	71	-6.0	15	0	983.2	NA	0.0000		9999	12010	0	0	0
2019/08/03 13:49:00	BASE	14.02	120	15.64	122	-1.4	71	-5.9	15	0	983.2	NA	0.0000		9999	11940	0	0	0
2019/08/03 13:50:00	BASE	12.91	117	15.64	122	-1.4	72	-5.9	16	0	983.2	NA	0.0000		9999	11910	0	0	0
2019/08/03 13:51:00	BASE	12.49	115	15.64	122	-1.5	72	-5.8	16	0	983.1	NA	0.0000		9999	11880	0	0	0
2019/08/03 13:52:00	BASE	12.84	114	15.64	122	-1.5	73	-5.8	16	0	983.1	NA	0.0000		9999	11880	0	0	0
2019/08/03 13:53:00	BASE	13.73	113	15.64	122	-1.5	73	-5.7	17	0	983.0	NA	0.0000		9999	11880	0	0	0
2019/08/03 13:54:00	BASE	14.35	110	15.64	122	-1.5	73	-5.7	17	0	983.0	NA	0.0000		9999	12040	0	0	0
2019/08/03 13:55:00	BASE	13.31	109	15.64	122	-1.5	73	-5.7	17	0	983.0	NA	0.0000		9999	12010	0	0	0
2019/08/03 13:56:00	BASE	12.35	106	15.64	122	-1.6	74	-5.6	18	0	982.9	NA	0.0000		9999	12010	0	0	0
2019/08/03 13:57:00	BASE	12.37	104	15.64	122	-1.6	74	-5.6	18	0	982.9	NA	0.0000		9999	12040	0	0	0
2019/08/03 13:58:00	BASE	12.37	107	15.54	107	-1.6	75	-5.6	19	0	982.9	NA	0.0000		9999	12010	0	0	0
2019/08/03 13:59:00	BASE	12.08	110	15.54	107	-1.7	75	-5.5	19	0	982.9	NA	0.0000		9999	11980	0	0	0
2019/08/03 14:00:00	BASE	11.76	115	15.54	107	-1.7	75	-5.5	19	0	982.8	NA	0.0000		9999	12010	0	0	0
2019/08/03 14:01:00	BASE	11.78	122	15.54	107	-1.7	75	-5.5	20	0	982.8	NA	0.0000		9999	12010	0	0	0
2019/08/03 14:02:00	BASE	11.46	125	15.54	107	-1.6	76	-5.4	20	0	982.8	NA	0.0000		9999	11910	0	0	0
2019/08/03 14:03:00	BASE	12.19	121	15.38	119	-1.6	76	-5.3	21	0	982.7	NA	0.0000		9999	11940	0	0	0
2019/08/03 14:04:00	BASE	13.69	113	15.38	119	-1.5	76	-5.3	21	0	982.7	NA	0.0000		9999	11940	0	0	0
2019/08/03 14:05:00	BASE	13.66	106	15.38	119	-1.5	75	-5.3	21	0	982.7	NA	0.0000		9999	11910	0	0	0
2019/08/03 14:06:00	BASE	12.58	105	15.38	119	-1.5	75	-5.3	22	0	982.7	NA	0.0000		9999	11940	0	0	0
2019/08/03 14:07:00	BASE	12.16	105	15.38	119	-1.6	75	-5.4	22	0	982.6	NA	0.0000		9999	12040	0	0	0
2019/08/03 14:08:00	BASE	12.26	104	15.38	119	-1.6	75	-5.5	22	0	982.6	NA	0.0000		9999	11980	0	0	0
2019/08/03 14:09:00	BASE	12.09	105	15.38	119	-1.7	75	-5.5	22	0	982.6	NA	0.0000		9999	11980	0	0	0
2019/08/03 14:10:00	BASE	12.01	102	15.38	119	-1.7	76	-5.5	23	0	982.6	NA	0.0000		9999	12040	0	0	0
2019/08/03 14:11:00	BASE	12.26	100	15.38	119	-1.8	76	-5.4	23	0	982.5	NA	0.0000		9999	12040	0	0	0
2019/08/03 14:12:00	BASE	12.55	103	15.38	119	-1.8	76	-5.4	23	0	982.4	NA	0.0000		9999	12010	0	0	0
2019/08/03 14:13:00	BASE	11.98	105	15.02	105	-1.7	76	-5.3	23	0	982.4	NA	0.0000		9999	12040	0	0	0
2019/08/03 14:14:00	BASE	11.06	101	14.71	102	-1.7	76	-5.3	23	0	982.4	NA	0.0000		9999	12010	0	0	0
2019/08/03 14:15:00	BASE	10.94	96	13.48	100	-1.6	76	-5.3	24	0	982.4	NA	0.0000		9999	11840	0	0	0
2019/08/03 14:16:00	BASE	10.92	94	13.48	100	-1.6	76	-5.3	24	0	982.4	NA	0.0000		9999	11750	0	0	0
2019/08/03 14:17:00	BASE	10.79	94	13.43	105	-1.6	76	-5.3	24	0	982.4	NA	0.0000		9999	11680	0	0	0
2019/08/03 14:18:00	BASE	10.48	93	13.43	105	-1.6	76	-5.3	25	0	982.4	NA	0.0000		9999	11610	0	0	0
2019/08/03 14:19:00	BASE	9.70	88	13.43	105	-1.5	75	-5.3	25	0	982.4	NA	0.0000		9999	11710	0	0	0
2019/08/03 14:20:00	BASE	8.50	89	13.43	105	-1.5	75	-5.3	25	0	982.4	NA	0.0000		9999	11750	0	0	0
2019/08/03 14:21:00	BASE	7.71	96	13.43	105	-1.4	74	-5.4	26	0	982.3	NA	0.0000		9999	11750	0	0	0
2019/08/03 14:22:00	BASE	7.64	97	11.99	107	-1.4	73	-5.5	26	0	982.3	NA	0.0000		9999	11750	0	0	0
2019/08/03 14:23:00	BASE	7.62	94	11.68	96	-1.5	73	-5.7	26	0	982.3	NA	0.0000		9999	11750	0	0	0
2019/08/03 14:24:00	BASE	7.68	95	11.68	96	-1.5	73	-5.7	27	0	982.3	NA	0.0000		9999	11750	0	0	0
2019/08/03 14:25:00	BASE	7.53	100	11.57	95	-1.6	73	-5.8	27	0	982.2	NA	0.0000		9999	11780	0	0	0
2019/08/03 14:26:00	BASE	7.34	105	11.57	95	-1.5	73	-5.8	27	0	982.2	NA	0.0000		9999	11780	0	0	0
2019/08/03 14:27:00	BASE	6.99	107	10.65	92	-1.5	73	-5.7	27	0	982.2	NA	0.0000		9999	11810	0	0	0
2019/08/03 14:28:00	BASE	7.16	107	9.88	83	-1.4	72	-5.7	27	0	982.2	NA	0.0000		9999	11840	0	0	0
2019/08/03 14:29:00	BASE	8.49	101	10.44	95	-1.2	72	-5.7	27	0	982.2	NA	0.0000		9999	11880	0	0	0
2019/08/03 14:30:00	BASE	10.61	94	13.68	93	-1.1	71	-5.8	27	0	982.2	NA	0.0000		9999	11840	0	0	0
2019/08/03 14:31:00	BASE	12.13	91	13.68	88	-0.9	69	-5.8	26	0	982.2	NA	0.0000		9999	11940	0	0	0
2019/08/03 14:32:00	BASE	11.65	88	13.68	88	-0.8	68	-6.0	26	0	982.2	NA	0.0000		9999	11980	0	0	0
2019/08/03 14:33:00	BASE	11.53	94	13.68	88	-0.6	66	-6.1	26	0	982.1	NA	0.0000		9999	12070	0	0	0
2019/08/03 14:34:00	BASE	11.91	103	15.07	107	-0.5	65	-6.3	26	0	982.1	NA	0.0000		9999	12210	0	0	0
2019/08/03 14:35:00	BASE	11.33	110	15.07	107	-0.3	63	-6.5	26	0	982.2	NA	0.0000		9999	12170	0	0	0
2019/08/03 14:36:00	BASE	11.15	106	15.07	107	-0.3	62	-6.6	26	0	982.2	NA	0.0000		9999	12140	0	0	0
2019/08/03 14:37:00	BASE	11.63	91	15.07	107	-0.3	62	-6.8	26	0	982.2	NA	0.0000		9999	12110	0	0	0
2019/08/03 14:38:00	BASE	12.22	88	15.07	107	-0.4	62	-6.8	26	0	982.0	NA	0.0000		9999	12140	0	0	0
2019/08/03 14:39:00	BASE	12.15	95	15.07	107	-0.5	62	-6.8	26	0	982.0	NA	0.0000		9999	12210	0	0	0
2019/08/03 14:40:00	BASE	10.95	104	15.07	107	-0.7	63	-6.8	27	0	982.0	NA	0.0000		9999	12210	0	0	0
2019/08/03 14:41:00	BASE	10.22	110	15.07	107	-0.7	64	-6.6	27	0	982.0	NA	0.0000		9999	12110	0	0	0
2019/08/03 14:42:00	BASE	10.92	117	15.07	107	-0.8	65	-6.5	27	0	982.0	NA	0.0000		9999	12110	0	0	0
2019/08/03 14:43:00	BASE	11.11	116	15.07	107	-0.7	65	-6.4	27	0	982.0	NA	0.0000		9999	11840	0	0	0
2019/08/03 14:44:00	BASE	9.99	110	14.25	94	-0.6	65	-6.3	28	0	982.1	NA	0.0000		9999	11840	0	0	0
2019/08/03 14:45:00	BASE	8.82	109	14.25	94	-0.6	65	-6.3	28	0	982.1	NA	0.0000		9999	11780	0	0	0
2019/08/03 14:46:00	BASE	9.20	112	14.25	94	-0.7	65	-6.4	28	0	982.1	NA	0.0000		9999	12430	0	0	0
2019/08/03 14:47:00	BASE	10.62	113	14.25	94	-0.7	66	-6.4	28	0	982.0	NA	0.0000		9999	0	0	0	0
2019/08/03 14:48:00	BASE	10.89	115	13.58	90	-0.7	66	-6.3	28	0	982.0	NA	0.0000		9999	0	0	0	0
2019/08/03 14:49:00	BASE	12.03	114	15.33	116	-0.7	66	-6.3	28	0	981.9	NA	0.0000		9999	0	0	0	0
2019/08/03 14:50:00	BASE	10.52	120	15.33	116	-0.7	66	-6.3	28	0	982.0	NA	0.0000		9999	0	0	0	0
2019/08/03 14:51:00	BASE	7.98	126	15.33	116	-0.6	66	-6.3	27	0	982.0	NA	0.0000		9999	0	0	0	0
2019/08/03 14:52:00	BASE	8.44	125	15.33	116	-0.6	65	-6.3	27	0	982.0	NA	0.0000		9999	12010	0	0	0
2019/08/03 14:53:00	BASE	8.02	127	15.33	116	-0.6	65	-6.3	27	0	982.0	NA	0.0000		9999	12110	0	0	0
2019/08/03 14:54:00	BASE	7.76	131	15.33	116	-0.6	65	-6.3	26	0	982.0	NA	0.0000		9999	12010	0	0	0
2019/08/03 14:55:00	BASE	8.93	134	15.33	116	-0.7	66	-6.3	26	0	982.0	NA	0.0000		9999	12040	0	0	0
2019/08/03 14:56:00	BASE	8.83	135	15.33	116	-0.8	67	-6.1	25	0	982.0	NA	0.0000		9999	12430	0	0	0
2019/08/03 14:57:00	BASE	6.65	136	15.33	116	-0.8	68	-6.1	25	0	982.0	NA	0.0000		9999	0	0	0	0
2019/08/03 14:58:00	BASE	6.79	124	15.33	116	-0.8	68	-6.0	25	0	981.9	NA	0.0000		9999	12140	0	0	0
2019/08/03 14:59:00	BASE	11.04	94	18.21	95	-0.9	69	-5.9	24	0	981.7	NA	0.0000		9999	12010	0	0	0
2019/08/03 15:00:00	BASE	15.62	83	19.50	84	-0.9	69	-5.9	24	0	981.6	NA	0.0000	SQ	9999	12140	0	0	0
2019/08/03 15:01:00	BASE	17.28	81	20.37	78	-0.9	69	-5.9	24	0	981.5	NA	0.0000	SQ	9999	0	0	0	0
2019/08/03 15:02:00	BASE	16.87	82	20.37	78	-0.9	69	-5.9	24	0	981.5	NA	0.0000		9999	10700	0	0	0
2019/08/03 15:03:00	BASE	17.35	85	20.37	78	-1.0	69	-5.9	24	0	981.4	NA	0.0000		9999	0	0	0	0
2019/08/03 15:04:00	BASE	16.95	83	20.37	78	-1.0	70	-5.9	24	0	981.5	NA	0.0000		9999	10170	0	0	0
2019/08/03 15:05:00	BASE	15.77	82	20.37	78	-1.1	70	-5.8	24	0	981.3	NA	0.0000		9999	10600	0	0	0
2019/08/03 15:06:00	BASE	17.30	78	21.14	73	-1.1	71	-5.7	24	0	981.2	NA	0.0000		9999	10300	0	0	0
2019/08/03 15:07:00	BASE	17.93	80	21.14	73	-1.0	71	-5.6	24	0	981.3	NA	0.0000		9999	0	0	0	0
2019/08/03 15:08:00	BASE	17.43	86	21.14	73	-0.9	71	-5.6	24	0	981.3	NA	0.0000		9999	10300	0	0	0
2019/08/03 15:09:00	BASE	17.55	92	21.14	73	-0.9	70	-5.6	24	0	981.4	NA	0.0000		9999	10300	0	0	0
2019/08/03 15:10:00	BASE	17.05	99	21.14	73	-0.8	70	-5.6	24	0	981.4	NA	0.0000		9999	9510	0	0	0
2019/08/03 15:11:00	BASE	16.91	94	21.14	73	-0.9	70	-5.7	25	0	981.2	NA	0.0000		9999	9250	0	0	0
2019/08/03 15:12:00	BASE	17.65	84	21.14	73	-1.0	70	-5.7	26	0	981.1	NA	0.0000		9999	10040	0	0	0
2019/08/03 15:13:00	BASE	18.39	78	21.86	71	-1.0	71	-5.6	26	0	981.0	NA	0.0000		9999	10560	0	0	0
2019/08/03 15:14:00	BASE	18.48	74	23.20	65	-0.9	71	-5.5	27	0	981.0	NA	0.0000		9999	10830	0	0	0
2019/08/03 15:15:00	BASE	18.96	75	23.20	65	-0.8	70	-5.6	28	0	981.0	NA	0.0000		9999	10560	0	0	0
2019/08/03 15:16:00	BASE	19.53	79	23.20	65	-0.8	70	-5.6	29	0	981.0	NA	0.0000		9999	11020	0	0	0
2019/08/03 15:17:00	BASE	18.22	80	23.20	65	-0.7	70	-5.6	29	0	981.1	NA	0.0000		9999	11220	0	0	0
2019/08/03 15:18:00	BASE	18.81	77	24.74	77	-0.8	69	-5.7	30	0	981.0	NA	0.0000		9999	12530	0	0	0
2019/08/03 15:19:00	BASE	22.34	72	27.01	67	-0.8	70	-5.7	30	0	980.8	NA	0.0000		9999	11610	0	0	0
2019/08/03 15:20:00	BASE	22.48	72	27.01	67	-0.9	70	-5.6	30	0	980.9	NA	0.0000		9999	12110	0	0	0
2019/08/03 15:21:00	BASE	21.08	75	27.01	67	-1.0	71	-5.6	31	0	980.9	NA	0.0000		9999	11350	0	0	0
2019/08/03 15:22:00	BASE	20.74	76	27.01	67	-1.0	72	-5.5	31	0	980.9	NA	0.0000		9999	11650	0	0	0
2019/08/03 15:23:00	BASE	19.41	74	27.01	67	-1.1	72	-5.5	31	0	980.9	NA	0.0000		9999	11290	0	0	0
2019/08/03 15:24:00	BASE	19.29	75	27.01	67	-1.1	72	-5.5	31	0	980.9	NA	0.0000		9999	12010	0	0	0
2019/08/03 15:25:00	BASE	20.77	74	27.01	67	-1.1	73	-5.4	31	0	980.8	NA	0.0000		9999	11390	0	0	0
2019/08/03 15:26:00	BASE	21.54	76	27.01	67	-1.0	73	-5.3	31	0	980.8	NA	0.0000		9999	11120	0	0	0
2019/08/03 15:27:00	BASE	21.12	78	27.01	67	-1.0	72	-5.3	31	0	980.8	NA	0.0000		9999	11390	0	0	0
2019/08/03 15:28:00	BASE	20.85	78	27.01	67	-0.9	72	-5.3	31	0	980.8	NA	0.0000		9999	11880	0	0	0
2019/08/03 15:29:00	BASE	21.80	76	24.18	76	-0.9	72	-5.4	31	0	980.7	NA	0.0000		9999	11780	0	0	0
2019/08/03 15:30:00	BASE	21.94	74	24.18	76	-0.9	71	-5.4	31	0	980.8	NA	0.0000		9999	11940	0	0	0
2019/08/03 15:31:00	BASE	21.12	74	24.18	76	-0.9	71	-5.5	32	0	980.7	NA	0.0000		9999	11780	0	0	0
2019/08/03 15:32:00	BASE	20.55	75	24.18	76	-0.8	71	-5.4	32	0	980.7	NA	0.0000		9999	11840	0	0	0
2019/08/03 15:33:00	BASE	19.34	77	24.18	76	-0.7	71	-5.4	32	0	980.9	NA	0.0000		9999	12140	0	0	0
2019/08/03 15:34:00	BASE	17.21	77	24.18	76	-0.7	70	-5.5	32	0	980.9	NA	0.0000		9999	0	0	0	0
2019/08/03 15:35:00	BASE	16.99	80	24.18	76	-0.7	70	-5.5	32	0	980.9	NA	0.0000		9999	11420	0	0	0
2019/08/03 15:36:00	BASE	18.37	82	24.18	76	-0.7	69	-5.6	32	0	980.7	NA	0.0000		9999	12340	0	0	0
2019/08/03 15:37:00	BASE	18.99	84	24.18	76	-0.8	69	-5.7	32	0	980.7	NA	0.0000		9000	11680	0	0	0
2019/08/03 15:38:00	BASE	18.79	87	24.18	76	-0.9	70	-5.6	32	0	980.7	NA	0.0000		9000	11650	0	0	0
2019/08/03 15:39:00	BASE	19.24	89	23.87	66	-1.0	71	-5.6	32	0	980.6	NA	0.0000		9999	0	0	0	0
2019/08/03 15:40:00	BASE	18.70	96	23.87	66	-1.0	72	-5.5	32	0	980.7	NA	0.0000		9999	0	0	0	0
2019/08/03 15:41:00	BASE	17.12	106	22.69	73	-1.1	72	-5.5	32	0	980.8	NA	0.0000		9999	0	0	0	0
2019/08/03 15:42:00	BASE	16.34	117	22.07	94	-1.2	73	-5.4	33	0	980.8	NA	0.0000		9999	0	0	0	0
2019/08/03 15:43:00	BASE	14.71	121	22.07	94	-1.2	73	-5.4	33	0	980.8	NA	0.0000		9999	0	0	0	0
2019/08/03 15:44:00	BASE	13.32	118	22.07	94	-1.3	74	-5.3	33	0	980.8	NA	0.0000		9999	10170	0	0	0
2019/08/03 15:45:00	BASE	14.02	108	22.07	94	-1.3	74	-5.3	34	0	980.7	NA	0.0000		9999	10530	0	0	0
2019/08/03 15:46:00	BASE	16.01	104	22.07	94	-1.3	75	-5.2	34	0	980.6	NA	0.0000		9999	0	0	0	0
2019/08/03 15:47:00	BASE	17.30	105	22.07	94	-1.2	75	-5.2	35	0	980.6	NA	0.0000		9999	0	0	0	0
2019/08/03 15:48:00	BASE	16.08	105	22.07	94	-1.2	75	-5.1	35	0	980.6	NA	0.0000		9999	0	0	0	0
2019/08/03 15:49:00	BASE	15.45	107	20.17	105	-1.2	74	-5.2	36	0	980.6	NA	0.0000		9999	0	0	0	0
2019/08/03 15:50:00	BASE	17.42	95	22.17	75	-1.2	74	-5.1	37	0	980.4	NA	0.0000		9000	0	0	0	0
2019/08/03 15:51:00	BASE	19.13	86	22.17	93	-1.1	74	-5.1	37	0	980.3	NA	0.0000		9000	0	0	0	0
2019/08/03 15:52:00	BASE	22.07	84	27.37	75	-1.1	74	-5.1	37	0	980.2	NA	0.0000		6000	12240	0	0	0
2019/08/03 15:53:00	BASE	23.01	84	27.37	75	-1.1	74	-5.1	37	0	980.2	NA	0.0000	UP	5000	12210	0	0	0
2019/08/03 15:54:00	BASE	21.20	86	27.37	75	-1.1	74	-5.0	38	0	980.1	NA	0.0000	UP	8000	12070	0	0	0
2019/08/03 15:55:00	BASE	20.58	86	27.37	75	-1.0	74	-5.0	38	0	980.1	NA	0.0000	UP	9999	11450	0	0	0
2019/08/03 15:56:00	BASE	20.09	86	27.37	75	-1.0	74	-5.1	38	0	980.1	NA	0.0000	UP	9999	11880	0	0	0
2019/08/03 15:57:00	BASE	18.83	85	27.37	75	-1.0	74	-5.1	38	0	980.2	NA	0.0000	UP	9999	12240	0	0	0
2019/08/03 15:58:00	BASE	18.65	86	27.37	75	-1.0	74	-5.1	38	0	980.1	NA	0.0000	UP	9999	0	0	0	0
2019/08/03 15:59:00	BASE	20.79	82	27.37	75	-0.9	73	-5.1	38	0	980.0	NA	0.0000	UP	9999	0	0	0	0
2019/08/03 16:00:00	BASE	21.07	78	27.37	75	-0.8	73	-5.1	38	0	980.0	NA	0.0000	UP	9999	12430	0	0	0
2019/08/03 16:01:00	BASE	20.31	80	27.37	75	-0.8	72	-5.2	38	0	979.9	NA	0.0000	UP	9999	13060	0	0	0
2019/08/03 16:02:00	BASE	21.15	83	25.77	87	-0.8	72	-5.3	38	0	979.9	NA	0.0000	HZ	9999	0	0	0	0
2019/08/03 16:03:00	BASE	22.28	84	25.21	75	-0.8	71	-5.3	38	0	979.8	NA	0.0000		9999	12990	0	0	0
2019/08/03 16:04:00	BASE	22.83	80	25.21	75	-0.8	71	-5.4	37	0	979.8	NA	0.0000		9000	0	0	0	0
2019/08/03 16:05:00	BASE	23.30	77	25.41	74	-0.8	71	-5.3	37	0	979.8	NA	0.0000		9000	0	0	0	0
2019/08/03 16:06:00	BASE	23.46	78	25.41	74	-0.8	71	-5.3	37	0	979.8	NA	0.0000		9999	12270	0	0	0
2019/08/03 16:07:00	BASE	23.91	81	28.65	85	-0.8	71	-5.3	37	0	979.8	NA	0.0000		9999	0	0	0	0
2019/08/03 16:08:00	BASE	24.85	84	28.65	85	-0.8	71	-5.3	36	0	979.8	NA	0.0000		9999	12890	0	0	0
2019/08/03 16:09:00	BASE	22.57	84	28.65	85	-0.8	71	-5.3	36	0	979.8	NA	0.0000		9999	12470	0	0	0
2019/08/03 16:10:00	BASE	18.71	88	28.65	85	-0.8	71	-5.4	36	0	979.9	NA	0.0000		9999	12240	0	0	0
2019/08/03 16:11:00	BASE	18.17	93	28.65	85	-0.9	72	-5.4	36	0	979.8	NA	0.0000		9999	12170	0	0	0
2019/08/03 16:12:00	BASE	18.62	92	28.65	85	-1.0	72	-5.3	35	0	979.9	NA	0.0000		9999	12370	0	0	0
2019/08/03 16:13:00	BASE	19.20	96	28.65	85	-1.0	73	-5.3	35	0	979.9	NA	0.0000		9999	0	0	0	0
2019/08/03 16:14:00	BASE	19.36	109	28.65	85	-1.1	73	-5.2	35	0	979.9	NA	0.0000		9999	0	0	0	0
2019/08/03 16:15:00	BASE	18.39	114	28.65	85	-1.1	74	-5.1	35	0	979.9	NA	0.0000		9999	0	0	0	0
2019/08/03 16:16:00	BASE	18.22	109	28.65	85	-1.0	74	-5.1	35	0	979.9	NA	0.0000		9999	0	0	0	0
2019/08/03 16:17:00	BASE	17.18	112	27.78	82	-1.1	74	-5.1	35	0	979.9	NA	0.0000		9999	0	0	0	0
2019/08/03 16:18:00	BASE	15.83	111	23.20	80	-1.1	74	-5.1	35	0	979.9	NA	0.0000		9999	0	0	0	0
2019/08/03 16:19:00	BASE	17.00	102	22.94	93	-1.1	74	-5.1	34	0	979.8	NA	0.0000		9999	0	0	0	0
2019/08/03 16:20:00	BASE	18.33	103	22.94	93	-1.1	75	-5.0	34	0	979.8	NA	0.0000		9999	11250	0	0	0
2019/08/03 16:21:00	BASE	17.36	109	22.94	93	-1.0	75	-5.0	34	0	979.8	NA	0.0000		9999	10140	0	0	0
2019/08/03 16:22:00	BASE	17.04	109	22.94	93	-1.0	74	-5.0	33	0	979.8	NA	0.0000		9999	0	0	0	0
2019/08/03 16:23:00	BASE	17.36	109	22.17	115	-0.9	74	-5.0	33	0	979.8	NA	0.0000		9999	0	0	0	0
2019/08/03 16:24:00	BASE	19.46	109	23.10	107	-0.9	73	-5.0	32	0	979.8	NA	0.0000		9999	0	0	0	0
2019/08/03 16:25:00	BASE	18.72	111	23.10	107	-0.9	73	-5.1	32	0	979.9	NA	0.0000		9999	0	0	0	0
2019/08/03 16:26:00	BASE	14.82	116	23.10	107	-0.8	73	-5.2	32	0	980.0	NA	0.0000		9999	0	0	0	0
2019/08/03 16:27:00	BASE	12.57	117	23.10	107	-0.9	73	-5.2	32	0	980.0	NA	0.0000		9999	0	0	0	0
2019/08/03 16:28:00	BASE	11.13	108	23.10	107	-0.9	73	-5.2	32	0	979.9	NA	0.0000		9999	10340	0	0	0
2019/08/03 16:29:00	BASE	14.02	97	23.10	107	-0.9	73	-5.2	32	0	979.8	NA	0.0000		9999	9680	0	0	0
2019/08/03 16:30:00	BASE	16.51	92	23.10	107	-1.0	73	-5.2	32	0	979.7	NA	0.0000		9999	10140	0	0	0
2019/08/03 16:31:00	BASE	15.86	93	23.10	107	-1.0	73	-5.2	32	0	979.7	NA	0.0000		9999	10240	0	0	0
2019/08/03 16:32:00	BASE	16.19	96	23.10	107	-1.0	73	-5.2	32	0	979.6	NA	0.0000		9999	9910	0	0	0
2019/08/03 16:33:00	BASE	16.47	96	23.10	107	-1.0	73	-5.2	32	0	979.6	NA	0.0000		9999	9910	0	0	0
2019/08/03 16:34:00	BASE	16.04	100	21.50	108	-1.1	73	-5.2	31	0	979.5	NA	0.0000		9999	10010	0	0	0
2019/08/03 16:35:00	BASE	15.72	98	21.35	86	-1.1	74	-5.2	31	0	979.5	NA	0.0000		9999	9450	0	0	0
2019/08/03 16:36:00	BASE	16.05	93	21.35	86	-1.1	74	-5.2	31	0	979.4	NA	0.0000		9999	9880	0	0	0
2019/08/03 16:37:00	BASE	17.75	92	21.35	86	-1.1	74	-5.1	31	0	979.3	NA	0.0000		9999	9880	0	0	0
2019/08/03 16:38:00	BASE	19.59	93	23.00	82	-1.0	74	-5.0	31	0	979.3	NA	0.0000		9999	9940	0	0	0
2019/08/03 16:39:00	BASE	20.03	90	23.00	82	-0.9	74	-5.0	31	0	979.2	NA	0.0000		9999	9780	0	0	0
2019/08/03 16:40:00	BASE	21.08	88	23.97	79	-0.9	73	-5.1	31	0	979.1	NA	0.0000		9999	10300	0	0	0
2019/08/03 16:41:00	BASE	20.73	89	24.33	94	-0.8	73	-5.1	31	0	979.1	NA	0.0000		9999	10300	0	0	0
2019/08/03 16:42:00	BASE	20.25	87	24.33	94	-0.8	72	-5.2	31	0	979.1	NA	0.0000		9999	10600	0	0	0
2019/08/03 16:43:00	BASE	18.71	86	24.33	94	-0.8	72	-5.2	31	0	979.0	NA	0.0000		9999	10170	0	0	0
2019/08/03 16:44:00	BASE	16.58	88	24.33	94	-0.8	72	-5.2	31	0	979.0	NA	0.0000		9999	10430	0	0	0
2019/08/03 16:45:00	BASE	16.91	82	24.33	94	-0.8	72	-5.2	31	0	979.0	NA	0.0000		9999	10430	0	0	0
2019/08/03 16:46:00	BASE	17.01	78	24.33	94	-0.8	72	-5.3	31	0	978.9	NA	0.0000		9999	10530	0	0	0
2019/08/03 16:47:00	BASE	18.41	77	24.33	94	-0.8	71	-5.3	31	0	978.8	NA	0.0000		9999	10300	0	0	0
2019/08/03 16:48:00	BASE	19.21	83	24.33	94	-0.7	71	-5.3	31	0	978.8	NA	0.0000		9999	10240	0	0	0
2019/08/03 16:49:00	BASE	20.61	86	26.70	83	-0.6	70	-5.4	31	0	978.6	NA	0.0000		9999	10600	0	0	0
2019/08/03 16:50:00	BASE	22.30	80	26.70	83	-0.6	70	-5.4	31	0	978.6	NA	0.0000		9999	10400	0	0	0
2019/08/03 16:51:00	BASE	22.11	75	26.70	83	-0.5	69	-5.5	31	0	978.5	NA	0.0000		9999	12470	0	0	0
2019/08/03 16:52:00	BASE	21.17	79	26.70	83	-0.5	68	-5.6	31	0	978.5	NA	0.0000		9999	13190	0	0	0
2019/08/03 16:53:00	BASE	20.29	84	26.70	83	-0.5	68	-5.6	31	0	978.4	NA	0.0000		9999	12800	0	0	0
2019/08/03 16:54:00	BASE	20.79	79	26.70	83	-0.5	69	-5.6	31	0	978.4	NA	0.0000		9999	10860	0	0	0
2019/08/03 16:55:00	BASE	21.70	75	26.70	83	-0.6	69	-5.6	32	0	978.4	NA	0.0000		9999	11520	0	0	0
2019/08/03 16:56:00	BASE	22.69	76	26.70	83	-0.6	69	-5.6	32	0	978.4	NA	0.0000		9999	0	0	0	0
2019/08/03 16:57:00	BASE	22.46	81	26.70	83	-0.7	70	-5.5	32	0	978.4	NA	0.0000		9999	12930	0	0	0
2019/08/03 16:58:00	BASE	21.90	81	26.70	83	-0.7	70	-5.5	33	0	978.4	NA	0.0000		9999	12630	0	0	0
2019/08/03 16:59:00	BASE	22.70	82	27.21	84	-0.7	70	-5.5	33	0	978.4	NA	0.0000		9999	12730	0	0	0
2019/08/03 17:00:00	BASE	22.78	85	27.21	84	-0.7	70	-5.6	33	0	978.3	NA	0.0000		9999	13030	0	0	0
2019/08/03 17:01:00	BASE	22.51	89	27.21	84	-0.8	70	-5.6	34	0	978.3	NA	0.0000		9999	11750	0	0	0
2019/08/03 17:02:00	BASE	22.24	93	27.21	84	-0.9	71	-5.6	34	0	978.2	NA	0.0000		9999	13190	0	0	0
2019/08/03 17:03:00	BASE	21.52	91	27.21	84	-1.0	71	-5.5	34	0	978.2	NA	0.0000		9999	13390	0	0	0
2019/08/03 17:04:00	BASE	19.90	88	27.21	84	-1.1	72	-5.5	35	0	978.2	NA	0.0000		9999	12860	0	0	0
2019/08/03 17:05:00	BASE	17.23	89	27.21	84	-1.3	74	-5.4	34	0	978.2	NA	0.0000		9999	12630	0	0	0
2019/08/03 17:06:00	BASE	19.92	92	28.96	97	-1.4	75	-5.2	34	0	977.9	NA	0.0000		9999	12930	0	0	0
2019/08/03 17:07:00	BASE	25.90	96	32.10	101	-1.4	76	-5.1	34	0	977.8	NA	0.0000	SQ	9999	13350	0	0	0
2019/08/03 17:08:00	BASE	24.98	97	32.10	101	-1.4	77	-5.0	33	0	978.0	NA	0.0000	SQ	9000	13320	0	0	0
2019/08/03 17:09:00	BASE	21.25	95	32.10	101	-1.5	77	-4.9	33	0	977.9	NA	0.0000		9999	12600	0	0	0
2019/08/03 17:10:00	BASE	21.18	94	32.10	101	-1.5	78	-4.8	32	0	977.9	NA	0.0000		9999	12140	0	0	0
2019/08/03 17:11:00	BASE	24.30	96	32.10	101	-1.5	78	-4.8	31	0	977.7	NA	0.0000		9999	12040	0	0	0
2019/08/03 17:12:00	BASE	26.10	97	32.10	101	-1.5	78	-4.7	31	0	977.6	NA	0.0000		9999	13190	0	0	0
2019/08/03 17:13:00	BASE	26.21	95	32.10	101	-1.5	79	-4.7	30	0	977.6	NA	0.0000		9000	12830	0	0	0
2019/08/03 17:14:00	BASE	27.57	94	32.10	101	-1.5	79	-4.7	29	0	977.5	NA	0.0000	HZ	8000	12140	0	0	0
2019/08/03 17:15:00	BASE	27.00	95	32.10	101	-1.5	80	-4.6	29	0	977.5	NA	0.0000	UP	8000	12210	0	0	0
2019/08/03 17:16:00	BASE	25.99	96	32.10	101	-1.5	80	-4.5	28	0	977.6	NA	0.0000	UP	9000	13320	0	0	0
2019/08/03 17:17:00	BASE	25.55	94	30.66	85	-1.5	80	-4.5	28	0	977.7	NA	0.0000	UP	9000	12800	0	0	0
2019/08/03 17:18:00	BASE	25.79	89	30.66	85	-1.6	81	-4.5	28	0	977.6	NA	0.0000	UP	9000	13350	0	0	0
2019/08/03 17:19:00	BASE	27.09	90	31.90	99	-1.6	81	-4.4	27	0	977.5	NA	0.0000	UP	8000	13450	0	0	0
2019/08/03 17:20:00	BASE	27.06	94	31.90	99	-1.6	81	-4.4	27	0	977.5	NA	0.0000	UP	8000	13060	0	0	0
2019/08/03 17:21:00	BASE	25.15	98	31.90	99	-1.6	81	-4.4	27	0	977.5	NA	0.0000	UP	8000	12430	0	0	0
2019/08/03 17:22:00	BASE	24.89	99	31.90	99	-1.7	82	-4.4	26	0	977.4	NA	0.0000	UP	9999	12730	0	0	0
2019/08/03 17:23:00	BASE	25.49	94	31.90	99	-1.7	82	-4.4	26	0	977.4	NA	0.0000	UP	9000	13620	0	0	0
2019/08/03 17:24:00	BASE	24.85	91	31.90	99	-1.7	82	-4.3	25	0	977.4	NA	0.0000	UP	9000	13620	0	0	0
2019/08/03 17:25:00	BASE	25.52	92	31.90	99	-1.6	82	-4.3	25	0	977.3	NA	0.0000	UP	9999	13880	0	0	0
2019/08/03 17:26:00	BASE	24.46	94	31.90	99	-1.6	83	-4.2	25	0	977.4	NA	0.0000	UP	9999	12960	0	0	0
2019/08/03 17:27:00	BASE	21.62	95	31.90	99	-1.6	83	-4.1	24	0	977.5	NA	0.0000	UP	9999	13320	0	0	0
2019/08/03 17:28:00	BASE	24.13	94	31.90	99	-1.6	83	-4.1	24	0	977.3	NA	0.0000	UP	9999	13650	0	0	0
2019/08/03 17:29:00	BASE	26.62	93	30.56	83	-1.6	83	-4.1	23	0	977.3	NA	0.0000	HZ	9999	13710	0	0	0
2019/08/03 17:30:00	BASE	25.42	95	30.56	83	-1.6	83	-4.1	23	0	977.4	NA	0.0000		9999	11680	0	0	0
2019/08/03 17:31:00	BASE	24.08	102	30.56	83	-1.6	83	-4.1	22	0	977.5	NA	0.0000		9999	12170	0	0	0
2019/08/03 17:32:00	BASE	21.93	105	30.56	83	-1.6	83	-4.1	22	0	977.5	NA	0.0000		9999	13060	0	0	0
2019/08/03 17:33:00	BASE	21.54	105	30.56	83	-1.6	83	-4.0	21	0	977.4	NA	0.0000		9999	12240	0	0	0
2019/08/03 17:34:00	BASE	22.61	106	29.73	92	-1.6	84	-4.0	21	0	977.3	NA	0.0000		9999	13030	0	0	0
2019/08/03 17:35:00	BASE	23.36	106	29.73	92	-1.6	84	-3.9	20	0	977.4	NA	0.0000		9999	12930	0	0	0
2019/08/03 17:36:00	BASE	23.91	112	29.73	92	-1.5	84	-3.9	20	0	977.3	NA	0.0000		9999	12830	0	0	0
2019/08/03 17:37:00	BASE	23.46	113	29.73	92	-1.5	84	-3.9	20	0	977.3	NA	0.0000		9999	12760	0	0	0
2019/08/03 17:38:00	BASE	25.54	112	30.71	113	-1.5	84	-3.9	19	0	977.1	NA	0.0000		9000	12660	0	0	0
2019/08/03 17:39:00	BASE	28.40	114	31.33	109	-1.5	84	-3.9	19	0	977.1	NA	0.0000		9000	12760	0	0	0
2019/08/03 17:40:00	BASE	26.63	112	31.33	109	-1.5	84	-3.9	19	0	977.3	NA	0.0000	HZ	8000	12800	0	0	0
2019/08/03 17:41:00	BASE	24.91	111	31.33	109	-1.6	84	-3.9	18	0	977.3	NA	0.0000	HZ	8000	12800	0	0	0
2019/08/03 17:42:00	BASE	25.35	111	31.33	109	-1.6	84	-3.9	18	0	977.3	NA	0.0000	HZ	9999	12860	0	0	0
2019/08/03 17:43:00	BASE	25.32	109	31.33	109	-1.6	84	-3.9	18	0	977.3	NA	0.0000	HZ	9999	12800	0	0	0
2019/08/03 17:44:00	BASE	22.99	110	31.33	109	-1.6	84	-3.9	18	0	977.3	NA	0.0000	HZ	9999	12630	0	0	0
2019/08/03 17:45:00	BASE	21.92	116	31.33	109	-1.6	84	-3.8	18	0	977.2	NA	0.0000	HZ	9999	12660	0	0	0
2019/08/03 17:46:00	BASE	22.67	116	31.33	109	-1.5	84	-3.8	18	0	977.3	NA	0.0000	HZ	9000	12500	0	0	0
2019/08/03 17:47:00	BASE	23.31	114	31.33	109	-1.5	85	-3.8	18	0	977.2	NA	0.0000	HZ	9999	12570	0	0	0
2019/08/03 17:48:00	BASE	24.60	115	31.33	109	-1.5	85	-3.8	18	0	977.2	NA	0.0000	HZ	9999	12530	0	0	0
2019/08/03 17:49:00	BASE	24.70	116	28.29	102	-1.5	85	-3.7	18	0	977.2	NA	0.0000	HZ	9999	12530	0	0	0
2019/08/03 17:50:00	BASE	23.21	118	28.29	102	-1.5	85	-3.8	18	0	977.2	NA	0.0000	HZ	9999	12300	0	0	0
2019/08/03 17:51:00	BASE	22.57	122	28.29	102	-1.5	85	-3.8	18	0	977.0	NA	0.0000	HZ	9999	12210	0	0	0
2019/08/03 17:52:00	BASE	22.28	123	28.29	102	-1.5	84	-3.8	18	0	977.1	NA	0.0000	HZ	9999	12240	0	0	0
2019/08/03 17:53:00	BASE	21.38	120	26.91	121	-1.5	84	-3.8	18	0	977.2	NA	0.0000	HZ	9999	12240	0	0	0
2019/08/03 17:54:00	BASE	21.80	113	26.91	121	-1.5	84	-3.9	18	0	977.2	NA	0.0000	HZ	9999	12170	0	0	0
2019/08/03 17:55:00	BASE	22.72	106	26.91	121	-1.5	84	-3.8	18	0	977.2	NA	0.0000		9999	12140	0	0	0
2019/08/03 17:56:00	BASE	21.66	104	26.91	121	-1.5	84	-3.8	18	0	977.2	NA	0.0000		9999	12070	0	0	0
2019/08/03 17:57:00	BASE	20.49	107	26.91	121	-1.5	84	-3.8	18	0	977.2	NA	0.0000		9999	12040	0	0	0
2019/08/03 17:58:00	BASE	21.63	111	26.49	119	-1.5	84	-3.8	18	0	977.1	NA	0.0000		9999	12340	0	0	0
2019/08/03 17:59:00	BASE	22.20	114	25.10	109	-1.5	84	-3.8	18	0	977.1	NA	0.0000		9999	12210	0	0	0
2019/08/03 18:00:00	BASE	20.86	110	25.10	109	-1.5	84	-3.8	18	0	977.1	NA	0.0000		9000	12240	0	0	0
2019/08/03 18:01:00	BASE	18.55	104	25.10	109	-1.4	84	-3.9	19	0	977.2	NA	0.0000		9999	12300	0	0	0
2019/08/03 18:02:00	BASE	17.64	101	25.10	109	-1.4	83	-3.9	19	0	977.0	NA	0.0000		9000	12300	0	0	0
2019/08/03 18:03:00	BASE	20.19	102	25.10	109	-1.4	83	-3.9	19	0	976.9	NA	0.0000		9000	12210	0	0	0
2019/08/03 18:04:00	BASE	23.00	104	25.93	104	-1.4	83	-3.9	19	0	976.8	NA	0.0000		9999	12210	0	0	0
2019/08/03 18:05:00	BASE	24.17	103	28.04	102	-1.4	83	-3.9	20	0	976.7	NA	0.0000	HZ	9999	12270	0	0	0
2019/08/03 18:06:00	BASE	23.98	105	28.04	102	-1.3	82	-3.9	20	0	976.7	NA	0.0000	HZ	9999	12270	0	0	0
2019/08/03 18:07:00	BASE	24.79	107	28.91	101	-1.2	82	-3.9	21	0	976.6	NA	0.0000	HZ	9999	12240	0	0	0
2019/08/03 18:08:00	BASE	27.42	105	29.37	102	-1.1	81	-3.9	21	0	976.6	NA	0.0000	HZ	9999	12170	0	0	0
2019/08/03 18:09:00	BASE	27.26	108	29.37	102	-1.0	80	-4.0	21	0	976.5	NA	0.0000		9999	12240	0	0	0
2019/08/03 18:10:00	BASE	26.70	110	29.84	104	-0.9	79	-4.1	21	0	976.5	NA	0.0000		9999	12140	0	0	0
2019/08/03 18:11:00	BASE	24.80	110	29.84	104	-0.9	78	-4.2	21	0	976.6	NA	0.0000		9999	12010	0	0	0
2019/08/03 18:12:00	BASE	21.30	111	29.84	104	-0.8	77	-4.3	21	0	976.6	NA	0.0000		9999	12210	0	0	0
2019/08/03 18:13:00	BASE	19.89	113	29.84	104	-0.8	76	-4.5	20	0	976.6	NA	0.0000		9000	7350	12110	0	0
2019/08/03 18:14:00	BASE	20.58	114	29.84	104	-0.8	76	-4.6	20	0	976.4	NA	0.0000		9000	12070	0	0	0
2019/08/03 18:15:00	BASE	21.87	113	29.84	104	-0.9	75	-4.7	19	0	976.4	NA	0.0000		9000	12010	0	0	0
2019/08/03 18:16:00	BASE	21.74	114	29.84	104	-0.9	75	-4.7	19	0	976.3	NA	0.0000		9999	12040	0	0	0
2019/08/03 18:17:00	BASE	21.38	113	29.84	104	-0.8	75	-4.7	19	0	976.3	NA	0.0000		9999	12040	0	0	0
2019/08/03 18:18:00	BASE	21.92	110	29.84	104	-0.8	75	-4.7	19	0	976.2	NA	0.0000		9000	12070	0	0	0
2019/08/03 18:19:00	BASE	20.92	109	29.84	104	-0.8	74	-4.8	18	0	976.2	NA	0.0000	HZ	9000	11980	0	0	0
2019/08/03 18:20:00	BASE	21.83	109	29.37	103	-0.8	74	-4.8	18	0	976.1	NA	0.0000	HZ	9999	12010	0	0	0
2019/08/03 18:21:00	BASE	24.47	110	29.37	103	-0.7	74	-4.8	18	0	976.1	NA	0.0000	HZ	9999	12010	0	0	0
2019/08/03 18:22:00	BASE	25.20	108	29.89	105	-0.7	74	-4.9	18	0	975.9	NA	0.0000	HZ	9999	12010	0	0	0
2019/08/03 18:23:00	BASE	26.75	110	31.28	119	-0.7	73	-4.9	18	0	975.8	NA	0.0000	HZ	9999	11910	0	0	0
2019/08/03 18:24:00	BASE	25.41	112	31.28	119	-0.7	73	-4.9	18	0	975.9	NA	0.0000	HZ	9999	11840	0	0	0
2019/08/03 18:25:00	BASE	22.53	108	31.28	119	-0.7	73	-4.9	18	0	975.9	NA	0.0000	HZ	9999	12170	0	0	0
2019/08/03 18:26:00	BASE	22.13	105	31.28	119	-0.7	73	-4.9	17	0	975.8	NA	0.0000	HZ	9999	11710	0	0	0
2019/08/03 18:27:00	BASE	21.72	107	31.28	119	-0.7	73	-4.9	17	0	975.8	NA	0.0000	HZ	9999	11810	0	0	0
2019/08/03 18:28:00	BASE	19.43	109	31.28	119	-0.7	73	-4.9	17	0	975.8	NA	0.0000		9999	12110	0	0	0
2019/08/03 18:29:00	BASE	17.52	109	31.28	119	-0.8	73	-4.9	17	0	975.8	NA	0.0000		9999	12110	0	0	0
2019/08/03 18:30:00	BASE	18.35	112	31.28	119	-0.8	74	-4.9	17	0	975.8	NA	0.0000		9999	8140	12140	0	0
2019/08/03 18:31:00	BASE	18.81	113	31.28	119	-0.8	74	-4.8	17	0	975.7	NA	0.0000		9999	12070	0	0	0
2019/08/03 18:32:00	BASE	19.06	115	31.28	119	-0.8	74	-4.8	17	0	975.5	NA	0.0000		9999	11940	0	0	0
2019/08/03 18:33:00	BASE	22.02	115	26.70	112	-0.7	74	-4.8	17	0	975.3	NA	0.0000		9999	12210	0	0	0
2019/08/03 18:34:00	BASE	24.13	115	26.70	112	-0.7	74	-4.7	16	0	975.3	NA	0.0000		9999	12800	0	0	0
2019/08/03 18:35:00	BASE	23.15	110	26.70	112	-0.6	74	-4.7	16	0	975.4	NA	0.0000		9999	12170	0	0	0
2019/08/03 18:36:00	BASE	22.02	103	26.70	112	-0.5	73	-4.8	16	0	975.4	NA	0.0000		9999	12730	0	0	0
2019/08/03 18:37:00	BASE	21.57	102	26.70	112	-0.5	72	-4.8	16	0	975.5	NA	0.0000		9999	0	0	0	0
2019/08/03 18:38:00	BASE	21.47	103	26.70	112	-0.4	72	-4.9	16	0	975.4	NA	0.0000		9999	12070	0	0	0
2019/08/03 18:39:00	BASE	20.13	107	26.70	112	-0.5	72	-5.0	15	0	975.4	NA	0.0000		9999	12300	0	0	0
2019/08/03 18:40:00	BASE	18.13	109	26.70	112	-0.5	72	-5.0	15	0	975.3	NA	0.0000		9999	12300	0	0	0
2019/08/03 18:41:00	BASE	17.01	107	26.70	112	-0.6	72	-4.9	15	0	975.3	NA	0.0000		9999	12370	0	0	0
2019/08/03 18:42:00	BASE	16.41	108	26.70	112	-0.6	73	-4.9	14	0	975.2	NA	0.0000		9999	12830	0	0	0
2019/08/03 18:43:00	BASE	17.03	114	26.13	108	-0.6	73	-4.9	14	0	975.1	NA	0.0000		9999	12470	0	0	0
2019/08/03 18:44:00	BASE	17.30	116	25.98	103	-0.6	73	-4.8	13	0	975.1	NA	0.0000		9999	11390	0	0	0
2019/08/03 18:45:00	BASE	16.85	116	24.90	100	-0.6	73	-4.8	12	0	975.0	NA	0.0000		9999	12530	0	0	0
2019/08/03 18:46:00	BASE	16.59	117	24.90	100	-0.6	73	-4.8	11	0	975.0	NA	0.0000		9999	12600	0	0	0
2019/08/03 18:47:00	BASE	17.38	117	24.90	100	-0.5	73	-4.7	11	0	974.9	NA	0.0000		9999	12170	0	0	0
2019/08/03 18:48:00	BASE	20.45	116	24.18	117	-0.5	73	-4.7	10	0	974.8	NA	0.0000		9999	12010	0	0	0
2019/08/03 18:49:00	BASE	22.37	119	24.85	127	-0.4	73	-4.7	10	0	974.8	NA	0.0000		9999	11320	0	0	0
2019/08/03 18:50:00	BASE	21.94	116	24.85	127	-0.4	73	-4.6	9	0	974.8	NA	0.0000		9999	11350	0	0	0
2019/08/03 18:51:00	BASE	20.30	113	24.85	127	-0.3	73	-4.6	9	0	974.8	NA	0.0000		9999	0	0	0	0
2019/08/03 18:52:00	BASE	20.30	116	24.85	127	-0.3	73	-4.6	9	0	974.8	NA	0.0000		9999	0	0	0	0
2019/08/03 18:53:00	BASE	21.48	117	24.85	127	-0.3	73	-4.5	9	0	974.8	NA	0.0000		9999	0	0	0	0
2019/08/03 18:54:00	BASE	21.39	118	24.85	127	-0.3	73	-4.5	9	0	974.7	NA	0.0000		9999	12240	0	0	0
2019/08/03 18:55:00	BASE	21.54	120	24.85	127	-0.2	73	-4.5	9	0	974.7	NA	0.0000		9999	0	0	0	0
2019/08/03 18:56:00	BASE	21.52	122	24.85	127	-0.2	73	-4.5	8	0	974.6	NA	0.0000		9999	0	0	0	0
2019/08/03 18:57:00	BASE	21.71	121	24.85	127	-0.2	73	-4.5	8	0	974.6	NA	0.0000		9999	0	0	0	0
2019/08/03 18:58:00	BASE	21.81	118	24.85	127	-0.1	72	-4.5	8	0	974.6	NA	0.0000		9999	0	0	0	0
2019/08/03 18:59:00	BASE	20.94	120	24.74	116	-0.1	72	-4.5	8	0	974.5	NA	0.0000		9999	12140	0	0	0
2019/08/03 19:00:00	BASE	20.38	122	24.74	116	-0.1	72	-4.6	7	0	974.4	NA	0.0000		9999	0	0	0	0
2019/08/03 19:01:00	BASE	21.38	122	26.24	125	-0.2	72	-4.6	7	0	974.3	NA	0.0000		9999	11520	0	0	0
2019/08/03 19:02:00	BASE	21.81	122	26.24	125	-0.2	73	-4.5	7	0	974.3	NA	0.0000		9999	0	0	0	0
2019/08/03 19:03:00	BASE	20.76	122	26.24	125	-0.2	73	-4.5	7	0	974.3	NA	0.0000		9999	11350	0	0	0
2019/08/03 19:04:00	BASE	20.23	121	26.24	125	-0.3	73	-4.5	6	0	974.3	NA	0.0000		9999	0	0	0	0
2019/08/03 19:05:00	BASE	21.85	122	26.24	125	-0.3	74	-4.4	6	0	974.1	NA	0.0000		9999	11190	0	0	0
2019/08/03 19:06:00	BASE	22.94	124	26.24	125	-0.2	74	-4.3	6	0	974.1	NA	0.0000		9999	0	0	0	0
2019/08/03 19:07:00	BASE	21.93	127	26.24	125	-0.2	74	-4.3	6	0	974.0	NA	0.0000		9999	11320	0	0	0
2019/08/03 19:08:00	BASE	20.57	128	26.24	125	-0.2	73	-4.3	6	0	974.0	NA	0.0000		9999	11580	0	0	0
2019/08/03 19:09:00	BASE	20.40	125	26.24	125	-0.1	73	-4.4	6	0	974.0	NA	0.0000		9999	11580	0	0	0
2019/08/03 19:10:00	BASE	20.41	120	26.24	125	-0.0	72	-4.4	6	0	974.1	NA	0.0000		9999	11610	0	0	0
2019/08/03 19:11:00	BASE	18.78	119	25.98	125	0.0	72	-4.5	6	0	974.1	NA	0.0000		9999	11840	0	0	0
2019/08/03 19:12:00	BASE	17.72	120	25.98	125	0.1	71	-4.6	6	0	974.1	NA	0.0000		9999	12240	0	0	0
2019/08/03 19:13:00	BASE	18.55	123	25.98	125	0.1	71	-4.6	6	0	974.0	NA	0.0000		9999	12070	0	0	0
2019/08/03 19:14:00	BASE	18.98	125	25.98	125	0.1	70	-4.7	5	0	974.0	NA	0.0000		9999	12470	0	0	0
2019/08/03 19:15:00	BASE	19.00	124	25.36	128	0.1	70	-4.7	5	0	974.0	NA	0.0000		9999	12170	0	0	0
2019/08/03 19:16:00	BASE	19.38	121	25.21	124	0.1	70	-4.7	5	0	974.0	NA	0.0000		9999	12570	0	0	0
2019/08/03 19:17:00	BASE	19.79	117	25.21	124	0.1	70	-4.7	5	0	973.9	NA	0.0000		9999	11980	0	0	0
2019/08/03 19:18:00	BASE	18.96	122	25.21	124	0.1	70	-4.7	5	0	973.9	NA	0.0000		9999	12170	0	0	0
2019/08/03 19:19:00	BASE	16.90	127	22.74	115	0.1	70	-4.7	4	0	973.9	NA	0.0000		9999	12800	0	0	0
2019/08/03 19:20:00	BASE	15.82	125	22.74	115	0.1	70	-4.7	4	0	973.9	NA	0.0000		9999	11880	0	0	0
2019/08/03 19:21:00	BASE	15.75	122	22.74	115	0.0	70	-4.8	4	0	973.9	NA	0.0000		9999	12170	0	0	0
2019/08/03 19:22:00	BASE	17.72	117	22.74	115	-0.0	71	-4.7	4	0	973.8	NA	0.0000		9999	12530	0	0	0
2019/08/03 19:23:00	BASE	19.04	114	22.74	115	-0.0	71	-4.7	3	0	973.8	NA	0.0000		9999	11160	0	0	0
2019/08/03 19:24:00	BASE	18.80	114	22.74	115	-0.1	71	-4.6	3	0	973.8	NA	0.0000		9999	11090	0	0	0
2019/08/03 19:25:00	BASE	20.87	114	24.85	119	-0.0	72	-4.5	3	0	973.7	NA	0.0000		9999	11090	0	0	0
2019/08/03 19:26:00	BASE	23.05	117	26.60	112	0.0	72	-4.5	3	0	973.6	NA	0.0000		9999	11880	0	0	0
2019/08/03 19:27:00	BASE	21.40	118	26.60	112	0.1	71	-4.5	3	0	973.7	NA	0.0000		9999	11780	0	0	0
2019/08/03 19:28:00	BASE	19.55	114	26.60	112	0.1	71	-4.5	3	0	973.6	NA	0.0000		9999	11290	0	0	0
2019/08/03 19:29:00	BASE	19.97	115	26.60	112	0.1	71	-4.5	2	0	973.5	NA	0.0000		9999	12070	0	0	0
2019/08/03 19:30:00	BASE	19.07	118	26.60	112	0.1	71	-4.5	2	0	973.5	NA	0.0000		9999	12040	0	0	0
2019/08/03 19:31:00	BASE	20.20	116	26.60	112	0.1	71	-4.5	2	0	973.4	NA	0.0000		9999	11350	0	0	0
2019/08/03 19:32:00	BASE	21.11	114	26.60	112	0.0	72	-4.5	2	0	973.4	NA	0.0000		9999	11980	0	0	0
2019/08/03 19:33:00	BASE	20.41	113	26.60	112	0.0	72	-4.5	2	0	973.3	NA	0.0000		9999	11420	0	0	0
2019/08/03 19:34:00	BASE	20.85	109	26.60	112	0.0	72	-4.4	2	0	973.3	NA	0.0000		9999	11450	0	0	0
2019/08/03 19:35:00	BASE	20.23	114	26.60	112	0.0	72	-4.4	2	0	973.2	NA	0.0000		9999	11840	0	0	0
2019/08/03 19:36:00	BASE	18.55	119	25.16	112	0.0	72	-4.4	2	0	973.2	NA	0.0000		9999	10990	0	0	0
2019/08/03 19:37:00	BASE	18.24	115	25.16	112	0.1	72	-4.4	2	0	973.1	NA	0.0000		9999	10990	0	0	0
2019/08/03 19:38:00	BASE	20.71	113	25.16	112	0.1	72	-4.3	2	0	973.0	NA	0.0000		9999	10930	0	0	0
2019/08/03 19:39:00	BASE	20.48	113	25.16	112	0.1	72	-4.3	1	0	973.1	NA	0.0000		9999	10960	0	0	0
2019/08/03 19:40:00	BASE	17.26	113	25.16	112	0.1	72	-4.3	1	0	973.1	NA	0.0000		9999	10930	0	0	0
2019/08/03 19:41:00	BASE	16.19	119	24.54	115	0.1	72	-4.3	1	0	973.0	NA	0.0000		9999	11090	0	0	0
2019/08/03 19:42:00	BASE	15.63	128	24.54	115	0.1	72	-4.2	1	0	973.0	NA	0.0000		9999	11020	0	0	0
2019/08/03 19:43:00	BASE	15.02	123	24.54	115	0.2	72	-4.2	1	0	973.0	NA	0.0000		9999	10960	0	0	0
2019/08/03 19:44:00	BASE	14.80	116	24.54	115	0.2	72	-4.2	1	0	973.0	NA	0.0000		9999	10300	10990	0	0
2019/08/03 19:45:00	BASE	13.82	121	24.54	115	0.2	72	-4.3	1	0	972.9	NA	0.0000		9999	11840	0	0	0
2019/08/03 19:46:00	BASE	14.65	122	24.54	115	0.2	72	-4.2	1	0	972.9	NA	0.0000	UP	9999	10470	0	0	0
2019/08/03 19:47:00	BASE	17.07	118	24.54	115	0.2	72	-4.2	1	0	972.8	NA	0.0000	UP	9999	9580	10860	0	0
2019/08/03 19:48:00	BASE	19.08	112	23.20	118	0.2	73	-4.2	1	0	972.8	NA	0.0000	UP	9999	10270	0	0	0
2019/08/03 19:49:00	BASE	18.74	105	23.05	108	0.1	73	-4.1	1	0	972.8	NA	0.0000	UP	9999	10500	0	0	0
2019/08/03 19:50:00	BASE	17.62	106	23.05	108	0.1	74	-4.1	1	0	972.7	NA	0.0000	UP	9999	10830	0	0	0
2019/08/03 19:51:00	BASE	17.58	108	23.05	108	-0.0	74	-4.0	1	0	972.7	NA	0.0000	UP	9999	10790	11610	0	0
2019/08/03 19:52:00	BASE	19.60	105	25.57	102	-0.1	75	-3.9	1	0	972.6	NA	0.0000	UP	9999	9970	0	0	0
2019/08/03 19:53:00	BASE	22.24	104	25.57	102	-0.1	76	-3.8	1	0	972.4	NA	0.0000	UP	9999	10890	0	0	0
2019/08/03 19:54:00	BASE	19.96	109	25.57	102	-0.1	77	-3.7	1	0	972.5	NA	0.0000	UP	9999	10790	0	0	0
2019/08/03 19:55:00	BASE	16.95	112	25.57	102	-0.2	78	-3.6	1	0	972.5	NA	0.0000	UP	9999	10790	0	0	0
2019/08/03 19:56:00	BASE	17.64	114	25.57	102	-0.2	78	-3.5	1	0	972.4	NA	0.0000	UP	9999	10790	0	0	0
2019/08/03 19:57:00	BASE	20.75	113	25.57	102	-0.2	79	-3.4	1	0	972.3	NA	0.0000	UP	9999	10010	10860	0	0
2019/08/03 19:58:00	BASE	23.38	112	27.11	111	-0.2	79	-3.3	1	0	972.2	NA	0.0000	UP	9999	10660	0	0	0
2019/08/03 19:59:00	BASE	23.78	116	27.11	111	-0.1	80	-3.2	1	0	972.0	NA	0.0000	UP	9999	9970	10730	0	0
2019/08/03 20:00:00	BASE	23.99	119	27.11	111	-0.1	80	-3.1	0	0	972.0	NA	0.0000	UP	9999	11020	0	0	0
2019/08/03 20:01:00	BASE	23.41	118	27.11	111	0.0	80	-3.1	0	0	972.0	NA	0.0000	UP	9999	10300	11090	0	0
2019/08/03 20:02:00	BASE	21.52	118	27.11	111	0.1	80	-3.0	0	0	972.0	NA	0.0000	UP	9999	11020	11680	0	0
2019/08/03 20:03:00	BASE	22.55	115	27.11	111	0.1	79	-3.0	0	0	971.8	NA	0.0000	UP	9999	10960	0	0	0
2019/08/03 20:04:00	BASE	24.88	109	28.71	108	0.1	79	-3.0	0	0	971.7	NA	0.0000	UP	9999	10990	0	0	0
2019/08/03 20:05:00	BASE	25.37	104	28.71	108	0.1	79	-3.1	0	0	971.7	NA	0.0000	UP	9999	9480	10110	0	0
2019/08/03 20:06:00	BASE	25.04	104	28.71	108	0.1	79	-3.1	0	0	971.7	NA	0.0000	UP	9999	10990	0	0	0
2019/08/03 20:07:00	BASE	25.19	109	29.07	117	0.0	80	-3.1	0	0	971.6	NA	0.0000	UP	9999	0	0	0	850
2019/08/03 20:08:00	BASE	27.45	112	32.46	107	0.1	80	-3.0	0	0	971.5	NA	0.0000	UP	9999	11320	0	0	0
2019/08/03 20:09:00	BASE	28.24	110	32.46	107	0.1	80	-3.0	0	0	971.5	NA	0.0000	UP	9999	11750	0	0	0
2019/08/03 20:10:00	BASE	26.16	109	32.46	107	0.1	80	-2.9	0	0	971.5	NA	0.0000	UP	9999	0	0	0	2100
2019/08/03 20:11:00	BASE	23.68	112	32.46	107	0.1	80	-2.9	0	0	971.4	NA	0.0000	UP	9999	11610	0	0	0
2019/08/03 20:12:00	BASE	23.53	116	32.46	107	0.1	80	-2.9	0	0	971.3	NA	0.0000	UP	9999	11780	0	0	0
2019/08/03 20:13:00	BASE	26.79	115	32.46	107	0.1	80	-2.9	0	0	971.1	NA	0.0000	UP	9999	0	0	0	1900
2019/08/03 20:14:00	BASE	30.39	113	34.72	118	0.1	81	-2.8	0	0	970.9	NA	0.0000	UP	9999	11250	0	0	0
2019/08/03 20:15:00	BASE	32.10	112	35.14	111	0.1	81	-2.7	0	0	970.8	NA	0.0000	UP	9999	0	0	0	1640
2019/08/03 20:16:00	BASE	31.09	109	35.14	111	0.2	81	-2.7	0	0	970.9	NA	0.0000	UP	9999	11680	0	0	0
2019/08/03 20:17:00	BASE	28.41	110	35.14	111	0.2	81	-2.6	0	0	971.0	NA	0.0000	UP	9999	11650	0	0	0
2019/08/03 20:18:00	BASE	28.62	113	35.14	111	0.2	82	-2.6	0	0	970.8	NA	0.0000	UP	9999	11550	0	0	0
2019/08/03 20:19:00	BASE	30.31	113	35.14	111	0.2	82	-2.5	0	0	970.8	NA	0.0000	UP	9999	12110	0	0	0
2019/08/03 20:20:00	BASE	30.15	112	35.14	111	0.3	82	-2.5	0	0	970.8	NA	0.0000	UP	9999	11750	0	0	0
2019/08/03 20:21:00	BASE	29.21	112	35.14	111	0.3	82	-2.5	0	0	970.8	NA	0.0000	UP	9999	11580	0	0	0
2019/08/03 20:22:00	BASE	28.51	114	35.14	111	0.3	82	-2.5	0	0	970.8	NA	0.0000	UP	9999	11810	0	0	0
2019/08/03 20:23:00	BASE	27.34	114	35.14	111	0.3	81	-2.5	0	0	970.8	NA	0.0000	UP	9999	12370	0	0	0
2019/08/03 20:24:00	BASE	24.49	114	35.14	111	0.3	81	-2.5	0	0	970.9	NA	0.0000	UP	9999	12110	0	0	0
2019/08/03 20:25:00	BASE	21.44	119	34.42	105	0.3	81	-2.5	0	0	970.9	NA	0.0000	UP	9999	11910	0	0	0
2019/08/03 20:26:00	BASE	21.21	123	33.54	109	0.3	81	-2.5	0	0	970.8	NA	0.0000	-RA	9999	12070	0	0	0
2019/08/03 20:27:00	BASE	24.38	115	33.54	109	0.4	81	-2.5	0	0	970.8	NA	0.0000	-RA	9999	11650	0	0	0
2019/08/03 20:28:00	BASE	26.76	109	33.54	109	0.4	81	-2.5	0	0	970.7	NA	0.0000	-RA	9999	11980	0	0	0
2019/08/03 20:29:00	BASE	28.11	111	32.46	110	0.4	81	-2.5	0	0	970.6	NA	0.0000	-RA	9999	0	0	0	0
2019/08/03 20:30:00	BASE	27.81	108	30.97	113	0.4	81	-2.5	0	0	970.7	NA	0.0000	-RA	9999	1900	0	0	0
2019/08/03 20:31:00	BASE	24.50	106	30.97	113	0.5	80	-2.5	0	0	970.8	NA	0.0000	-RA	9999	0	0	0	1710
2019/08/03 20:32:00	BASE	24.47	109	30.97	113	0.6	80	-2.5	0	0	970.7	NA	0.0000	-RA	9999	0	0	0	1610
2019/08/03 20:33:00	BASE	27.77	113	32.26	113	0.7	79	-2.6	0	0	970.6	NA	0.0000	-RA	9999	12530	0	0	0
2019/08/03 20:34:00	BASE	27.71	112	32.26	113	0.7	78	-2.7	0	0	970.6	NA	0.0000	-RA	9999	0	0	0	2850
2019/08/03 20:35:00	BASE	26.05	112	32.26	113	0.7	78	-2.8	0	0	970.5	NA	0.0000	-RA	9999	0	0	0	2660
2019/08/03 20:36:00	BASE	29.45	115	34.93	115	0.7	78	-2.8	0	0	970.2	NA	0.0000	-RA	9999	0	0	0	1970
2019/08/03 20:37:00	BASE	32.76	117	36.22	120	0.7	78	-2.7	0	0	970.2	NA	0.0000	-RA	9999	0	0	0	2460
2019/08/03 20:38:00	BASE	31.31	116	36.22	120	0.7	78	-2.7	0	0	970.2	NA	0.0000	-RA	9999	0	0	0	2850
2019/08/03 20:39:00	BASE	29.15	116	36.22	120	0.7	78	-2.7	0	0	970.3	NA	0.0000	-RA	9999	0	0	0	2820
2019/08/03 20:40:00	BASE	28.42	116	36.22	120	0.7	78	-2.7	0	0	970.3	NA	0.0000	-RA	9999	11610	0	0	0
2019/08/03 20:41:00	BASE	28.83	115	36.22	120	0.7	78	-2.6	0	0	970.3	NA	0.0000	-RA	9999	0	0	0	3540
2019/08/03 20:42:00	BASE	28.27	114	36.22	120	0.6	78	-2.7	0	0	970.3	NA	0.0000	-RA	9999	0	0	0	2530
2019/08/03 20:43:00	BASE	26.25	117	36.22	120	0.6	79	-2.7	0	0	970.3	NA	0.0000	-RA	9999	12370	0	0	0
2019/08/03 20:44:00	BASE	24.98	120	36.22	120	0.5	79	-2.7	0	0	970.3	NA	0.0000	-RA	9999	12960	0	0	0
2019/08/03 20:45:00	BASE	26.65	113	36.22	120	0.5	79	-2.6	0	0	970.3	NA	0.0000	-RA	9999	12890	0	0	0
2019/08/03 20:46:00	BASE	27.91	106	36.22	120	0.5	80	-2.6	0	0	970.3	NA	0.0000	-RA	9999	0	0	0	2850
2019/08/03 20:47:00	BASE	25.31	103	33.18	112	0.5	80	-2.6	0	0	970.4	NA	0.0000	-RA	9999	0	0	0	4430
2019/08/03 20:48:00	BASE	22.99	104	33.18	112	0.5	80	-2.6	0	0	970.3	NA	0.0000	-RA	9000	0	0	0	3220
2019/08/03 20:49:00	BASE	26.82	109	34.06	110	0.5	80	-2.5	0	0	970.0	NA	0.0000	-RA	9000	0	0	0	2920
2019/08/03 20:50:00	BASE	29.76	114	34.06	110	0.5	81	-2.5	0	0	970.1	NA	0.0000	-RA	9000	0	0	0	3050
2019/08/03 20:51:00	BASE	28.63	112	34.06	110	0.5	81	-2.4	0	0	970.1	NA	0.0000	-RA	9000	0	0	0	3900
2019/08/03 20:52:00	BASE	25.88	106	34.06	110	0.5	81	-2.4	0	0	970.2	NA	0.0000	-RA	9999	0	0	0	3540
2019/08/03 20:53:00	BASE	23.32	107	34.06	110	0.5	81	-2.4	0	0	970.1	NA	0.0000	-RA	9999	0	0	0	4590
2019/08/03 20:54:00	BASE	22.86	115	34.06	110	0.5	81	-2.4	0	0	970.1	NA	0.0000	-RA	9999	0	0	0	4000
2019/08/03 20:55:00	BASE	22.30	116	34.06	110	0.6	81	-2.4	0	0	970.0	NA	0.0000	-RA	9999	0	0	0	3740
2019/08/03 20:56:00	BASE	23.14	112	34.06	110	0.6	80	-2.4	0	0	970.0	NA	0.0000	-RA	9999	12430	0	0	0
2019/08/03 20:57:00	BASE	24.72	109	34.06	110	0.6	80	-2.4	0	0	969.9	NA	0.0000	-RA	9999	0	0	0	2950
2019/08/03 20:58:00	BASE	24.44	110	34.06	110	0.6	80	-2.4	0	0	969.9	NA	0.0000	-RA	9999	0	0	0	3670
2019/08/03 20:59:00	BASE	25.19	115	31.64	110	0.6	80	-2.4	0	0	969.7	NA	0.0000	-RA	9999	0	0	0	4000
2019/08/03 21:00:00	BASE	27.16	117	31.64	110	0.5	80	-2.4	0	0	969.7	NA	0.0000	-RA	9000	7870	0	0	0
2019/08/03 21:01:00	BASE	27.91	115	32.51	117	0.5	81	-2.4	0	0	969.6	NA	0.0000	-RA	8000	0	0	0	3020
2019/08/03 21:02:00	BASE	27.01	109	32.51	117	0.6	81	-2.4	0	0	969.8	NA	0.0000	-RA	9000	0	0	0	4070
2019/08/03 21:03:00	BASE	25.06	108	32.51	117	0.6	81	-2.3	0	0	969.8	NA	0.0000	-RA	9000	10500	0	0	0
2019/08/03 21:04:00	BASE	24.13	114	32.51	117	0.6	81	-2.3	0	0	969.7	NA	0.0000	-RA	9000	0	0	0	3480
2019/08/03 21:05:00	BASE	23.08	112	32.51	117	0.6	81	-2.3	0	0	969.7	NA	0.0000	-RA	9000	0	0	0	4330
2019/08/03 21:06:00	BASE	23.53	111	32.51	117	0.5	81	-2.3	0	0	969.7	NA	0.0000	-RA	9999	0	0	0	3710
2019/08/03 21:07:00	BASE	27.89	112	34.36	107	0.5	81	-2.4	0	0	969.4	NA	0.0000	-RA	9999	0	0	0	3970
2019/08/03 21:08:00	BASE	29.98	112	34.36	107	0.6	81	-2.3	0	0	969.5	NA	0.0000	-RA	9999	0	0	0	3610
2019/08/03 21:09:00	BASE	28.54	108	34.36	107	0.6	81	-2.3	0	0	969.3	NA	0.0000	-RA	9000	0	0	0	4270
2019/08/03 21:10:00	BASE	27.97	108	34.36	107	0.6	81	-2.3	0	0	969.3	NA	0.0000	-RA	8000	0	0	0	4490
2019/08/03 21:11:00	BASE	29.79	113	34.83	112	0.7	80	-2.3	0	0	969.2	NA	0.0000	-RA	8000	0	0	0	3250
2019/08/03 21:12:00	BASE	27.91	113	34.83	112	0.7	80	-2.3	0	0	969.3	NA	0.0000	-RA	8000	0	0	0	3510
2019/08/03 21:13:00	BASE	24.94	112	34.83	112	0.7	80	-2.4	0	0	969.2	NA	0.0000	-RA	9000	0	0	0	4460
2019/08/03 21:14:00	BASE	27.18	114	34.83	112	0.7	79	-2.4	0	0	969.2	NA	0.0000	-RA	9999	0	0	0	5090
2019/08/03 21:15:00	BASE	27.54	116	34.83	112	0.7	79	-2.5	0	0	969.3	NA	0.0000	-RA	9999	3250	4400	0	0
2019/08/03 21:16:00	BASE	28.23	115	34.83	112	0.7	79	-2.5	0	0	969.0	NA	0.0000	-RA	9999	0	0	0	4100
2019/08/03 21:17:00	BASE	29.81	116	34.83	112	0.7	79	-2.5	0	0	969.0	NA	0.0000	-RA	9999	0	0	0	4460
2019/08/03 21:18:00	BASE	30.42	117	34.83	112	0.7	79	-2.5	0	0	969.0	NA	0.0000	-RA	8000	0	0	0	3740
2019/08/03 21:19:00	BASE	31.83	114	36.06	109	0.7	79	-2.5	0	0	969.0	NA	0.0000	-RA	6000	0	0	0	3900
2019/08/03 21:20:00	BASE	31.32	112	36.06	109	0.7	80	-2.4	0	0	969.0	NA	0.0000	-RA	5000	0	0	0	4300
2019/08/03 21:21:00	BASE	28.54	114	36.06	109	0.7	80	-2.4	0	0	969.1	NA	0.0000	-RA	4600	0	0	0	4360
2019/08/03 21:22:00	BASE	26.44	114	36.06	109	0.6	80	-2.4	0	0	969.2	NA	0.0000	-RA	5000	0	0	0	4330
2019/08/03 21:23:00	BASE	25.76	119	36.06	109	0.6	80	-2.4	0	0	969.0	NA	0.0000	-RA	5000	0	0	0	4660
2019/08/03 21:24:00	BASE	26.80	121	36.06	109	0.6	80	-2.4	0	0	969.0	NA	0.0000	-RA	4500	0	0	0	3740
2019/08/03 21:25:00	BASE	26.43	118	36.06	109	0.5	81	-2.4	0	0	969.1	NA	0.0000	-RA	3300	0	0	0	3970
2019/08/03 21:26:00	BASE	27.18	120	36.06	109	0.5	81	-2.4	0	0	968.9	NA	0.0000	-RA	3400	0	0	0	4230
2019/08/03 21:27:00	BASE	30.05	120	36.06	109	0.4	81	-2.4	0	0	968.8	NA	0.0000	-RA	3900	0	0	0	4230
2019/08/03 21:28:00	BASE	28.78	117	36.06	109	0.4	82	-2.3	0	0	968.9	NA	0.0000	-RA	4300	0	0	0	4560
2019/08/03 21:29:00	BASE	26.60	114	35.81	112	0.4	82	-2.3	0	0	969.0	NA	0.0000	-RA	4800	0	0	0	1710
2019/08/03 21:30:00	BASE	25.57	112	34.88	112	0.4	83	-2.3	0	0	969.0	NA	0.0000	-RA	5000	0	0	0	3610
2019/08/03 21:31:00	BASE	25.96	110	34.88	112	0.3	83	-2.2	0	0	968.9	NA	0.0000	-RA	4300	0	0	0	3710
2019/08/03 21:32:00	BASE	26.99	107	34.88	112	0.2	83	-2.2	0	0	968.8	NA	0.0000	-RA	3200	0	0	0	4170
2019/08/03 21:33:00	BASE	28.19	105	34.88	112	0.2	84	-2.3	0	0	968.7	NA	0.0000	-RA	3300	0	0	0	3870
2019/08/03 21:34:00	BASE	29.29	111	34.88	112	0.1	84	-2.2	0	0	968.7	NA	0.0000	-RA	4400	0	0	0	1350
2019/08/03 21:35:00	BASE	27.19	119	34.88	112	0.1	84	-2.2	0	0	968.7	NA	0.0000	-RA	4600	3180	0	0	0
2019/08/03 21:36:00	BASE	22.78	122	34.88	112	0.2	84	-2.1	0	0	968.9	NA	0.0000	-RA	4600	3220	4760	0	0
2019/08/03 21:37:00	BASE	18.67	120	33.75	105	0.3	84	-2.1	0	0	969.0	NA	0.0000	-RA	4600	0	0	0	0
2019/08/03 21:38:00	BASE	17.42	112	33.75	105	0.3	84	-2.0	0	0	968.9	NA	0.0000	-RA	4600	3710	0	0	0
2019/08/03 21:39:00	BASE	19.00	105	33.75	105	0.4	83	-2.1	0	0	968.7	NA	0.0000	-RA	4600	0	0	0	4760
2019/08/03 21:40:00	BASE	25.20	111	33.75	105	0.4	83	-2.1	0	0	968.4	NA	0.0000	-RA	6000	4040	0	0	0
2019/08/03 21:41:00	BASE	27.03	128	33.75	105	0.4	82	-2.2	0	0	968.3	NA	0.0000	-RA SQ	9999	0	0	0	5740
2019/08/03 21:42:00	BASE	25.34	127	33.75	105	0.5	82	-2.2	0	0	968.4	NA	0.0000	-RA	9999	0	0	0	6040
2019/08/03 21:43:00	BASE	26.32	118	32.31	122	0.5	82	-2.3	0	0	968.3	NA	0.0000	-RA	9999	0	0	0	5120
2019/08/03 21:44:00	BASE	25.19	109	32.31	122	0.5	82	-2.3	0	0	968.3	NA	0.0000	-RA	9999	3970	0	0	0
2019/08/03 21:45:00	BASE	24.97	104	32.31	122	0.5	81	-2.3	0	0	968.1	NA	0.0000	-RA	9999	0	0	0	0
2019/08/03 21:46:00	BASE	23.13	111	32.31	122	0.5	81	-2.4	0	0	968.3	NA	0.0000	-RA	9999	3080	0	0	0
2019/08/03 21:47:00	BASE	19.30	123	32.31	122	0.4	81	-2.4	0	0	968.2	NA	0.0000	-RA	9999	2920	4200	0	0
2019/08/03 21:48:00	BASE	16.41	127	32.31	122	0.4	81	-2.5	0	0	968.3	NA	0.0000	-RA	9999	5250	0	0	0
2019/08/03 21:49:00	BASE	15.25	124	32.31	122	0.4	81	-2.5	0	0	968.3	NA	0.0000	-RA	9999	4170	0	0	0
2019/08/03 21:50:00	BASE	16.93	125	29.94	133	0.3	81	-2.5	0	0	968.2	NA	0.0000	-RA	9999	3970	0	0	0
2019/08/03 21:51:00	BASE	17.82	124	29.94	133	0.3	81	-2.5	0	0	968.1	NA	0.0000	-RA	9999	0	0	0	5740
2019/08/03 21:52:00	BASE	16.98	123	28.76	119	0.3	82	-2.5	0	0	968.1	NA	0.0000		9999	4070	0	0	0
2019/08/03 21:53:00	BASE	18.64	129	27.52	110	0.2	82	-2.5	0	0	967.9	NA	0.0000		9999	2760	0	0	0
2019/08/03 21:54:00	BASE	20.76	134	27.52	110	0.2	82	-2.5	0	0	967.9	NA	0.0000		9999	4760	0	0	0
2019/08/03 21:55:00	BASE	20.44	133	25.41	141	0.2	82	-2.5	0	0	968.0	NA	0.0000		9999	4230	0	0	0
2019/08/03 21:56:00	BASE	20.24	131	25.41	141	0.2	82	-2.5	0	0	968.0	NA	0.0000		9999	4660	0	0	0
2019/08/03 21:57:00	BASE	19.96	129	25.41	141	0.2	82	-2.5	0	0	967.9	NA	0.0000		9999	4040	0	0	0
2019/08/03 21:58:00	BASE	20.34	129	25.41	141	0.2	82	-2.5	0	0	967.9	NA	0.0000		9999	4000	0	0	0
2019/08/03 21:59:00	BASE	20.77	124	25.41	141	0.2	83	-2.4	0	0	968.0	NA	0.0000		9999	0	0	0	4920
2019/08/03 22:00:00	BASE	21.10	110	25.41	141	0.2	83	-2.4	0	0	967.9	NA	0.0000	-RA	9999	0	0	0	5450
2019/08/03 22:01:00	BASE	24.29	108	32.87	109	0.2	83	-2.4	0	0	967.6	NA	0.0000	-RA	9999	0	0	0	6920
2019/08/03 22:02:00	BASE	25.89	119	32.87	109	0.2	83	-2.3	0	0	967.7	NA	0.0000	-RA	9999	0	0	0	7510
2019/08/03 22:03:00	BASE	25.66	120	33.90	117	0.3	83	-2.3	0	0	967.7	NA	0.0000	-RA	9999	4300	0	0	0
2019/08/03 22:04:00	BASE	23.56	115	33.90	117	0.3	83	-2.3	0	0	967.9	NA	0.0000	-RA	9999	0	0	0	7610
2019/08/03 22:05:00	BASE	20.81	111	33.90	117	0.3	82	-2.4	0	0	967.9	NA	0.0000	-RA	9999	3970	0	0	0
2019/08/03 22:06:00	BASE	21.89	108	33.90	117	0.3	82	-2.4	0	0	967.8	NA	0.0000	-RA	9999	0	0	0	6500
2019/08/03 22:07:00	BASE	22.80	109	33.90	117	0.3	82	-2.5	0	0	967.7	NA	0.0000	-RA	9999	0	0	0	6630
2019/08/03 22:08:00	BASE	23.91	110	33.90	117	0.2	82	-2.5	0	0	967.6	NA	0.0000	-RA	9999	4820	0	0	0
2019/08/03 22:09:00	BASE	24.54	108	33.90	117	0.1	82	-2.5	0	0	967.6	NA	0.0000	-RA	9999	5640	0	0	0
2019/08/03 22:10:00	BASE	23.47	108	33.90	117	0.1	83	-2.5	0	0	967.6	NA	0.0000	-RA	9999	6100	0	0	0
2019/08/03 22:11:00	BASE	22.69	115	33.90	117	0.1	83	-2.4	0	0	967.6	NA	0.0000	-RA	9999	3810	0	0	0
2019/08/03 22:12:00	BASE	21.49	117	33.90	117	0.1	84	-2.4	0	0	967.6	NA	0.0000	-RA	9999	4100	0	0	0
2019/08/03 22:13:00	BASE	21.75	113	30.30	112	0.1	84	-2.3	0	0	967.6	NA	0.0000	-RA	9999	4430	0	0	0
2019/08/03 22:14:00	BASE	24.07	110	30.30	112	0.2	83	-2.3	0	0	967.4	NA	0.0000	-RA	9999	3540	0	0	0
2019/08/03 22:15:00	BASE	23.20	113	30.30	112	0.2	83	-2.3	0	0	967.4	NA	0.0000	-RA	9999	3840	0	0	0
2019/08/03 22:16:00	BASE	20.03	116	30.30	112	0.2	83	-2.4	0	0	967.4	NA	0.0000		9999	3940	0	0	0
2019/08/03 22:17:00	BASE	19.23	120	30.30	112	0.3	82	-2.4	0	0	967.4	NA	0.0000		9999	4400	0	0	0
2019/08/03 22:18:00	BASE	17.39	127	29.22	111	0.3	82	-2.4	0	0	967.4	NA	0.0000		9999	3710	0	0	0
2019/08/03 22:19:00	BASE	16.75	129	29.22	111	0.4	81	-2.5	0	0	967.3	NA	0.0000		9999	4040	0	0	0
2019/08/03 22:20:00	BASE	15.53	134	29.22	111	0.4	81	-2.5	0	0	967.3	NA	0.0000		9999	5020	0	0	0
2019/08/03 22:21:00	BASE	12.25	140	29.22	111	0.5	80	-2.6	0	0	967.3	NA	0.0000		9999	4200	0	0	0
2019/08/03 22:22:00	BASE	11.90	139	29.22	111	0.5	79	-2.7	0	0	967.2	NA	0.0000		9999	4040	0	0	0
2019/08/03 22:23:00	BASE	12.82	135	29.22	111	0.5	79	-2.8	0	0	967.3	NA	0.0000		9999	3870	0	0	0
2019/08/03 22:24:00	BASE	13.69	117	25.67	110	0.4	78	-2.9	0	0	967.3	NA	0.0000		9999	4820	0	0	0
2019/08/03 22:25:00	BASE	16.90	102	22.17	119	0.4	78	-3.0	0	0	967.1	NA	0.0000		9999	0	0	0	7280
2019/08/03 22:26:00	BASE	20.29	103	22.79	104	0.3	79	-3.0	0	0	967.1	NA	0.0000	-RA	9999	0	0	0	7050
2019/08/03 22:27:00	BASE	20.59	105	22.79	104	0.2	79	-3.0	0	0	967.0	NA	0.0000	-RA	9999	0	0	0	7250
2019/08/03 22:28:00	BASE	20.96	109	26.70	104	0.1	80	-3.0	0	0	967.0	NA	0.0000	-RA	9999	2660	0	0	0
2019/08/03 22:29:00	BASE	18.70	114	26.70	104	0.1	80	-3.0	0	0	967.1	NA	0.0000	-RA	9999	0	0	0	6300
2019/08/03 22:30:00	BASE	15.37	118	26.70	104	0.1	81	-2.9	0	0	967.1	NA	0.0000	-RA	9999	0	0	0	1280
2019/08/03 22:31:00	BASE	14.13	116	26.70	104	0.1	81	-2.8	0	0	967.1	NA	0.0000	-RA	9999	5480	0	0	0
2019/08/03 22:32:00	BASE	13.87	116	26.70	104	0.1	81	-2.7	0	0	967.1	NA	0.0000	-RA	9999	0	0	0	6460
2019/08/03 22:33:00	BASE	13.92	118	26.70	104	0.2	81	-2.7	0	0	967.1	NA	0.0000	-RA	9999	6690	0	0	0
2019/08/03 22:34:00	BASE	14.61	111	26.70	104	0.3	80	-2.8	0	0	967.1	NA	0.0000	-RA	9999	5580	0	0	0
2019/08/03 22:35:00	BASE	16.90	105	26.70	104	0.3	79	-2.9	0	0	967.0	NA	0.0000	-RA	9999	4460	0	0	0
2019/08/03 22:36:00	BASE	17.53	102	26.70	104	0.3	78	-3.0	0	0	967.0	NA	0.0000	-RA	9999	0	0	0	7020
2019/08/03 22:37:00	BASE	17.59	100	26.70	104	0.3	78	-3.1	0	0	966.9	NA	0.0000	-RA	9999	3180	0	0	0
2019/08/03 22:38:00	BASE	17.25	104	21.14	102	0.3	78	-3.2	0	0	966.9	NA	0.0000	-RA	9999	7420	0	0	0
2019/08/03 22:39:00	BASE	17.43	107	21.14	102	0.2	78	-3.2	0	0	966.7	NA	0.0000	-RA	9999	0	0	0	2260
2019/08/03 22:40:00	BASE	20.63	107	26.91	106	0.2	78	-3.2	0	0	966.5	NA	0.0000	-RA	9999	7450	0	0	0
2019/08/03 22:41:00	BASE	23.45	110	26.91	106	0.2	78	-3.1	0	0	966.5	NA	0.0000	-RA	9999	2760	0	0	0
2019/08/03 22:42:00	BASE	23.95	111	26.91	106	0.2	78	-3.2	0	0	966.5	NA	0.0000	-RA	9999	4270	0	0	0
2019/08/03 22:43:00	BASE	23.23	105	27.78	101	0.2	78	-3.2	0	0	966.5	NA	0.0000	-RA	9999	3810	0	0	0
2019/08/03 22:44:00	BASE	22.12	103	27.78	101	0.3	78	-3.2	0	0	966.5	NA	0.0000	-RA	9999	5610	0	0	0
2019/08/03 22:45:00	BASE	21.68	103	27.78	101	0.3	77	-3.3	0	0	966.6	NA	0.0000	-RA	9999	6140	0	0	0
2019/08/03 22:46:00	BASE	20.54	106	27.78	101	0.2	77	-3.3	0	0	966.5	NA	0.0000		9999	5150	0	0	0
2019/08/03 22:47:00	BASE	19.06	105	27.78	101	0.2	77	-3.3	0	0	966.5	NA	0.0000		9999	5540	0	0	0
2019/08/03 22:48:00	BASE	20.28	106	27.78	101	0.2	77	-3.3	0	0	966.3	NA	0.0000		9999	3510	0	0	0
2019/08/03 22:49:00	BASE	20.21	111	27.78	101	0.1	78	-3.3	0	0	966.3	NA	0.0000		9999	4170	0	0	0
2019/08/03 22:50:00	BASE	18.25	112	27.78	101	0.1	78	-3.2	0	0	966.3	NA	0.0000		9999	2490	0	0	0
2019/08/03 22:51:00	BASE	17.11	107	27.78	101	0.1	78	-3.2	0	0	966.3	NA	0.0000		9999	4590	0	0	0
2019/08/03 22:52:00	BASE	16.76	100	27.78	101	0.2	78	-3.2	0	0	966.3	NA	0.0000		9999	4890	0	0	0
2019/08/03 22:53:00	BASE	17.33	99	23.61	104	0.2	78	-3.2	0	0	966.3	NA	0.0000		9999	5020	0	0	0
2019/08/03 22:54:00	BASE	17.52	110	23.61	104	0.3	77	-3.2	0	0	966.2	NA	0.0000		9999	6590	0	0	0
2019/08/03 22:55:00	BASE	15.28	120	23.61	104	0.4	76	-3.4	0	0	966.2	NA	0.0000		9999	5540	0	0	0
2019/08/03 22:56:00	BASE	12.42	123	23.61	104	0.4	75	-3.5	0	0	966.1	NA	0.0000		9999	4560	0	0	0
2019/08/03 22:57:00	BASE	12.37	132	23.61	104	0.4	75	-3.5	0	0	966.0	NA	0.0000		9999	5350	0	0	0
2019/08/03 22:58:00	BASE	15.04	135	22.17	91	0.5	74	-3.6	0	0	965.9	NA	0.0000		9999	3120	0	0	0
2019/08/03 22:59:00	BASE	16.34	129	22.17	91	0.5	73	-3.7	0	0	966.0	NA	0.0000		9999	2720	0	0	0
2019/08/03 23:00:00	BASE	14.70	127	22.17	91	0.5	73	-3.8	0	0	966.0	NA	0.0000		9999	5680	0	0	0
2019/08/03 23:01:00	BASE	13.76	135	22.17	91	0.6	72	-3.9	0	0	966.0	NA	0.0000		9999	6460	0	0	0
2019/08/03 23:02:00	BASE	13.33	135	22.17	91	0.6	72	-3.9	0	0	966.0	NA	0.0000		9999	6890	0	0	0
2019/08/03 23:03:00	BASE	13.17	125	20.42	138	0.5	72	-4.0	0	0	965.9	NA	0.0000		9999	2430	0	0	0
2019/08/03 23:04:00	BASE	12.79	112	20.42	138	0.5	72	-4.0	0	0	965.9	NA	0.0000		9999	7120	0	0	0
2019/08/03 23:05:00	BASE	11.83	111	20.42	138	0.5	72	-4.0	0	0	965.9	NA	0.0000		9999	7580	0	0	0
2019/08/03 23:06:00	BASE	11.26	114	20.42	138	0.4	72	-4.0	0	0	965.8	NA	0.0000		9999	3180	0	0	0
2019/08/03 23:07:00	BASE	12.22	112	20.42	138	0.4	72	-4.1	0	0	965.7	NA	0.0000		9999	2720	0	0	0
2019/08/03 23:08:00	BASE	12.73	114	18.42	120	0.3	73	-4.0	0	0	965.7	NA	0.0000		9999	7420	0	0	0
2019/08/03 23:09:00	BASE	11.40	115	16.98	104	0.3	73	-4.0	0	0	965.8	NA	0.0000		9999	7280	0	0	0
2019/08/03 23:10:00	BASE	11.84	123	16.15	139	0.3	73	-3.9	0	0	965.6	NA	0.0000		9999	3380	0	0	0
2019/08/03 23:11:00	BASE	13.81	125	16.15	139	0.3	74	-3.9	0	0	965.6	NA	0.0000		9999	3840	0	0	0
2019/08/03 23:12:00	BASE	14.88	120	16.15	139	0.3	73	-3.9	0	0	965.6	NA	0.0000		9999	3480	0	0	0
2019/08/03 23:13:00	BASE	15.31	123	18.42	129	0.4	73	-3.9	0	0	965.6	NA	0.0000		9999	6560	0	0	0
2019/08/03 23:14:00	BASE	16.24	130	20.99	135	0.4	73	-3.9	0	0	965.5	NA	0.0000		9999	3280	0	0	0
2019/08/03 23:15:00	BASE	16.40	130	20.99	135	0.4	72	-4.0	0	0	965.5	NA	0.0000		9999	3940	0	0	0
2019/08/03 23:16:00	BASE	15.75	127	20.99	135	0.3	72	-4.1	0	0	965.5	NA	0.0000		9999	3770	0	0	0
2019/08/03 23:17:00	BASE	15.69	127	20.99	135	0.3	73	-4.1	0	0	965.4	NA	0.0000		9999	3150	0	0	0
2019/08/03 23:18:00	BASE	16.23	125	20.99	135	0.2	73	-4.1	0	0	965.4	NA	0.0000		9999	3670	0	0	0
2019/08/03 23:19:00	BASE	16.18	123	20.99	135	0.2	73	-4.0	0	0	965.4	NA	0.0000		9999	3610	0	0	0
2019/08/03 23:20:00	BASE	16.60	120	20.99	135	0.2	74	-4.0	0	0	965.5	NA	0.0000		9999	3350	0	0	0
2019/08/03 23:21:00	BASE	17.64	123	20.99	135	0.2	73	-4.0	0	0	965.4	NA	0.0000		9999	0	0	0	7940
2019/08/03 23:22:00	BASE	17.58	128	20.99	135	0.3	73	-4.0	0	0	965.3	NA	0.0000	UP	9999	0	0	0	3710
2019/08/03 23:23:00	BASE	16.37	120	20.99	135	0.3	72	-4.1	0	0	965.4	NA	0.0000	UP	9999	3480	0	0	0
2019/08/03 23:24:00	BASE	14.27	118	19.70	128	0.4	72	-4.2	0	0	965.4	NA	0.0000	UP	9999	0	0	0	3080
2019/08/03 23:25:00	BASE	13.51	119	19.70	128	0.4	71	-4.2	0	0	965.4	NA	0.0000	UP	9999	2920	0	0	0
2019/08/03 23:26:00	BASE	13.46	109	19.70	128	0.4	71	-4.3	0	0	965.4	NA	0.0000	UP	9999	3540	0	0	0
2019/08/03 23:27:00	BASE	12.53	111	19.70	128	0.3	71	-4.3	0	0	965.3	NA	0.0000	UP	9999	3250	0	0	0
2019/08/03 23:28:00	BASE	13.35	128	19.70	128	0.3	72	-4.2	0	0	965.1	NA	0.0000	UP	9999	3080	0	0	0
2019/08/03 23:29:00	BASE	14.91	135	19.70	128	0.2	72	-4.2	0	0	965.1	NA	0.0000	UP	9999	0	0	0	9020
2019/08/03 23:30:00	BASE	15.02	134	19.70	128	0.1	73	-4.1	0	0	965.1	NA	0.0000	UP	9999	0	0	0	3810
2019/08/03 23:31:00	BASE	16.29	128	19.96	132	0.1	74	-4.0	0	0	964.9	NA	0.0000	UP	9999	3710	0	0	0
2019/08/03 23:32:00	BASE	18.06	124	21.25	125	0.1	74	-4.0	0	0	964.9	NA	0.0000	UP	9999	3450	0	0	0
2019/08/03 23:33:00	BASE	19.51	123	22.28	122	0.1	74	-4.0	0	0	964.8	NA	0.0000	UP	9999	0	0	0	4170
2019/08/03 23:34:00	BASE	19.78	126	22.28	122	0.2	73	-4.1	0	0	964.8	NA	0.0000	UP	9999	3450	0	0	0
2019/08/03 23:35:00	BASE	19.56	131	22.28	122	0.2	73	-4.1	0	0	964.6	NA	0.0000	UP	9999	0	0	0	4230
2019/08/03 23:36:00	BASE	19.06	133	22.28	122	0.2	73	-4.2	0	0	964.7	NA	0.0000	UP	9999	0	0	0	3380
2019/08/03 23:37:00	BASE	18.24	138	22.28	122	0.1	73	-4.2	0	0	964.6	NA	0.0000	UP	9999	3150	0	0	0
2019/08/03 23:38:00	BASE	17.77	139	22.28	122	0.1	73	-4.2	0	0	964.5	NA	0.0000	UP	9999	0	0	0	4040
2019/08/03 23:39:00	BASE	18.65	139	24.28	137	0.1	73	-4.2	0	0	964.4	NA	0.0000	UP	9999	3280	0	0	0
2019/08/03 23:40:00	BASE	21.84	138	25.93	143	0.1	74	-4.1	0	0	964.4	NA	0.0000	UP	9999	2950	0	0	0
2019/08/03 23:41:00	BASE	21.30	133	25.93	143	0.1	74	-4.1	0	0	964.5	NA	0.0000	UP	9999	2850	0	0	0
2019/08/03 23:42:00	BASE	18.93	130	25.93	143	0.1	74	-4.1	0	0	964.5	NA	0.0000	UP	9999	0	0	0	4040
2019/08/03 23:43:00	BASE	18.43	127	25.93	143	0.1	73	-4.1	0	0	964.5	NA	0.0000	UP	9999	0	0	0	4490
2019/08/03 23:44:00	BASE	18.37	126	25.93	143	0.2	73	-4.1	0	0	964.4	NA	0.0000	UP	9999	3120	0	0	0
2019/08/03 23:45:00	BASE	18.13	129	25.93	143	0.2	73	-4.1	0	0	964.6	NA	0.0000	UP	9999	0	0	0	4790
2019/08/03 23:46:00	BASE	16.54	130	25.93	143	0.2	73	-4.1	0	0	964.6	NA	0.0000	UP	9999	0	0	0	4530
2019/08/03 23:47:00	BASE	14.34	130	25.93	143	0.2	73	-4.1	0	0	964.6	NA	0.0000	UP	9999	0	0	0	4360
2019/08/03 23:48:00	BASE	13.12	136	25.93	143	0.2	73	-4.1	0	0	964.6	NA	0.0000	UP	9999	3180	0	0	0
2019/08/03 23:49:00	BASE	13.80	137	25.93	143	0.1	73	-4.1	0	0	964.4	NA	0.0000	UP	9999	2660	0	0	0
2019/08/03 23:50:00	BASE	16.13	132	21.66	131	0.1	73	-4.1	0	0	964.3	NA	0.0000	UP	9999	790	0	0	0
2019/08/03 23:51:00	BASE	17.19	132	21.66	131	0.1	74	-4.1	0	0	964.4	NA	0.0000	UP	9999	0	0	0	4070
2019/08/03 23:52:00	BASE	16.87	135	21.92	137	0.1	74	-4.0	0	0	964.2	NA	0.0000	UP	9999	3380	0	0	0
2019/08/03 23:53:00	BASE	18.69	137	21.97	142	0.1	74	-4.0	0	0	964.1	NA	0.0000	UP	9999	3050	0	0	0
2019/08/03 23:54:00	BASE	20.54	134	23.00	128	0.1	74	-3.9	0	0	964.1	NA	0.0000	UP	9999	0	0	0	6890
2019/08/03 23:55:00	BASE	20.32	127	23.00	128	0.1	75	-3.9	0	0	964.2	NA	0.0000	UP	9999	0	0	0	3310
2019/08/03 23:56:00	BASE	19.72	125	23.00	128	0.1	75	-3.8	0	0	964.2	NA	0.0000	UP	9999	2990	0	0	0
2019/08/03 23:57:00	BASE	18.56	126	23.00	128	0.1	75	-3.8	0	0	964.3	NA	0.0000	UP	9000	2720	0	0	0
2019/08/03 23:58:00	BASE	17.68	129	23.00	128	0.1	75	-3.8	0	0	964.1	NA	0.0000	UP	9999	3150	0	0	0
2019/08/03 23:59:00	BASE	19.38	129	23.77	134	0.0	76	-3.7	0	0	963.9	NA	0.0000	UP	9999	0	0	0	7220